Provisional Data: Starrucca Creek near Stevens Point, PA


Please select a monitoring station.
Please select start date.
Please select start date.

Toggle Unit: C/F Toggle Unit: C/F
Sample Time Temperature (C) Temperature (F) Specific Conductivity (mS/cm) pH   Turbidity (NTU+) DO (mg/L)
12/4/2020 12:00:00 AM 3.98 39.164 0.07 6.82 2.3 12.84
12/4/2020 12:15:00 AM 3.98 39.164 0.07 6.82 2.27 12.84
12/4/2020 12:30:00 AM 3.98 39.164 0.07 6.77 2.35 12.83
12/4/2020 12:45:00 AM 3.98 39.164 0.07 6.66 2.44 12.84
12/4/2020 1:00:00 AM 3.98 39.164 0.07 6.83 2.34 12.83
12/4/2020 1:15:00 AM 3.99 39.182 0.07 6.82 2.37 12.83
12/4/2020 1:30:00 AM 3.99 39.182 0.07 6.81 2.38 12.83
12/4/2020 1:45:00 AM 3.99 39.182 0.07 6.79 2.44 12.82
12/4/2020 2:00:00 AM 3.99 39.182 0.07 6.81 2.34 12.82
12/4/2020 2:15:00 AM 3.99 39.182 0.07 6.81 2.4 12.83
12/4/2020 2:30:00 AM 4 39.2 0.07 6.81 2.28 12.82
12/4/2020 2:45:00 AM 4 39.2 0.07 6.81 2.28 12.81
12/4/2020 3:00:00 AM 4 39.2 0.069 6.81 2.33 12.81
12/4/2020 3:15:00 AM 4.01 39.218 0.069 6.7 2.25 12.81
12/4/2020 3:30:00 AM 4.01 39.218 0.069 6.64 2.32 12.81
12/4/2020 3:45:00 AM 4.01 39.218 0.069 6.82 2.25 12.81
12/4/2020 4:00:00 AM 4.02 39.236 0.069 6.73 2.2 12.8
12/4/2020 4:15:00 AM 4.02 39.236 0.069 6.82 2.24 12.8
12/4/2020 4:30:00 AM 4.03 39.254 0.069 6.81 2.25 12.8
12/4/2020 4:45:00 AM 4.04 39.272 0.069 6.81 2.18 12.79
12/4/2020 5:00:00 AM 4.05 39.29 0.069 6.81 2.2 12.79
12/4/2020 5:15:00 AM 4.05 39.29 0.069 6.74 2.17 12.79
12/4/2020 5:30:00 AM 4.06 39.308 0.069 6.67 2.16 12.79
12/4/2020 5:45:00 AM 4.07 39.326 0.069 6.81 2.18 12.79
12/4/2020 6:00:00 AM 4.07 39.326 0.069 6.8 2.14 12.78
12/4/2020 6:15:00 AM 4.09 39.362 0.069 6.8 2.28 12.78
12/4/2020 6:30:00 AM 4.08 39.344 0.069 6.8 2.22 12.78
12/4/2020 6:45:00 AM 4.08 39.344 0.069 6.69 2.14 12.78
12/4/2020 7:00:00 AM 4.09 39.362 0.069 6.81 2.17 12.78
12/4/2020 7:15:00 AM 4.09 39.362 0.069 6.8 2.14 12.78
12/4/2020 7:30:00 AM 4.11 39.398 0.069 6.8 2.13 12.8
12/4/2020 7:45:00 AM 4.12 39.416 0.069 6.64 2.05 12.82
12/4/2020 8:00:00 AM 4.13 39.434 0.069 6.83 2.11 12.84
12/4/2020 8:15:00 AM 4.15 39.47 0.069 6.82 2.08 12.88
12/4/2020 8:30:00 AM 4.17 39.506 0.069 6.84 2.07 12.93
12/4/2020 8:45:00 AM 4.19 39.542 0.069 6.85 2 13
12/4/2020 9:00:00 AM 4.23 39.614 0.068 6.87 2 13.08
12/4/2020 9:15:00 AM 4.27 39.686 0.068 6.9 1.95 13.15
12/4/2020 9:30:00 AM 4.32 39.776 0.068 6.92 1.98 13.2
12/4/2020 9:45:00 AM 4.36 39.848 0.068 6.93 1.92 13.23
12/4/2020 10:00:00 AM 4.41 39.938 0.068 6.96 1.97 13.27
12/4/2020 10:15:00 AM 4.47 40.046 0.068 6.97 1.93 13.29
12/4/2020 10:30:00 AM 4.53 40.154 0.068 7.01 2.17 13.31
12/4/2020 10:45:00 AM 4.58 40.244 0.068 7.02 2.07 13.3
12/4/2020 11:00:00 AM 4.62 40.316 0.068 7.04 1.97 13.3
12/4/2020 11:15:00 AM 4.69 40.442 0.068 7.05 1.95 13.3
12/4/2020 11:30:00 AM 4.75 40.55 0.068 7.06 1.88 13.28
12/4/2020 11:45:00 AM 4.8 40.64 0.068 6.88 1.86 13.27
12/4/2020 12:00:00 PM 4.86 40.748 0.068 7.11 1.85 13.26
12/4/2020 12:15:00 PM 4.94 40.892 0.068 7.11 1.85 13.25
12/4/2020 12:30:00 PM 5.07 41.126 0.068 6.96 1.89 13.24
12/4/2020 12:45:00 PM 5.23 41.414 0.067 7.16 1.8 13.22
12/4/2020 1:00:00 PM 5.35 41.63 0.067 7.16 1.94 13.18
12/4/2020 1:15:00 PM 5.45 41.81 0.067 7.16 1.87 13.15
12/4/2020 1:30:00 PM 5.47 41.846 0.068 7.15 2.04 13.07
12/4/2020 1:45:00 PM 5.51 41.918 0.068 7.14 1.9 13.01
12/4/2020 2:00:00 PM 5.58 42.044 0.068 7.15 1.89 12.99
12/4/2020 2:15:00 PM 5.63 42.134 0.068 7.15 1.93 12.97
12/4/2020 2:30:00 PM 5.67 42.206 0.068 7.15 1.86 12.94
12/4/2020 2:45:00 PM 5.69 42.242 0.068 7.14 2.73 12.9
12/4/2020 3:00:00 PM 5.69 42.242 0.068 7.13 2.16 12.86
12/4/2020 3:15:00 PM 5.7 42.26 0.068 7.1 5.18 12.74
12/4/2020 3:30:00 PM 5.72 42.296 0.068 7.08 2.25 12.7
12/4/2020 3:45:00 PM 5.75 42.35 0.068 6.95 2.13 12.63
12/4/2020 4:00:00 PM 5.79 42.422 0.068 7.05 2.15 12.52
12/4/2020 4:15:00 PM 5.81 42.458 0.068 7.02 2.47 12.43
12/4/2020 4:30:00 PM 5.82 42.476 0.068 6.88 2.22 12.34
12/4/2020 4:45:00 PM 5.83 42.494 0.068 6.97 2.3 12.28
12/4/2020 5:00:00 PM 5.82 42.476 0.069 6.9 2.26 12.23
12/4/2020 5:15:00 PM 5.8 42.44 0.069 6.93 2.29 12.2
12/4/2020 5:30:00 PM 5.77 42.386 0.069 6.92 2.26 12.18
12/4/2020 5:45:00 PM 5.71 42.278 0.069 6.91 2.47 12.17
12/4/2020 6:00:00 PM 5.66 42.188 0.069 6.9 2.26 12.17
12/4/2020 6:15:00 PM 5.62 42.116 0.069 6.89 2.3 12.17
12/4/2020 6:30:00 PM 5.58 42.044 0.069 6.88 2.3 12.18
12/4/2020 6:45:00 PM 5.53 41.954 0.069 6.87 2.22 12.2
12/4/2020 7:00:00 PM 5.48 41.864 0.069 6.87 2.14 12.21
12/4/2020 7:15:00 PM 5.45 41.81 0.069 6.87 2.21 12.22
12/4/2020 7:30:00 PM 5.42 41.756 0.069 6.77 2.18 12.23
12/4/2020 7:45:00 PM 5.38 41.684 0.07 6.86 2.24 12.25
12/4/2020 8:00:00 PM 5.35 41.63 0.07 6.75 2.18 12.25
12/4/2020 8:15:00 PM 5.33 41.594 0.07 6.78 2.17 12.27
12/4/2020 8:30:00 PM 5.31 41.558 0.07 6.86 2.2 12.27
12/4/2020 8:45:00 PM 5.29 41.522 0.07 6.85 2.16 12.28
12/4/2020 9:00:00 PM 5.27 41.486 0.07 6.85 2.11 12.3
12/4/2020 9:15:00 PM 5.24 41.432 0.07 6.82 2.09 12.31
12/4/2020 9:30:00 PM 5.24 41.432 0.07 6.85 2.21 12.32
12/4/2020 9:45:00 PM 5.21 41.378 0.07 6.85 2.16 12.32
12/4/2020 10:00:00 PM 5.2 41.36 0.07 6.84 2.16 12.33
12/4/2020 10:15:00 PM 5.18 41.324 0.07 6.84 2.08 12.34
12/4/2020 10:30:00 PM 5.17 41.306 0.07 6.84 2.07 12.34
12/4/2020 10:45:00 PM 5.16 41.288 0.07 6.84 2.17 12.34
12/4/2020 11:00:00 PM 5.16 41.288 0.07 6.83 2.03 12.34
12/4/2020 11:15:00 PM 5.15 41.27 0.07 6.84 2.08 12.34
12/4/2020 11:30:00 PM 5.14 41.252 0.07 6.71 2.15 12.35
12/4/2020 11:45:00 PM 5.14 41.252 0.07 6.73 2.01 12.34
12/5/2020 12:00:00 AM 5.13 41.234 0.07 6.84 1.99 12.34
12/5/2020 12:15:00 AM 5.11 41.198 0.07 6.64 2.13 12.35
12/5/2020 12:30:00 AM 5.1 41.18 0.07 6.84 2.15 12.35
12/5/2020 12:45:00 AM 5.08 41.144 0.07 6.83 2.07 12.35
12/5/2020 1:00:00 AM 5.06 41.108 0.07 6.82 2.2 12.36
12/5/2020 1:15:00 AM 5.04 41.072 0.07 6.82 2.06 12.36
12/5/2020 1:30:00 AM 5.02 41.036 0.07 6.82 2.08 12.36
12/5/2020 1:45:00 AM 4.99 40.982 0.07 6.63 2.06 12.37
12/5/2020 2:00:00 AM 4.97 40.946 0.07 6.83 2.14 12.37
12/5/2020 2:15:00 AM 4.94 40.892 0.07 6.82 2.15 12.38
12/5/2020 2:30:00 AM 4.92 40.856 0.07 6.81 1.99 12.38
12/5/2020 2:45:00 AM 4.91 40.838 0.07 6.81 1.99 12.38
12/5/2020 3:00:00 AM 4.89 40.802 0.07 6.81 2.03 12.38
12/5/2020 3:15:00 AM 4.87 40.766 0.07 6.8 1.96 12.39
12/5/2020 3:30:00 AM 4.86 40.748 0.07 6.8 1.97 12.39
12/5/2020 3:45:00 AM 4.83 40.694 0.07 6.81 1.97 12.4
12/5/2020 4:00:00 AM 4.82 40.676 0.07 6.81 2 12.4
12/5/2020 4:15:00 AM 4.81 40.658 0.07 6.8 1.95 12.4
12/5/2020 4:30:00 AM 4.79 40.622 0.07 6.81 1.95 12.4
12/5/2020 4:45:00 AM 4.79 40.622 0.07 6.81 2.06 12.4
12/5/2020 5:00:00 AM 4.77 40.586 0.07 6.77 1.98 12.41
12/5/2020 5:15:00 AM 4.76 40.568 0.07 6.81 1.92 12.4
12/5/2020 5:30:00 AM 4.74 40.532 0.07 6.8 2.02 12.42
12/5/2020 5:45:00 AM 4.73 40.514 0.07 6.8 1.95 12.43
12/5/2020 6:00:00 AM 4.72 40.496 0.07 6.8 2.02 12.43
12/5/2020 6:15:00 AM 4.72 40.496 0.07 6.71 2.06 12.42
12/5/2020 6:30:00 AM 4.72 40.496 0.07 6.82 1.94 12.43
12/5/2020 6:45:00 AM 4.73 40.514 0.07 6.81 1.95 12.44
12/5/2020 7:00:00 AM 4.73 40.514 0.07 6.75 1.96 12.43
12/5/2020 7:15:00 AM 4.73 40.514 0.07 6.82 1.94 12.44
12/5/2020 7:30:00 AM 4.74 40.532 0.07 6.72 1.95 12.45
12/5/2020 7:45:00 AM 4.73 40.514 0.07 6.73 2.03 12.46
12/5/2020 8:00:00 AM 4.73 40.514 0.07 6.84 1.9 12.5
12/5/2020 8:15:00 AM 4.74 40.532 0.07 6.84 1.93 12.55
12/5/2020 8:30:00 AM 4.73 40.514 0.07 6.86 1.86 12.6
12/5/2020 8:45:00 AM 4.73 40.514 0.07 6.86 1.86 12.64
12/5/2020 9:00:00 AM 4.75 40.55 0.07 6.86 1.8 12.64
12/5/2020 9:15:00 AM 4.73 40.514 0.07 6.87 1.89 12.66
12/5/2020 9:30:00 AM 4.75 40.55 0.07 6.88 1.79 12.71
12/5/2020 9:45:00 AM 4.75 40.55 0.07 6.9 1.79 12.77
12/5/2020 10:00:00 AM 4.77 40.586 0.07 6.92 1.86 12.81
12/5/2020 10:15:00 AM 4.76 40.568 0.07 6.92 1.73 12.84
12/5/2020 10:30:00 AM 4.76 40.568 0.07 6.9 1.81 12.85
12/5/2020 10:45:00 AM 4.78 40.604 0.07 6.79 1.78 12.93
12/5/2020 11:00:00 AM 4.8 40.64 0.07 6.98 1.77 12.94
12/5/2020 11:15:00 AM 4.81 40.658 0.069 6.83 1.79 12.94
12/5/2020 11:30:00 AM 4.8 40.64 0.069 6.99 1.76 12.94
12/5/2020 11:45:00 AM 4.82 40.676 0.069 7 1.69 12.97
12/5/2020 12:00:00 PM 4.84 40.712 0.069 7.02 1.73 13.01
12/5/2020 12:15:00 PM 4.88 40.784 0.069 7.02 1.73 13.02
12/5/2020 12:30:00 PM 4.86 40.748 0.069 6.96 1.76 12.95
12/5/2020 12:45:00 PM 4.84 40.712 0.069 7.01 1.87 12.91
12/5/2020 1:00:00 PM 4.82 40.676 0.069 7 1.75 12.88
12/5/2020 1:15:00 PM 4.82 40.676 0.069 7.01 1.83 12.93
12/5/2020 1:30:00 PM 4.81 40.658 0.069 7.01 1.83 12.89
12/5/2020 1:45:00 PM 4.79 40.622 0.069 6.9 1.78 12.89
12/5/2020 2:00:00 PM 4.75 40.55 0.069 6.94 1.77 12.87
12/5/2020 2:15:00 PM 4.75 40.55 0.069 6.85 1.91 12.9
12/5/2020 2:30:00 PM 4.72 40.496 0.069 7.03 1.83 12.88
12/5/2020 2:45:00 PM 4.7 40.46 0.069 6.98 1.78 12.84
12/5/2020 3:00:00 PM 4.68 40.424 0.069 6.99 1.8 12.8
12/5/2020 3:15:00 PM 4.65 40.37 0.07 6.97 1.82 12.76
12/5/2020 3:30:00 PM 4.63 40.334 0.07 6.96 1.85 12.72
12/5/2020 3:45:00 PM 4.61 40.298 0.07 6.95 1.94 12.69
12/5/2020 4:00:00 PM 4.56 40.208 0.07 6.84 1.93 12.67
12/5/2020 4:15:00 PM 4.52 40.136 0.07 6.75 1.82 12.63
12/5/2020 4:30:00 PM 4.48 40.064 0.07 6.93 1.92 12.62
12/5/2020 4:45:00 PM 4.45 40.01 0.07 6.9 1.86 12.6
12/5/2020 5:00:00 PM 4.4 39.92 0.07 6.9 1.95 12.59
12/5/2020 5:15:00 PM 4.37 39.866 0.07 6.89 1.93 12.58
12/5/2020 5:30:00 PM 4.33 39.794 0.07 6.89 1.83 12.59
12/5/2020 5:45:00 PM 4.31 39.758 0.07 6.87 1.94 12.59
12/5/2020 6:00:00 PM 4.27 39.686 0.07 6.88 1.91 12.6
12/5/2020 6:15:00 PM 4.24 39.632 0.07 6.78 1.92 12.6
12/5/2020 6:30:00 PM 4.23 39.614 0.07 6.88 1.94 12.6
12/5/2020 6:45:00 PM 4.2 39.56 0.07 6.86 1.86 12.62
12/5/2020 7:00:00 PM 4.17 39.506 0.07 6.86 2.03 12.63
12/5/2020 7:15:00 PM 4.14 39.452 0.071 6.87 2.03 12.63
12/5/2020 7:30:00 PM 4.12 39.416 0.071 6.66 1.96 12.65
12/5/2020 7:45:00 PM 4.1 39.38 0.071 6.87 1.94 12.66
12/5/2020 8:00:00 PM 4.05 39.29 0.071 6.85 1.81 12.67
12/5/2020 8:15:00 PM 4.01 39.218 0.071 6.85 2.02 12.68
12/5/2020 8:30:00 PM 3.96 39.128 0.071 6.73 1.94 12.69
12/5/2020 8:45:00 PM 3.94 39.092 0.071 6.86 1.9 12.7
12/5/2020 9:00:00 PM 3.91 39.038 0.071 6.85 1.82 12.71
12/5/2020 9:15:00 PM 3.89 39.002 0.071 6.85 1.85 12.72
12/5/2020 9:30:00 PM 3.85 38.93 0.071 6.84 1.81 12.73
12/5/2020 9:45:00 PM 3.8 38.84 0.071 6.84 1.92 12.75
12/5/2020 10:00:00 PM 3.77 38.786 0.071 6.84 1.81 12.74
12/5/2020 10:15:00 PM 3.76 38.768 0.071 6.8 1.86 12.76
12/5/2020 10:30:00 PM 3.74 38.732 0.071 6.84 1.81 12.76
12/5/2020 10:45:00 PM 3.74 38.732 0.071 6.83 1.79 12.77
12/5/2020 11:00:00 PM 3.71 38.678 0.071 6.83 1.82 12.77
12/5/2020 11:15:00 PM 3.69 38.642 0.071 6.83 2.01 12.8
12/5/2020 11:30:00 PM 3.67 38.606 0.071 6.83 1.86 12.79
12/5/2020 11:45:00 PM 3.66 38.588 0.071 6.83 1.84 12.8
12/6/2020 12:00:00 AM 3.64 38.552 0.071 6.83 1.77 12.8
12/6/2020 12:15:00 AM 3.63 38.534 0.071 6.83 1.85 12.81
12/6/2020 12:30:00 AM 3.59 38.462 0.071 6.83 1.82 12.82
12/6/2020 12:45:00 AM 3.56 38.408 0.071 6.83 1.84 12.82
12/6/2020 1:00:00 AM 3.54 38.372 0.071 6.83 1.96 12.83
12/6/2020 1:15:00 AM 3.51 38.318 0.071 6.7 1.84 12.84
12/6/2020 1:30:00 AM 3.49 38.282 0.071 6.71 1.87 12.84
12/6/2020 1:45:00 AM 3.48 38.264 0.071 6.84 1.83 12.86
12/6/2020 2:00:00 AM 3.46 38.228 0.071 6.83 1.85 12.86
12/6/2020 2:15:00 AM 3.43 38.174 0.071 6.83 1.72 12.87
12/6/2020 2:30:00 AM 3.41 38.138 0.071 6.72 1.83 12.88
12/6/2020 2:45:00 AM 3.39 38.102 0.071 6.83 1.78 12.89
12/6/2020 3:00:00 AM 3.36 38.048 0.071 6.82 1.72 12.9
12/6/2020 3:15:00 AM 3.33 37.994 0.071 6.82 1.78 12.91
12/6/2020 3:30:00 AM 3.29 37.922 0.071 6.82 1.89 12.92
12/6/2020 3:45:00 AM 3.25 37.85 0.071 6.82 1.69 12.94
12/6/2020 4:00:00 AM 3.22 37.796 0.071 6.76 1.75 12.95
12/6/2020 4:15:00 AM 3.2 37.76 0.071 6.84 1.91 12.95
12/6/2020 4:30:00 AM 3.15 37.67 0.071 6.82 1.71 12.97
12/6/2020 4:45:00 AM 3.11 37.598 0.072 6.82 2.07 12.98
12/6/2020 5:00:00 AM 3.07 37.526 0.072 6.83 1.72 12.99
12/6/2020 5:15:00 AM 3.03 37.454 0.072 6.83 1.81 13.01
12/6/2020 5:30:00 AM 2.99 37.382 0.071 6.64 1.64 13.03
12/6/2020 5:45:00 AM 2.94 37.292 0.072 6.84 1.67 13.05
12/6/2020 6:00:00 AM 2.89 37.202 0.071 6.82 1.74 13.06
12/6/2020 6:15:00 AM 2.85 37.13 0.072 6.82 1.77 13.07
12/6/2020 6:30:00 AM 2.8 37.04 0.072 6.82 1.73 13.1
12/6/2020 6:45:00 AM 2.77 36.986 0.072 6.73 1.67 13.11
12/6/2020 7:00:00 AM 2.74 36.932 0.072 6.83 1.69 13.12
12/6/2020 7:15:00 AM 2.69 36.842 0.072 6.76 1.69 13.16
12/6/2020 7:30:00 AM 2.68 36.824 0.072 6.83 1.65 13.17
12/6/2020 7:45:00 AM 2.64 36.752 0.072 6.83 1.68 13.21
12/6/2020 8:00:00 AM 2.62 36.716 0.072 6.84 1.65 13.25
12/6/2020 8:15:00 AM 2.61 36.698 0.071 6.84 1.7 13.33
12/6/2020 8:30:00 AM 2.59 36.662 0.071 6.86 1.66 13.4
12/6/2020 8:45:00 AM 2.59 36.662 0.071 6.87 1.59 13.46
12/6/2020 9:00:00 AM 2.57 36.626 0.071 6.88 1.62 13.54
12/6/2020 9:15:00 AM 2.57 36.626 0.071 6.89 1.62 13.6
12/6/2020 9:30:00 AM 2.57 36.626 0.071 6.92 1.63 13.7
12/6/2020 9:45:00 AM 2.58 36.644 0.071 6.94 1.61 13.76
12/6/2020 10:00:00 AM 2.58 36.644 0.071 6.95 1.63 13.8
12/6/2020 10:15:00 AM 2.6 36.68 0.071 6.97 1.65 13.84
12/6/2020 10:30:00 AM 2.6 36.68 0.071 6.82 1.63 13.86
12/6/2020 10:45:00 AM 2.6 36.68 0.071 7.01 1.58 13.88
12/6/2020 11:00:00 AM 2.61 36.698 0.071 7.01 1.56 13.89
12/6/2020 11:15:00 AM 2.63 36.734 0.071 7.02 1.61 13.91
12/6/2020 11:30:00 AM 2.67 36.806 0.071 7.04 1.56 13.92
12/6/2020 11:45:00 AM 2.71 36.878 0.07 7.05 1.6 13.94
12/6/2020 12:00:00 PM 2.73 36.914 0.07 7.06 1.75 13.94
12/6/2020 12:15:00 PM 2.74 36.932 0.07 7.07 1.55 13.94
12/6/2020 12:30:00 PM 2.76 36.968 0.07 7.08 1.59 13.95
12/6/2020 12:45:00 PM 2.78 37.004 0.07 7.09 1.61 13.93
12/6/2020 1:00:00 PM 2.8 37.04 0.07 6.95 1.55 13.92
12/6/2020 1:15:00 PM 2.81 37.058 0.07 7.11 1.48 13.9
12/6/2020 1:30:00 PM 2.84 37.112 0.07 7.11 1.55 13.9
12/6/2020 1:45:00 PM 2.86 37.148 0.07 6.99 1.54 13.88
12/6/2020 2:00:00 PM 2.86 37.148 0.07 7.03 1.57 13.84
12/6/2020 2:15:00 PM 2.86 37.148 0.07 7.11 1.52 13.83
12/6/2020 2:30:00 PM 2.85 37.13 0.07 7.09 1.56 13.8
12/6/2020 2:45:00 PM 2.87 37.166 0.07 7.08 1.57 13.73
12/6/2020 3:00:00 PM 2.85 37.13 0.07 7.08 1.52 13.75
12/6/2020 3:15:00 PM 2.86 37.148 0.07 7.07 1.53 13.7
12/6/2020 3:30:00 PM 2.84 37.112 0.07 6.99 1.56 13.65
12/6/2020 3:45:00 PM 2.83 37.094 0.071 7.03 1.63 13.61
12/6/2020 4:00:00 PM 2.81 37.058 0.071 7.02 1.6 13.54
12/6/2020 4:15:00 PM 2.78 37.004 0.071 7 1.57 13.47
12/6/2020 4:30:00 PM 2.74 36.932 0.071 6.96 1.57 13.41
12/6/2020 4:45:00 PM 2.72 36.896 0.071 6.96 1.59 13.36
12/6/2020 5:00:00 PM 2.69 36.842 0.071 6.94 1.63 13.31
12/6/2020 5:15:00 PM 2.66 36.788 0.071 6.93 1.51 13.28
12/6/2020 5:30:00 PM 2.63 36.734 0.071 6.92 1.6 13.26
12/6/2020 5:45:00 PM 2.61 36.698 0.071 6.91 1.53 13.24
12/6/2020 6:00:00 PM 2.57 36.626 0.072 6.9 1.65 13.23
12/6/2020 6:15:00 PM 2.54 36.572 0.072 6.89 1.67 13.24
12/6/2020 6:30:00 PM 2.5 36.5 0.072 6.89 1.61 13.24
12/6/2020 6:45:00 PM 2.49 36.482 0.072 6.88 1.6 13.25
12/6/2020 7:00:00 PM 2.46 36.428 0.072 6.88 1.57 13.25
12/6/2020 7:15:00 PM 2.44 36.392 0.072 6.87 1.55 13.26
12/6/2020 7:30:00 PM 2.41 36.338 0.072 6.87 1.57 13.27
12/6/2020 7:45:00 PM 2.4 36.32 0.072 6.86 1.57 13.28
12/6/2020 8:00:00 PM 2.38 36.284 0.072 6.86 1.57 13.29
12/6/2020 8:15:00 PM 2.36 36.248 0.072 6.67 1.59 13.3
12/6/2020 8:30:00 PM 2.34 36.212 0.072 6.88 1.62 13.31
12/6/2020 8:45:00 PM 2.32 36.176 0.072 6.86 1.55 13.31
12/6/2020 9:00:00 PM 2.32 36.176 0.072 6.86 1.58 13.31
12/6/2020 9:15:00 PM 2.31 36.158 0.072 6.86 1.59 13.32
12/6/2020 9:30:00 PM 2.32 36.176 0.072 6.86 1.61 13.32
12/6/2020 9:45:00 PM 2.31 36.158 0.073 6.86 1.62 13.33
12/6/2020 10:00:00 PM 2.32 36.176 0.073 6.86 1.6 13.33
12/6/2020 10:15:00 PM 2.29 36.122 0.073 6.75 1.64 13.33
12/6/2020 10:30:00 PM 2.29 36.122 0.073 6.85 1.62 13.33
12/6/2020 10:45:00 PM 2.27 36.086 0.073 6.86 1.56 13.34
12/6/2020 11:00:00 PM 2.27 36.086 0.073 6.85 1.58 13.35
12/6/2020 11:15:00 PM 2.24 36.032 0.073 6.85 1.63 13.35
12/6/2020 11:30:00 PM 2.24 36.032 0.073 6.85 1.59 13.35
12/6/2020 11:45:00 PM 2.22 35.996 0.073 6.84 1.57 13.36
12/7/2020 12:00:00 AM 2.21 35.978 0.073 6.85 1.63 13.36
12/7/2020 12:15:00 AM 2.19 35.942 0.073 6.85 1.51 13.36
12/7/2020 12:30:00 AM 2.18 35.924 0.073 6.84 1.61 13.37
12/7/2020 12:45:00 AM 2.17 35.906 0.074 6.67 1.55 13.37
12/7/2020 1:00:00 AM 2.16 35.888 0.074 6.86 1.59 13.37
12/7/2020 1:15:00 AM 2.14 35.852 0.074 6.84 1.54 13.38
12/7/2020 1:30:00 AM 2.13 35.834 0.074 6.84 1.55 13.38
12/7/2020 1:45:00 AM 2.12 35.816 0.074 6.85 1.5 13.38
12/7/2020 2:00:00 AM 2.11 35.798 0.074 6.84 1.58 13.38
12/7/2020 2:15:00 AM 2.09 35.762 0.074 6.84 1.61 13.39
12/7/2020 2:30:00 AM 2.07 35.726 0.074 6.83 1.54 13.4
12/7/2020 2:45:00 AM 2.05 35.69 0.074 6.84 1.63 13.4
12/7/2020 3:00:00 AM 2.04 35.672 0.074 6.83 1.53 13.41
12/7/2020 3:15:00 AM 2.02 35.636 0.074 6.84 1.55 13.41
12/7/2020 3:30:00 AM 2.02 35.636 0.074 6.83 1.57 13.41
12/7/2020 3:45:00 AM 2 35.6 0.074 6.69 1.53 13.42
12/7/2020 4:00:00 AM 1.97 35.546 0.074 6.85 1.53 13.42
12/7/2020 4:15:00 AM 1.96 35.528 0.073 6.83 1.54 13.43
12/7/2020 4:30:00 AM 1.95 35.51 0.073 6.83 1.53 13.43
12/7/2020 4:45:00 AM 1.93 35.474 0.073 6.83 1.57 13.43
12/7/2020 5:00:00 AM 1.91 35.438 0.073 6.73 1.56 13.44
12/7/2020 5:15:00 AM 1.89 35.402 0.073 6.85 1.51 13.45
12/7/2020 5:30:00 AM 1.88 35.384 0.073 6.83 1.57 13.45
12/7/2020 5:45:00 AM 1.87 35.366 0.073 6.83 1.51 13.45
12/7/2020 6:00:00 AM 1.87 35.366 0.073 6.82 1.59 13.46
12/7/2020 6:15:00 AM 1.86 35.348 0.073 6.83 1.56 13.46
12/7/2020 6:30:00 AM 1.84 35.312 0.073 6.63 1.52 13.46
12/7/2020 6:45:00 AM 1.83 35.294 0.073 6.84 1.54 13.48
12/7/2020 7:00:00 AM 1.81 35.258 0.073 6.77 1.66 13.47
12/7/2020 7:15:00 AM 1.81 35.258 0.073 6.82 1.51 13.48
12/7/2020 7:30:00 AM 1.79 35.222 0.073 6.64 1.5 13.5
12/7/2020 7:45:00 AM 1.8 35.24 0.073 6.85 1.56 13.54
12/7/2020 8:00:00 AM 1.78 35.204 0.073 6.84 1.53 13.58
12/7/2020 8:15:00 AM 1.78 35.204 0.073 6.75 1.5 13.68
12/7/2020 8:30:00 AM 1.78 35.204 0.072 6.85 1.48 13.77
12/7/2020 8:45:00 AM 1.79 35.222 0.072 6.9 1.46 13.88
12/7/2020 9:00:00 AM 1.82 35.276 0.072 6.91 1.5 13.96
12/7/2020 9:15:00 AM 1.85 35.33 0.072 6.92 1.48 14.03
12/7/2020 9:30:00 AM 1.89 35.402 0.072 6.94 1.51 14.09
12/7/2020 9:45:00 AM 1.92 35.456 0.072 6.97 1.48 14.13
12/7/2020 10:00:00 AM 1.98 35.564 0.071 6.79 1.44 14.16
12/7/2020 10:15:00 AM 2.02 35.636 0.071 7.02 1.49 14.17
12/7/2020 10:30:00 AM 2.06 35.708 0.071 7.01 1.43 14.16
12/7/2020 10:45:00 AM 2.08 35.744 0.071 6.91 1.48 14.17
12/7/2020 11:00:00 AM 2.14 35.852 0.071 7.06 1.41 14.18
12/7/2020 11:15:00 AM 2.16 35.888 0.071 7.04 1.52 14.13
12/7/2020 11:30:00 AM 2.17 35.906 0.071 7.04 1.5 14.11
12/7/2020 11:45:00 AM 2.16 35.888 0.071 7.04 1.52 14.11
12/7/2020 12:00:00 PM 2.18 35.924 0.071 7.04 1.47 14.09
12/7/2020 12:15:00 PM 2.23 36.014 0.071 7.06 1.42 14.1
12/7/2020 12:30:00 PM 2.29 36.122 0.071 7.07 1.48 14.11
12/7/2020 12:45:00 PM 2.34 36.212 0.071 7.08 1.46 14.1
12/7/2020 1:00:00 PM 2.33 36.194 0.071 7.07 1.48 14.07
12/7/2020 1:15:00 PM 2.32 36.176 0.071 7.06 1.52 14.04
12/7/2020 1:30:00 PM 2.37 36.266 0.071 6.9 1.44 14.05
12/7/2020 1:45:00 PM 2.4 36.32 0.071 7.09 1.43 14.02
12/7/2020 2:00:00 PM 2.45 36.41 0.07 7.09 1.5 14.01
12/7/2020 2:15:00 PM 2.46 36.428 0.07 7.09 1.44 14.01
12/7/2020 2:30:00 PM 2.48 36.464 0.07 7.09 1.48 14
12/7/2020 2:45:00 PM 2.47 36.446 0.07 7.1 1.46 13.98
12/7/2020 3:00:00 PM 2.46 36.428 0.071 7.08 1.54 13.93
12/7/2020 3:15:00 PM 2.45 36.41 0.071 7.08 1.49 13.89
12/7/2020 3:30:00 PM 2.43 36.374 0.071 7.06 1.54 13.82
12/7/2020 3:45:00 PM 2.41 36.338 0.071 7.03 1.45 13.72
12/7/2020 4:00:00 PM 2.38 36.284 0.071 6.98 1.49 13.65
12/7/2020 4:15:00 PM 2.34 36.212 0.071 6.98 1.48 13.57
12/7/2020 4:30:00 PM 2.32 36.176 0.071 6.96 1.52 13.51
12/7/2020 4:45:00 PM 2.29 36.122 0.071 6.94 1.57 13.44
12/7/2020 5:00:00 PM 2.24 36.032 0.072 6.94 1.51 13.42
12/7/2020 5:15:00 PM 2.22 35.996 0.072 6.92 1.47 13.37
12/7/2020 5:30:00 PM 2.19 35.942 0.072 6.86 1.48 13.35
12/7/2020 5:45:00 PM 2.18 35.924 0.072 6.9 1.45 13.34
12/7/2020 6:00:00 PM 2.15 35.87 0.072 6.89 1.45 13.33
12/7/2020 6:15:00 PM 2.12 35.816 0.072 6.88 1.48 13.34
12/7/2020 6:30:00 PM 2.08 35.744 0.072 6.88 1.52 13.35
12/7/2020 6:45:00 PM 2.06 35.708 0.072 6.88 1.5 13.35
12/7/2020 7:00:00 PM 2.03 35.654 0.072 6.87 1.54 13.36
12/7/2020 7:15:00 PM 2.01 35.618 0.072 6.87 1.55 13.37
12/7/2020 7:30:00 PM 1.96 35.528 0.072 6.87 1.58 13.39
12/7/2020 7:45:00 PM 1.93 35.474 0.073 6.84 1.49 13.39
12/7/2020 8:00:00 PM 1.9 35.42 0.073 6.87 1.51 13.41
12/7/2020 8:15:00 PM 1.87 35.366 0.073 6.86 1.52 13.43
12/7/2020 8:30:00 PM 1.84 35.312 0.073 6.86 1.56 13.43
12/7/2020 8:45:00 PM 1.82 35.276 0.073 6.86 1.49 13.44
12/7/2020 9:00:00 PM 1.8 35.24 0.073 6.86 1.48 13.46
12/7/2020 9:15:00 PM 1.77 35.186 0.073 6.86 1.57 13.47
12/7/2020 9:30:00 PM 1.77 35.186 0.073 6.86 1.49 13.47
12/7/2020 9:45:00 PM 1.74 35.132 0.073 6.84 1.48 13.48
12/7/2020 10:00:00 PM 1.73 35.114 0.073 6.86 1.57 13.48
12/7/2020 10:15:00 PM 1.71 35.078 0.073 6.85 1.5 13.49
12/7/2020 10:30:00 PM 1.69 35.042 0.073 6.73 1.59 13.49
12/7/2020 10:45:00 PM 1.67 35.006 0.073 6.86 1.49 13.51
12/7/2020 11:00:00 PM 1.67 35.006 0.073 6.84 1.51 13.51
12/7/2020 11:15:00 PM 1.65 34.97 0.073 6.84 1.5 13.52
12/7/2020 11:30:00 PM 1.65 34.97 0.072 6.84 1.46 13.52
12/7/2020 11:45:00 PM 1.63 34.934 0.072 6.77 1.5 13.53
12/8/2020 12:00:00 AM 1.61 34.898 0.072 6.84 1.72 13.52
12/8/2020 12:15:00 AM 1.61 34.898 0.072 6.83 1.53 13.52
12/8/2020 12:30:00 AM 1.59 34.862 0.072 6.84 1.51 13.53
12/8/2020 12:45:00 AM 1.59 34.862 0.072 6.83 1.57 13.53
12/8/2020 1:00:00 AM 1.57 34.826 0.072 6.83 1.51 13.54
12/8/2020 1:15:00 AM 1.54 34.772 0.072 6.83 1.5 13.54
12/8/2020 1:30:00 AM 1.53 34.754 0.072 6.82 1.55 13.55
12/8/2020 1:45:00 AM 1.52 34.736 0.072 6.83 1.44 13.56
12/8/2020 2:00:00 AM 1.5 34.7 0.072 6.82 1.45 13.56
12/8/2020 2:15:00 AM 1.43 34.574 0.072 6.83 1.45 13.59
12/8/2020 2:30:00 AM 1.41 34.538 0.072 6.83 1.42 13.59
12/8/2020 2:45:00 AM 1.39 34.502 0.072 6.82 1.44 13.59
12/8/2020 3:00:00 AM 1.36 34.448 0.072 6.7 1.42 13.6
12/8/2020 3:15:00 AM 1.35 34.43 0.072 6.73 1.51 13.62
12/8/2020 3:30:00 AM 1.32 34.376 0.072 6.74 1.45 13.62
12/8/2020 3:45:00 AM 1.3 34.34 0.072 6.84 1.56 13.63
12/8/2020 4:00:00 AM 1.28 34.304 0.072 6.83 1.42 13.65
12/8/2020 4:15:00 AM 1.26 34.268 0.072 6.82 1.5 13.65
12/8/2020 4:30:00 AM 1.22 34.196 0.072 6.83 1.5 13.67
12/8/2020 4:45:00 AM 1.22 34.196 0.072 6.82 1.44 13.68
12/8/2020 5:00:00 AM 1.17 34.106 0.073 6.82 1.5 13.69
12/8/2020 5:15:00 AM 1.16 34.088 0.073 6.82 1.52 13.7
12/8/2020 5:30:00 AM 1.13 34.034 0.073 6.82 1.46 13.69
12/8/2020 5:45:00 AM 1.11 33.998 0.073 6.81 1.5 13.69
12/8/2020 6:00:00 AM 1.1 33.98 0.073 6.81 1.44 13.71
12/8/2020 6:15:00 AM 1.06 33.908 0.073 6.82 1.51 13.75
12/8/2020 6:30:00 AM 1.04 33.872 0.073 6.82 1.44 13.75
12/8/2020 6:45:00 AM 1.02 33.836 0.073 6.82 1.48 13.76
12/8/2020 7:00:00 AM 1.02 33.836 0.073 6.82 1.46 13.75
12/8/2020 7:15:00 AM 0.99 33.782 0.073 6.82 1.43 13.78
12/8/2020 7:30:00 AM 0.99 33.782 0.073 6.81 1.53 13.77
12/8/2020 7:45:00 AM 0.99 33.782 0.074 6.81 1.45 13.8
12/8/2020 8:00:00 AM 0.97 33.746 0.074 6.8 1.46 13.85
12/8/2020 8:15:00 AM 0.97 33.746 0.073 6.66 1.4 13.91
12/8/2020 8:30:00 AM 0.97 33.746 0.073 6.7 1.41 13.99
12/8/2020 8:45:00 AM 0.99 33.782 0.073 6.88 1.45 14.06
12/8/2020 9:00:00 AM 1.01 33.818 0.073 6.87 1.43 14.16
12/8/2020 9:15:00 AM 1.02 33.836 0.073 6.88 1.38 14.22
12/8/2020 9:30:00 AM 1.04 33.872 0.073 6.89 1.37 14.3
12/8/2020 9:45:00 AM 1.06 33.908 0.073 6.92 1.42 14.34
12/8/2020 10:00:00 AM 1.09 33.962 0.073 6.94 1.38 14.4
12/8/2020 10:15:00 AM 1.14 34.052 0.073 6.94 1.41 14.44
12/8/2020 10:30:00 AM 1.15 34.07 0.073 6.97 1.41 14.46
12/8/2020 10:45:00 AM 1.18 34.124 0.073 6.96 1.39 14.45
12/8/2020 11:00:00 AM 1.23 34.214 0.072 6.99 1.51 14.47
12/8/2020 11:15:00 AM 1.27 34.286 0.072 6.86 1.4 14.46
12/8/2020 11:30:00 AM 1.29 34.322 0.072 6.86 1.47 14.47
12/8/2020 11:45:00 AM 1.33 34.394 0.072 7.03 1.36 14.47
12/8/2020 12:00:00 PM 1.36 34.448 0.072 6.92 1.4 14.45
12/8/2020 12:15:00 PM 1.4 34.52 0.072 7.04 1.45 14.45
12/8/2020 12:30:00 PM 1.43 34.574 0.072 6.96 1.45 14.45
12/8/2020 12:45:00 PM 1.49 34.682 0.072 7.06 1.45 14.44
12/8/2020 1:00:00 PM 1.52 34.736 0.072 7.05 1.35 14.42
12/8/2020 1:15:00 PM 1.57 34.826 0.072 6.94 1.39 14.42
12/8/2020 1:30:00 PM 1.61 34.898 0.071 7.01 1.43 14.4
12/8/2020 1:45:00 PM 1.66 34.988 0.071 7.02 1.41 14.38
12/8/2020 2:00:00 PM 1.72 35.096 0.071 7.08 1.38 14.38
12/8/2020 2:15:00 PM 1.72 35.096 0.071 7.07 1.41 14.31
12/8/2020 2:30:00 PM 1.71 35.078 0.071 6.94 1.4 14.28
12/8/2020 2:45:00 PM 1.7 35.06 0.071 7.07 1.37 14.23
12/8/2020 3:00:00 PM 1.68 35.024 0.072 7.05 1.38 14.19
12/8/2020 3:15:00 PM 1.63 34.934 0.072 7.02 1.44 14.12
12/8/2020 3:30:00 PM 1.58 34.844 0.072 7.02 1.53 14.07
12/8/2020 3:45:00 PM 1.53 34.754 0.072 6.93 1.5 14.03
12/8/2020 4:00:00 PM 1.5 34.7 0.072 6.99 1.39 13.99
12/8/2020 4:15:00 PM 1.46 34.628 0.072 6.86 1.37 13.96
12/8/2020 4:30:00 PM 1.44 34.592 0.072 6.97 1.41 13.9
12/8/2020 4:45:00 PM 1.4 34.52 0.072 6.82 1.4 13.82
12/8/2020 5:00:00 PM 1.37 34.466 0.073 6.93 1.42 13.77
12/8/2020 5:15:00 PM 1.34 34.412 0.073 6.91 1.39 13.75
12/8/2020 5:30:00 PM 1.32 34.376 0.073 6.82 1.46 13.73
12/8/2020 5:45:00 PM 1.29 34.322 0.073 6.9 1.46 13.72
12/8/2020 6:00:00 PM 1.25 34.25 0.073 6.88 1.43 13.69
12/8/2020 6:15:00 PM 1.21 34.178 0.073 6.87 1.44 13.71
12/8/2020 6:30:00 PM 1.17 34.106 0.073 6.84 1.41 13.73
12/8/2020 6:45:00 PM 1.11 33.998 0.074 6.86 1.44 13.72
12/8/2020 7:00:00 PM 1.08 33.944 0.074 6.85 1.41 13.73
12/8/2020 7:15:00 PM 1.03 33.854 0.074 6.86 1.46 13.75
12/8/2020 7:30:00 PM 0.98 33.764 0.074 6.84 1.53 13.78
12/8/2020 7:45:00 PM 0.92 33.656 0.074 6.85 1.5 13.79
12/8/2020 8:00:00 PM 0.87 33.566 0.074 6.77 1.45 13.83
12/8/2020 8:15:00 PM 0.81 33.458 0.074 6.85 1.53 13.83
12/8/2020 8:30:00 PM 0.76 33.368 0.074 6.83 1.41 13.87
12/8/2020 8:45:00 PM 0.71 33.278 0.074 6.83 1.49 13.89
12/8/2020 9:00:00 PM 0.66 33.188 0.074 6.83 1.46 13.9
12/8/2020 9:15:00 PM 0.61 33.098 0.074 6.83 1.59 13.92
12/8/2020 9:30:00 PM 0.57 33.026 0.074 6.82 1.47 13.94
12/8/2020 9:45:00 PM 0.54 32.972 0.074 6.82 1.46 13.95
12/8/2020 10:00:00 PM 0.48 32.864 0.074 6.82 1.47 13.97
12/8/2020 10:15:00 PM 0.45 32.81 0.074 6.82 1.47 14
12/8/2020 10:30:00 PM 0.42 32.756 0.074 6.82 1.49 14
12/8/2020 10:45:00 PM 0.39 32.702 0.074 6.81 1.48 14.02
12/8/2020 11:00:00 PM 0.38 32.684 0.074 6.81 1.54 14.03
12/8/2020 11:15:00 PM 0.37 32.666 0.074 6.81 1.44 14.04
12/8/2020 11:30:00 PM 0.33 32.594 0.074 6.76 1.51 14.05
12/8/2020 11:45:00 PM 0.33 32.594 0.074 6.81 1.41 14.07
12/9/2020 12:00:00 AM 0.33 32.594 0.074 6.8 1.42 14.06
12/9/2020 12:15:00 AM 0.33 32.594 0.074 6.79 1.5 14.08
12/9/2020 12:30:00 AM 0.33 32.594 0.074 6.8 1.49 14.07
12/9/2020 12:45:00 AM 0.33 32.594 0.074 6.6 1.5 14.07
12/9/2020 1:00:00 AM 0.31 32.558 0.074 6.82 1.43 14.09
12/9/2020 1:15:00 AM 0.3 32.54 0.074 6.8 1.48 14.09
12/9/2020 1:30:00 AM 0.3 32.54 0.074 6.8 1.39 14.08
12/9/2020 1:45:00 AM 0.29 32.522 0.074 6.8 1.4 14.08
12/9/2020 2:00:00 AM 0.32 32.576 0.074 6.79 1.47 14.07
12/9/2020 2:15:00 AM 0.31 32.558 0.074 6.79 1.45 14.07
12/9/2020 2:30:00 AM 0.32 32.576 0.074 6.79 1.44 14.08
12/9/2020 2:45:00 AM 0.32 32.576 0.075 6.79 1.42 14.07
12/9/2020 3:00:00 AM 0.33 32.594 0.075 6.79 1.44 14.07
12/9/2020 3:15:00 AM 0.34 32.612 0.074 6.79 1.45 14.05
12/9/2020 3:30:00 AM 0.37 32.666 0.075 6.78 1.44 14.04
12/9/2020 3:45:00 AM 0.38 32.684 0.075 6.79 1.38 14.04
12/9/2020 4:00:00 AM 0.39 32.702 0.075 6.6 1.47 14.03
12/9/2020 4:15:00 AM 0.42 32.756 0.075 6.79 1.47 14.02
12/9/2020 4:30:00 AM 0.43 32.774 0.075 6.67 1.4 14.02
12/9/2020 4:45:00 AM 0.48 32.864 0.075 6.79 1.46 13.99
12/9/2020 5:00:00 AM 0.47 32.846 0.075 6.79 1.42 14
12/9/2020 5:15:00 AM 0.5 32.9 0.075 6.78 1.51 13.99
12/9/2020 5:30:00 AM 0.52 32.936 0.075 6.79 1.46 13.98
12/9/2020 5:45:00 AM 0.55 32.99 0.075 6.77 1.42 13.96
12/9/2020 6:00:00 AM 0.56 33.008 0.075 6.79 1.41 13.96
12/9/2020 6:15:00 AM 0.6 33.08 0.075 6.68 1.44 13.96
12/9/2020 6:30:00 AM 0.63 33.134 0.075 6.79 1.39 13.93
12/9/2020 6:45:00 AM 0.65 33.17 0.075 6.79 1.37 13.92
12/9/2020 7:00:00 AM 0.67 33.206 0.074 6.78 1.38 13.91
12/9/2020 7:15:00 AM 0.69 33.242 0.074 6.59 1.45 13.91
12/9/2020 7:30:00 AM 0.74 33.332 0.074 6.8 1.44 13.88
12/9/2020 7:45:00 AM 0.76 33.368 0.074 6.79 1.33 13.89
12/9/2020 8:00:00 AM 0.78 33.404 0.074 6.79 1.39 13.9
12/9/2020 8:15:00 AM 0.76 33.368 0.074 6.79 1.38 13.91
12/9/2020 8:30:00 AM 0.81 33.458 0.074 6.81 1.35 13.98
12/9/2020 8:45:00 AM 0.85 33.53 0.074 6.81 1.36 14.02
12/9/2020 9:00:00 AM 0.84 33.512 0.074 6.83 1.45 14.07
12/9/2020 9:15:00 AM 0.81 33.458 0.074 6.63 1.43 14.09
12/9/2020 9:30:00 AM 0.75 33.35 0.074 6.7 1.43 14.15
12/9/2020 9:45:00 AM 0.72 33.296 0.074 6.87 1.45 14.21
12/9/2020 10:00:00 AM 0.72 33.296 0.073 6.86 1.42 14.26
12/9/2020 10:15:00 AM 0.67 33.206 0.073 6.87 1.32 14.3
12/9/2020 10:30:00 AM 0.69 33.242 0.073 6.71 1.38 14.36
12/9/2020 10:45:00 AM 0.7 33.26 0.073 6.92 1.4 14.42
12/9/2020 11:00:00 AM 0.74 33.332 0.073 6.92 1.35 14.47
12/9/2020 11:15:00 AM 0.82 33.476 0.073 6.92 1.38 14.49
12/9/2020 11:30:00 AM 0.87 33.566 0.072 6.94 1.37 14.5
12/9/2020 11:45:00 AM 0.95 33.71 0.072 6.95 1.37 14.54
12/9/2020 12:00:00 PM 0.98 33.764 0.072 6.76 1.35 14.5
12/9/2020 12:15:00 PM 1.02 33.836 0.072 6.99 1.36 14.5
12/9/2020 12:30:00 PM 1.05 33.89 0.072 6.94 1.36 14.5
12/9/2020 12:45:00 PM 1.1 33.98 0.072 6.96 1.32 14.48
12/9/2020 1:00:00 PM 1.12 34.016 0.072 6.81 1.38 14.46
12/9/2020 1:15:00 PM 1.16 34.088 0.072 7 1.43 14.45
12/9/2020 1:30:00 PM 1.2 34.16 0.072 6.98 1.42 14.39
12/9/2020 1:45:00 PM 1.21 34.178 0.072 6.98 1.39 14.36
12/9/2020 2:00:00 PM 1.23 34.214 0.072 6.85 1.36 14.35
12/9/2020 2:15:00 PM 1.27 34.286 0.072 7 1.44 14.35
12/9/2020 2:30:00 PM 1.28 34.304 0.072 6.99 1.33 14.34
12/9/2020 2:45:00 PM 1.34 34.412 0.071 6.79 1.36 14.27
12/9/2020 3:00:00 PM 1.35 34.43 0.072 6.99 1.34 14.21
12/9/2020 3:15:00 PM 1.38 34.484 0.072 6.96 1.36 14.1
12/9/2020 3:30:00 PM 1.42 34.556 0.072 6.94 1.38 14.01
12/9/2020 3:45:00 PM 1.45 34.61 0.072 6.93 1.32 13.92
12/9/2020 4:00:00 PM 1.48 34.664 0.072 6.78 1.42 13.82
12/9/2020 4:15:00 PM 1.51 34.718 0.072 6.85 1.44 13.76
12/9/2020 4:30:00 PM 1.53 34.754 0.072 6.89 1.33 13.71
12/9/2020 4:45:00 PM 1.55 34.79 0.072 6.88 1.36 13.66
12/9/2020 5:00:00 PM 1.57 34.826 0.072 6.86 1.33 13.61
12/9/2020 5:15:00 PM 1.6 34.88 0.072 6.85 1.36 13.58
12/9/2020 5:30:00 PM 1.6 34.88 0.072 6.85 1.53 13.56
12/9/2020 5:45:00 PM 1.62 34.916 0.073 6.84 1.48 13.54
12/9/2020 6:00:00 PM 1.64 34.952 0.073 6.84 1.49 13.53
12/9/2020 6:15:00 PM 1.67 35.006 0.073 6.83 1.4 13.5
12/9/2020 6:30:00 PM 1.68 35.024 0.073 6.83 1.4 13.5
12/9/2020 6:45:00 PM 1.69 35.042 0.073 6.82 1.42 13.49
12/9/2020 7:00:00 PM 1.71 35.078 0.073 6.82 1.43 13.49
12/9/2020 7:15:00 PM 1.72 35.096 0.073 6.82 1.45 13.48
12/9/2020 7:30:00 PM 1.75 35.15 0.073 6.82 1.4 13.47
12/9/2020 7:45:00 PM 1.75 35.15 0.073 6.76 1.4 13.47
12/9/2020 8:00:00 PM 1.76 35.168 0.073 6.64 1.38 13.46
12/9/2020 8:15:00 PM 1.78 35.204 0.073 6.83 1.45 13.45
12/9/2020 8:30:00 PM 1.81 35.258 0.073 6.81 1.42 13.45
12/9/2020 8:45:00 PM 1.81 35.258 0.073 6.81 1.36 13.45
12/9/2020 9:00:00 PM 1.81 35.258 0.073 6.8 1.4 13.44
12/9/2020 9:15:00 PM 1.82 35.276 0.073 6.81 1.46 13.45
12/9/2020 9:30:00 PM 1.83 35.294 0.073 6.8 1.45 13.44
12/9/2020 9:45:00 PM 1.85 35.33 0.074 6.81 1.48 13.44
12/9/2020 10:00:00 PM 1.86 35.348 0.074 6.81 1.4 13.43
12/9/2020 10:15:00 PM 1.88 35.384 0.074 6.8 1.38 13.43
12/9/2020 10:30:00 PM 1.89 35.402 0.074 6.8 1.38 13.42
12/9/2020 10:45:00 PM 1.91 35.438 0.074 6.8 1.56 13.42
12/9/2020 11:00:00 PM 1.92 35.456 0.074 6.66 1.51 13.41
12/9/2020 11:15:00 PM 1.96 35.528 0.074 6.81 1.48 13.39
12/9/2020 11:30:00 PM 1.97 35.546 0.074 6.8 1.34 13.4
12/9/2020 11:45:00 PM 1.99 35.582 0.074 6.8 1.62 13.39
12/10/2020 12:00:00 AM 2.01 35.618 0.074 6.7 1.57 13.39
12/10/2020 12:15:00 AM 2.03 35.654 0.074 6.81 1.41 13.38
12/10/2020 12:30:00 AM 2.04 35.672 0.074 6.8 1.4 13.38
12/10/2020 12:45:00 AM 2.07 35.726 0.074 6.79 1.43 13.37
12/10/2020 1:00:00 AM 2.08 35.744 0.074 6.8 1.49 13.37
12/10/2020 1:15:00 AM 2.09 35.762 0.074 6.8 1.45 13.37
12/10/2020 1:30:00 AM 2.11 35.798 0.074 6.79 1.4 13.35
12/10/2020 1:45:00 AM 2.13 35.834 0.074 6.79 1.4 13.34
12/10/2020 2:00:00 AM 2.14 35.852 0.074 6.65 1.46 13.34
12/10/2020 2:15:00 AM 2.14 35.852 0.074 6.81 1.47 13.34
12/10/2020 2:30:00 AM 2.16 35.888 0.074 6.8 1.41 13.34
12/10/2020 2:45:00 AM 2.17 35.906 0.074 6.79 1.59 13.34
12/10/2020 3:00:00 AM 2.19 35.942 0.074 6.8 1.43 13.34
12/10/2020 3:15:00 AM 2.2 35.96 0.074 6.8 1.45 13.33
12/10/2020 3:30:00 AM 2.22 35.996 0.074 6.79 1.39 13.34
12/10/2020 3:45:00 AM 2.23 36.014 0.074 6.62 1.47 13.32
12/10/2020 4:00:00 AM 2.25 36.05 0.074 6.8 1.55 13.32
12/10/2020 4:15:00 AM 2.26 36.068 0.074 6.67 1.61 13.32
12/10/2020 4:30:00 AM 2.27 36.086 0.074 6.8 1.6 13.32
12/10/2020 4:45:00 AM 2.29 36.122 0.074 6.79 1.53 13.31
12/10/2020 5:00:00 AM 2.3 36.14 0.074 6.61 1.48 13.32
12/10/2020 5:15:00 AM 2.3 36.14 0.074 6.81 1.4 13.32
12/10/2020 5:30:00 AM 2.31 36.158 0.074 6.79 1.4 13.31
12/10/2020 5:45:00 AM 2.33 36.194 0.074 6.8 1.83 13.32
12/10/2020 6:00:00 AM 2.34 36.212 0.074 6.8 1.42 13.32
12/10/2020 6:15:00 AM 2.35 36.23 0.074 6.8 1.37 13.31
12/10/2020 6:30:00 AM 2.36 36.248 0.074 6.79 1.41 13.31
12/10/2020 6:45:00 AM 2.39 36.302 0.074 6.79 1.4 13.3
12/10/2020 7:00:00 AM 2.39 36.302 0.074 6.79 1.47 13.31
12/10/2020 7:15:00 AM 2.4 36.32 0.074 6.8 1.4 13.32
12/10/2020 7:30:00 AM 2.41 36.338 0.074 6.8 1.36 13.31
12/10/2020 7:45:00 AM 2.42 36.356 0.074 6.8 1.39 13.33
12/10/2020 8:00:00 AM 2.44 36.392 0.074 6.8 1.43 13.34
12/10/2020 8:15:00 AM 2.46 36.428 0.074 6.81 1.42 13.4
12/10/2020 8:30:00 AM 2.49 36.482 0.074 6.82 1.45 13.49
12/10/2020 8:45:00 AM 2.51 36.518 0.074 6.83 1.43 13.55
12/10/2020 9:00:00 AM 2.53 36.554 0.074 6.85 1.44 13.64
12/10/2020 9:15:00 AM 2.59 36.662 0.074 6.87 1.46 13.73
12/10/2020 9:30:00 AM 2.64 36.752 0.074 6.78 1.42 13.81
12/10/2020 9:45:00 AM 2.69 36.842 0.073 6.92 1.48 13.88
12/10/2020 10:00:00 AM 2.72 36.896 0.073 6.94 1.44 13.91
12/10/2020 10:15:00 AM 2.78 37.004 0.073 6.95 1.38 13.95
12/10/2020 10:30:00 AM 2.86 37.148 0.073 6.98 1.41 14.01
12/10/2020 10:45:00 AM 2.92 37.256 0.073 7 1.5 14.03
12/10/2020 11:00:00 AM 2.99 37.382 0.073 7.02 1.39 14.03
12/10/2020 11:15:00 AM 3.05 37.49 0.073 6.86 1.42 14.02
12/10/2020 11:30:00 AM 3.11 37.598 0.073 7.05 1.42 14.01
12/10/2020 11:45:00 AM 3.16 37.688 0.073 7.05 1.35 14
12/10/2020 12:00:00 PM 3.21 37.778 0.073 7.06 1.47 13.99
12/10/2020 12:15:00 PM 3.26 37.868 0.073 7.08 1.45 13.98
12/10/2020 12:30:00 PM 3.3 37.94 0.073 7.08 1.42 13.96
12/10/2020 12:45:00 PM 3.33 37.994 0.073 7.09 1.42 13.94
12/10/2020 1:00:00 PM 3.37 38.066 0.073 7.07 1.37 13.89
12/10/2020 1:15:00 PM 3.36 38.048 0.073 7.07 1.43 13.83
12/10/2020 1:30:00 PM 3.4 38.12 0.073 7.07 1.46 13.81
12/10/2020 1:45:00 PM 3.43 38.174 0.073 7.09 1.43 13.84
12/10/2020 2:00:00 PM 3.48 38.264 0.073 6.97 1.42 13.81
12/10/2020 2:15:00 PM 3.51 38.318 0.073 7.04 1.44 13.81
12/10/2020 2:30:00 PM 3.55 38.39 0.073 7.1 1.39 13.79
12/10/2020 2:45:00 PM 3.58 38.444 0.073 7.11 1.49 13.79
12/10/2020 3:00:00 PM 3.6 38.48 0.073 7.1 1.5 13.76
12/10/2020 3:15:00 PM 3.62 38.516 0.073 7.08 1.5 13.68
12/10/2020 3:30:00 PM 3.63 38.534 0.073 7.07 1.44 13.63
12/10/2020 3:45:00 PM 3.64 38.552 0.073 7.05 1.44 13.56
12/10/2020 4:00:00 PM 3.65 38.57 0.073 7.03 1.46 13.49
12/10/2020 4:15:00 PM 3.62 38.516 0.074 7.02 1.55 13.4
12/10/2020 4:30:00 PM 3.61 38.498 0.074 6.9 1.49 13.3
12/10/2020 4:45:00 PM 3.59 38.462 0.074 6.98 1.63 13.22
12/10/2020 5:00:00 PM 3.58 38.444 0.074 6.95 1.52 13.14
12/10/2020 5:15:00 PM 3.55 38.39 0.074 6.85 1.54 13.1
12/10/2020 5:30:00 PM 3.51 38.318 0.075 6.87 1.73 13.06
12/10/2020 5:45:00 PM 3.47 38.246 0.075 6.91 1.58 13.04
12/10/2020 6:00:00 PM 3.4 38.12 0.075 6.9 1.54 13.02
12/10/2020 6:15:00 PM 3.35 38.03 0.075 6.88 1.52 13.02
12/10/2020 6:30:00 PM 3.3 37.94 0.075 6.73 1.66 13.03
12/10/2020 6:45:00 PM 3.24 37.832 0.075 6.88 1.65 13.04
12/10/2020 7:00:00 PM 3.17 37.706 0.075 6.88 1.72 13.07
12/10/2020 7:15:00 PM 3.11 37.598 0.075 6.88 1.6 13.12
12/10/2020 7:30:00 PM 3.07 37.526 0.075 6.85 1.63 13.11
12/10/2020 7:45:00 PM 3.03 37.454 0.075 6.86 1.91 13.13
12/10/2020 8:00:00 PM 2.99 37.382 0.075 6.86 1.6 13.14
12/10/2020 8:15:00 PM 2.96 37.328 0.076 6.82 1.64 13.15
12/10/2020 8:30:00 PM 2.91 37.238 0.076 6.86 1.56 13.17
12/10/2020 8:45:00 PM 2.86 37.148 0.076 6.72 1.7 13.2
12/10/2020 9:00:00 PM 2.81 37.058 0.076 6.86 1.6 13.21
12/10/2020 9:15:00 PM 2.76 36.968 0.076 6.85 1.51 13.22
12/10/2020 9:30:00 PM 2.72 36.896 0.076 6.84 1.62 13.24
12/10/2020 9:45:00 PM 2.67 36.806 0.075 6.84 1.5 13.26
12/10/2020 10:00:00 PM 2.62 36.716 0.075 6.84 1.7 13.27
12/10/2020 10:15:00 PM 2.56 36.608 0.075 6.83 1.8 13.3
12/10/2020 10:30:00 PM 2.52 36.536 0.075 6.83 1.79 13.32
12/10/2020 10:45:00 PM 2.48 36.464 0.074 6.83 2.03 13.33
12/10/2020 11:00:00 PM 2.41 36.338 0.074 6.82 2.6 13.34
12/10/2020 11:15:00 PM 2.36 36.248 0.074 6.82 2.46 13.37
12/10/2020 11:30:00 PM 2.29 36.122 0.074 6.82 2.36 13.39
12/10/2020 11:45:00 PM 2.24 36.032 0.074 6.81 2.11 13.4
12/11/2020 12:00:00 AM 2.19 35.942 0.074 6.81 2.03 13.42
12/11/2020 12:15:00 AM 2.14 35.852 0.074 6.81 1.72 13.44
12/11/2020 12:30:00 AM 2.08 35.744 0.075 6.8 1.75 13.46
12/11/2020 12:45:00 AM 2.01 35.618 0.075 6.81 1.68 13.49
12/11/2020 1:00:00 AM 1.98 35.564 0.075 6.8 1.74 13.5
12/11/2020 1:15:00 AM 1.91 35.438 0.075 6.81 1.62 13.54
12/11/2020 1:30:00 AM 1.89 35.402 0.075 6.81 1.54 13.54
12/11/2020 1:45:00 AM 1.83 35.294 0.076 6.8 1.57 13.56
12/11/2020 2:00:00 AM 1.79 35.222 0.076 6.81 1.6 13.58
12/11/2020 2:15:00 AM 1.75 35.15 0.076 6.81 1.58 13.59
12/11/2020 2:30:00 AM 1.71 35.078 0.076 6.81 1.54 13.61
12/11/2020 2:45:00 AM 1.69 35.042 0.076 6.8 1.53 13.62
12/11/2020 3:00:00 AM 1.62 34.916 0.076 6.81 1.48 13.63
12/11/2020 3:15:00 AM 1.58 34.844 0.076 6.8 1.59 13.66
12/11/2020 3:30:00 AM 1.55 34.79 0.076 6.68 1.42 13.68
12/11/2020 3:45:00 AM 1.51 34.718 0.076 6.71 1.49 13.68
12/11/2020 4:00:00 AM 1.46 34.628 0.076 6.81 1.47 13.72
12/11/2020 4:15:00 AM 1.42 34.556 0.076 6.63 1.5 13.71
12/11/2020 4:30:00 AM 1.39 34.502 0.076 6.75 1.51 13.72
12/11/2020 4:45:00 AM 1.34 34.412 0.076 6.81 1.41 13.77
12/11/2020 5:00:00 AM 1.29 34.322 0.077 6.8 1.52 13.77
12/11/2020 5:15:00 AM 1.26 34.268 0.077 6.71 1.52 13.8
12/11/2020 5:30:00 AM 1.22 34.196 0.077 6.8 1.53 13.79
12/11/2020 5:45:00 AM 1.17 34.106 0.077 6.8 1.45 13.84
12/11/2020 6:00:00 AM 1.14 34.052 0.077 6.8 1.4 13.82
12/11/2020 6:15:00 AM 1.1 33.98 0.077 6.8 1.49 13.85
12/11/2020 6:30:00 AM 1.07 33.926 0.077 6.8 1.47 13.88
12/11/2020 6:45:00 AM 1.04 33.872 0.077 6.74 1.37 13.86
12/11/2020 7:00:00 AM 0.98 33.764 0.077 6.79 1.39 13.89
12/11/2020 7:15:00 AM 0.97 33.746 0.077 6.8 1.43 13.91
12/11/2020 7:30:00 AM 0.95 33.71 0.077 6.61 1.48 13.94
12/11/2020 7:45:00 AM 0.92 33.656 0.077 6.81 1.44 13.98
12/11/2020 8:00:00 AM 0.9 33.62 0.077 6.81 1.5 14.07
12/11/2020 8:15:00 AM 0.89 33.602 0.076 6.81 1.34 14.15
12/11/2020 8:30:00 AM 0.89 33.602 0.076 6.83 1.39 14.27
12/11/2020 8:45:00 AM 0.92 33.656 0.076 6.85 1.37 14.35
12/11/2020 9:00:00 AM 0.94 33.692 0.076 6.67 1.48 14.45
12/11/2020 9:15:00 AM 1 33.8 0.076 6.91 1.49 14.55
12/11/2020 9:30:00 AM 1.09 33.962 0.076 6.91 1.32 14.59
12/11/2020 9:45:00 AM 1.18 34.124 0.076 6.92 1.35 14.61
12/11/2020 10:00:00 AM 1.27 34.286 0.075 6.94 1.45 14.65
12/11/2020 10:15:00 AM 1.37 34.466 0.075 6.88 1.51 14.64
12/11/2020 10:30:00 AM 1.49 34.682 0.075 6.98 1.4 14.62
12/11/2020 10:45:00 AM 1.62 34.916 0.075 6.97 1.35 14.62
12/11/2020 11:00:00 AM 1.77 35.186 0.075 7.01 1.35 14.6
12/11/2020 11:15:00 AM 1.94 35.492 0.075 7.01 1.35 14.55
12/11/2020 11:30:00 AM 2.11 35.798 0.075 7.02 1.34 14.51
12/11/2020 11:45:00 AM 2.27 36.086 0.075 7.03 1.39 14.45
12/11/2020 12:00:00 PM 2.39 36.302 0.074 7.05 1.46 14.4
12/11/2020 12:15:00 PM 2.52 36.536 0.074 7.06 1.46 14.36
12/11/2020 12:30:00 PM 2.67 36.806 0.074 7.06 1.53 14.3
12/11/2020 12:45:00 PM 2.8 37.04 0.074 7.07 1.43 14.23
12/11/2020 1:00:00 PM 2.9 37.22 0.074 7.06 1.38 14.16
12/11/2020 1:15:00 PM 2.98 37.364 0.074 7.06 1.39 14.1
12/11/2020 1:30:00 PM 3.04 37.472 0.074 7.06 1.51 14.04
12/11/2020 1:45:00 PM 3.11 37.598 0.074 7.06 1.36 13.98
12/11/2020 2:00:00 PM 3.15 37.67 0.074 7.06 1.31 13.94
12/11/2020 2:15:00 PM 3.21 37.778 0.074 7.07 1.38 13.9
12/11/2020 2:30:00 PM 3.25 37.85 0.074 7.07 1.61 13.87
12/11/2020 2:45:00 PM 3.32 37.976 0.074 7 1.35 13.82
12/11/2020 3:00:00 PM 3.38 38.084 0.074 6.92 1.58 13.8
12/11/2020 3:15:00 PM 3.42 38.156 0.074 7.07 1.34 13.73
12/11/2020 3:30:00 PM 3.45 38.21 0.074 6.95 1.4 13.69
12/11/2020 3:45:00 PM 3.51 38.318 0.074 7.06 1.42 13.63
12/11/2020 4:00:00 PM 3.54 38.372 0.074 7.03 1.42 13.54
12/11/2020 4:15:00 PM 3.55 38.39 0.075 6.99 1.38 13.44
12/11/2020 4:30:00 PM 3.55 38.39 0.075 6.99 1.39 13.33
12/11/2020 4:45:00 PM 3.55 38.39 0.075 6.96 1.49 13.22
12/11/2020 5:00:00 PM 3.53 38.354 0.075 6.94 1.43 13.13
12/11/2020 5:15:00 PM 3.5 38.3 0.075 6.92 1.44 13.06
12/11/2020 5:30:00 PM 3.48 38.264 0.075 6.91 1.43 13.03
12/11/2020 5:45:00 PM 3.45 38.21 0.075 6.9 1.46 13.01
12/11/2020 6:00:00 PM 3.42 38.156 0.075 6.88 1.52 12.98
12/11/2020 6:15:00 PM 3.38 38.084 0.076 6.83 1.43 12.98
12/11/2020 6:30:00 PM 3.35 38.03 0.076 6.84 1.41 12.98
12/11/2020 6:45:00 PM 3.32 37.976 0.076 6.8 1.48 12.99
12/11/2020 7:00:00 PM 3.28 37.904 0.076 6.85 1.47 12.99
12/11/2020 7:15:00 PM 3.23 37.814 0.076 6.85 1.55 12.99
12/11/2020 7:30:00 PM 3.2 37.76 0.076 6.68 1.49 13.02
12/11/2020 7:45:00 PM 3.15 37.67 0.076 6.86 1.58 13.02
12/11/2020 8:00:00 PM 3.11 37.598 0.076 6.84 1.54 13.05
12/11/2020 8:15:00 PM 3.07 37.526 0.076 6.84 1.52 13.06
12/11/2020 8:30:00 PM 3.02 37.436 0.076 6.84 1.5 13.07
12/11/2020 8:45:00 PM 2.98 37.364 0.076 6.8 1.58 13.09
12/11/2020 9:00:00 PM 2.94 37.292 0.077 6.83 1.6 13.1
12/11/2020 9:15:00 PM 2.89 37.202 0.077 6.83 1.59 13.13
12/11/2020 9:30:00 PM 2.85 37.13 0.077 6.83 1.64 13.14
12/11/2020 9:45:00 PM 2.82 37.076 0.077 6.74 1.55 13.16
12/11/2020 10:00:00 PM 2.78 37.004 0.077 6.83 1.57 13.17
12/11/2020 10:15:00 PM 2.74 36.932 0.077 6.82 1.68 13.2
12/11/2020 10:30:00 PM 2.7 36.86 0.077 6.82 1.65 13.2
12/11/2020 10:45:00 PM 2.67 36.806 0.077 6.82 1.65 13.22
12/11/2020 11:00:00 PM 2.66 36.788 0.077 6.73 1.56 13.22
12/11/2020 11:15:00 PM 2.62 36.716 0.077 6.71 1.46 13.23
12/11/2020 11:30:00 PM 2.6 36.68 0.077 6.82 1.59 13.26
12/11/2020 11:45:00 PM 2.57 36.626 0.077 6.82 1.55 13.26
12/12/2020 12:00:00 AM 2.55 36.59 0.077 6.64 1.51 13.27
12/12/2020 12:15:00 AM 2.53 36.554 0.077 6.83 1.59 13.28
12/12/2020 12:30:00 AM 2.51 36.518 0.077 6.81 1.58 13.29
12/12/2020 12:45:00 AM 2.47 36.446 0.077 6.81 1.49 13.3
12/12/2020 1:00:00 AM 2.46 36.428 0.077 6.8 1.49 13.3
12/12/2020 1:15:00 AM 2.42 36.356 0.077 6.8 1.53 13.32
12/12/2020 1:30:00 AM 2.38 36.284 0.077 6.61 1.52 13.32
12/12/2020 1:45:00 AM 2.34 36.212 0.077 6.82 1.47 13.35
12/12/2020 2:00:00 AM 2.33 36.194 0.077 6.76 1.58 13.34
12/12/2020 2:15:00 AM 2.28 36.104 0.077 6.78 1.5 13.37
12/12/2020 2:30:00 AM 2.26 36.068 0.077 6.8 1.58 13.38
12/12/2020 2:45:00 AM 2.24 36.032 0.077 6.8 1.58 13.4
12/12/2020 3:00:00 AM 2.21 35.978 0.077 6.8 1.47 13.4
12/12/2020 3:15:00 AM 2.18 35.924 0.077 6.79 1.46 13.41
12/12/2020 3:30:00 AM 2.15 35.87 0.077 6.8 1.59 13.43
12/12/2020 3:45:00 AM 2.15 35.87 0.077 6.79 1.52 13.43
12/12/2020 4:00:00 AM 2.13 35.834 0.077 6.8 1.5 13.43
12/12/2020 4:15:00 AM 2.13 35.834 0.077 6.79 1.99 13.44
12/12/2020 4:30:00 AM 2.1 35.78 0.077 6.79 1.48 13.45
12/12/2020 4:45:00 AM 2.07 35.726 0.077 6.79 1.45 13.45
12/12/2020 5:00:00 AM 2.05 35.69 0.077 6.79 1.53 13.46
12/12/2020 5:15:00 AM 2.05 35.69 0.077 6.79 1.52 13.46
12/12/2020 5:30:00 AM 2.01 35.618 0.077 6.78 1.5 13.46
12/12/2020 5:45:00 AM 1.99 35.582 0.077 6.78 1.55 13.48
12/12/2020 6:00:00 AM 1.98 35.564 0.077 6.78 1.47 13.48
12/12/2020 6:15:00 AM 1.97 35.546 0.077 6.78 1.47 13.49
12/12/2020 6:30:00 AM 1.93 35.474 0.077 6.78 1.45 13.5
12/12/2020 6:45:00 AM 1.94 35.492 0.077 6.78 1.44 13.5
12/12/2020 7:00:00 AM 1.91 35.438 0.077 6.67 1.44 13.51
12/12/2020 7:15:00 AM 1.91 35.438 0.077 6.78 1.39 13.53
12/12/2020 7:30:00 AM 1.92 35.456 0.077 6.78 1.43 13.53
12/12/2020 7:45:00 AM 1.93 35.474 0.077 6.79 1.45 13.55
12/12/2020 8:00:00 AM 1.95 35.51 0.077 6.75 1.43 13.58
12/12/2020 8:15:00 AM 1.97 35.546 0.077 6.81 1.38 13.64
12/12/2020 8:30:00 AM 2 35.6 0.077 6.8 1.4 13.68
12/12/2020 8:45:00 AM 2.02 35.636 0.077 6.82 1.34 13.77
12/12/2020 9:00:00 AM 2.07 35.726 0.077 6.84 1.39 13.89
12/12/2020 9:15:00 AM 2.14 35.852 0.076 6.85 1.39 13.92
12/12/2020 9:30:00 AM 2.17 35.906 0.076 6.89 1.43 14.02
12/12/2020 9:45:00 AM 2.29 36.122 0.076 6.9 1.37 14.1
12/12/2020 10:00:00 AM 2.35 36.23 0.076 6.92 1.38 14.11
12/12/2020 10:15:00 AM 2.46 36.428 0.076 6.94 1.39 14.17
12/12/2020 10:30:00 AM 2.57 36.626 0.075 6.97 1.38 14.2
12/12/2020 10:45:00 AM 2.67 36.806 0.075 6.99 1.35 14.21
12/12/2020 11:00:00 AM 2.78 37.004 0.075 7.01 1.37 14.2
12/12/2020 11:15:00 AM 2.91 37.238 0.075 6.96 1.36 14.17
12/12/2020 11:30:00 AM 3.05 37.49 0.075 6.91 1.4 14.14
12/12/2020 11:45:00 AM 3.16 37.688 0.075 7.09 1.36 14.12
12/12/2020 12:00:00 PM 3.28 37.904 0.075 6.92 1.46 14.06
12/12/2020 12:15:00 PM 3.38 38.084 0.075 7.12 1.42 14.01
12/12/2020 12:30:00 PM 3.47 38.246 0.075 7.1 1.34 13.94
12/12/2020 12:45:00 PM 3.57 38.426 0.075 6.96 1.35 13.93
12/12/2020 1:00:00 PM 3.66 38.588 0.075 7.15 1.44 13.92
12/12/2020 1:15:00 PM 3.76 38.768 0.074 7.14 1.39 13.88
12/12/2020 1:30:00 PM 3.87 38.966 0.074 7.12 1.47 13.87
12/12/2020 1:45:00 PM 3.97 39.146 0.074 7.11 1.53 13.81
12/12/2020 2:00:00 PM 4.07 39.326 0.074 7.19 1.38 13.8
12/12/2020 2:15:00 PM 4.16 39.488 0.074 7 1.36 13.72
12/12/2020 2:30:00 PM 4.25 39.65 0.074 7.2 1.34 13.68
12/12/2020 2:45:00 PM 4.33 39.794 0.074 7.19 1.4 13.64
12/12/2020 3:00:00 PM 4.42 39.956 0.074 7.18 1.41 13.57
12/12/2020 3:15:00 PM 4.49 40.082 0.074 7.1 1.44 13.48
12/12/2020 3:30:00 PM 4.53 40.154 0.074 7.14 1.47 13.38
12/12/2020 3:45:00 PM 4.58 40.244 0.074 7.09 1.44 13.25
12/12/2020 4:00:00 PM 4.6 40.28 0.075 7.07 1.6 13.15
12/12/2020 4:15:00 PM 4.61 40.298 0.075 6.93 1.41 13.02
12/12/2020 4:30:00 PM 4.64 40.352 0.075 6.87 1.48 12.9
12/12/2020 4:45:00 PM 4.66 40.388 0.075 7.01 1.54 12.79
12/12/2020 5:00:00 PM 4.68 40.424 0.075 6.97 1.49 12.69
12/12/2020 5:15:00 PM 4.69 40.442 0.075 6.95 1.53 12.62
12/12/2020 5:30:00 PM 4.68 40.424 0.076 6.94 1.48 12.57
12/12/2020 5:45:00 PM 4.68 40.424 0.076 6.83 1.6 12.53
12/12/2020 6:00:00 PM 4.69 40.442 0.076 6.86 1.53 12.51
12/12/2020 6:15:00 PM 4.7 40.46 0.076 6.91 1.63 12.48
12/12/2020 6:30:00 PM 4.71 40.478 0.076 6.77 1.62 12.46
12/12/2020 6:45:00 PM 4.72 40.496 0.076 6.9 1.47 12.44
12/12/2020 7:00:00 PM 4.74 40.532 0.076 6.88 1.6 12.44
12/12/2020 7:15:00 PM 4.74 40.532 0.076 6.87 1.55 12.44
12/12/2020 7:30:00 PM 4.75 40.55 0.076 6.71 1.58 12.43
12/12/2020 7:45:00 PM 4.77 40.586 0.076 6.87 1.56 12.41
12/12/2020 8:00:00 PM 4.78 40.604 0.076 6.86 1.62 12.4
12/12/2020 8:15:00 PM 4.8 40.64 0.076 6.86 1.6 12.4
12/12/2020 8:30:00 PM 4.81 40.658 0.076 6.85 1.63 12.4
12/12/2020 8:45:00 PM 4.82 40.676 0.076 6.85 1.63 12.39
12/12/2020 9:00:00 PM 4.83 40.694 0.076 6.85 1.64 12.39
12/12/2020 9:15:00 PM 4.84 40.712 0.076 6.84 1.78 12.38
12/12/2020 9:30:00 PM 4.86 40.748 0.076 6.84 1.55 12.38
12/12/2020 9:45:00 PM 4.87 40.766 0.076 6.84 1.65 12.37
12/12/2020 10:00:00 PM 4.86 40.748 0.076 6.84 1.72 12.37
12/12/2020 10:15:00 PM 4.87 40.766 0.076 6.83 1.71 12.37
12/12/2020 10:30:00 PM 4.88 40.784 0.076 6.84 1.61 12.37
12/12/2020 10:45:00 PM 4.89 40.802 0.076 6.83 1.66 12.36
12/12/2020 11:00:00 PM 4.89 40.802 0.076 6.83 1.72 12.36
12/12/2020 11:15:00 PM 4.91 40.838 0.076 6.83 1.7 12.35
12/12/2020 11:30:00 PM 4.93 40.874 0.076 6.84 1.61 12.35
12/12/2020 11:45:00 PM 4.95 40.91 0.076 6.83 1.74 12.33
12/13/2020 12:00:00 AM 4.99 40.982 0.076 6.83 1.58 12.32
12/13/2020 12:15:00 AM 5.02 41.036 0.076 6.83 1.58 12.31
12/13/2020 12:30:00 AM 5.03 41.054 0.076 6.83 1.68 12.3
12/13/2020 12:45:00 AM 5.03 41.054 0.076 6.83 1.63 12.32
12/13/2020 1:00:00 AM 5.04 41.072 0.076 6.82 1.6 12.3
12/13/2020 1:15:00 AM 5.03 41.054 0.076 6.83 1.72 12.31
12/13/2020 1:30:00 AM 5.02 41.036 0.076 6.68 1.74 12.3
12/13/2020 1:45:00 AM 5.01 41.018 0.076 6.84 1.8 12.3
12/13/2020 2:00:00 AM 5.01 41.018 0.076 6.83 1.77 12.3
12/13/2020 2:15:00 AM 5 41 0.076 6.83 1.77 12.3
12/13/2020 2:30:00 AM 5.01 41.018 0.076 6.83 1.76 12.31
12/13/2020 2:45:00 AM 5.01 41.018 0.076 6.82 1.68 12.31
12/13/2020 3:00:00 AM 4.98 40.964 0.076 6.83 1.64 12.32
12/13/2020 3:15:00 AM 4.97 40.946 0.076 6.83 1.64 12.33
12/13/2020 3:30:00 AM 4.94 40.892 0.076 6.83 1.67 12.32
12/13/2020 3:45:00 AM 4.91 40.838 0.076 6.83 1.56 12.33
12/13/2020 4:00:00 AM 4.92 40.856 0.076 6.82 1.64 12.33
12/13/2020 4:15:00 AM 4.91 40.838 0.076 6.82 1.93 12.33
12/13/2020 4:30:00 AM 4.87 40.766 0.076 6.82 1.6 12.32
12/13/2020 4:45:00 AM 4.87 40.766 0.076 6.82 1.75 12.34
12/13/2020 5:00:00 AM 4.86 40.748 0.076 6.83 1.75 12.35
12/13/2020 5:15:00 AM 4.88 40.784 0.076 6.82 1.58 12.34
12/13/2020 5:30:00 AM 4.9 40.82 0.076 6.82 1.66 12.34
12/13/2020 5:45:00 AM 4.9 40.82 0.076 6.82 1.77 12.34
12/13/2020 6:00:00 AM 4.88 40.784 0.076 6.81 1.64 12.34
12/13/2020 6:15:00 AM 4.85 40.73 0.076 6.81 1.63 12.35
12/13/2020 6:30:00 AM 4.82 40.676 0.076 6.65 1.66 12.35
12/13/2020 6:45:00 AM 4.77 40.586 0.076 6.82 1.55 12.36
12/13/2020 7:00:00 AM 4.76 40.568 0.076 6.81 1.68 12.37
12/13/2020 7:15:00 AM 4.73 40.514 0.076 6.81 1.59 12.39
12/13/2020 7:30:00 AM 4.71 40.478 0.076 6.81 1.65 12.41
12/13/2020 7:45:00 AM 4.69 40.442 0.076 6.82 1.68 12.49
12/13/2020 8:00:00 AM 4.67 40.406 0.076 6.83 1.55 12.59
12/13/2020 8:15:00 AM 4.64 40.352 0.076 6.86 1.57 12.69
12/13/2020 8:30:00 AM 4.65 40.37 0.076 6.83 1.6 12.83
12/13/2020 8:45:00 AM 4.67 40.406 0.076 6.92 1.56 12.97
12/13/2020 9:00:00 AM 4.77 40.586 0.076 6.94 1.55 13.08
12/13/2020 9:15:00 AM 4.84 40.712 0.076 6.94 1.54 13
12/13/2020 9:30:00 AM 4.91 40.838 0.075 6.96 1.59 13.06
12/13/2020 9:45:00 AM 4.97 40.946 0.075 6.99 1.55 13.15
12/13/2020 10:00:00 AM 5.01 41.018 0.075 7.01 1.51 13.18
12/13/2020 10:15:00 AM 5.1 41.18 0.075 6.94 1.48 13.29
12/13/2020 10:30:00 AM 5.15 41.27 0.075 7.03 1.52 13.3
12/13/2020 10:45:00 AM 5.2 41.36 0.075 7.1 1.65 13.31
12/13/2020 11:00:00 AM 5.24 41.432 0.075 7.13 1.68 13.32
12/13/2020 11:15:00 AM 5.27 41.486 0.075 7.12 1.56 13.29
12/13/2020 11:30:00 AM 5.31 41.558 0.075 7.1 1.65 13.29
12/13/2020 11:45:00 AM 5.39 41.702 0.074 7.2 1.56 13.36
12/13/2020 12:00:00 PM 5.47 41.846 0.074 7.23 1.74 13.37
12/13/2020 12:15:00 PM 5.56 42.008 0.074 7.15 1.63 13.37
12/13/2020 12:30:00 PM 5.65 42.17 0.074 7.32 1.52 13.38
12/13/2020 12:45:00 PM 5.71 42.278 0.074 7.33 1.5 13.34
12/13/2020 1:00:00 PM 5.73 42.314 0.074 7.29 1.66 13.25
12/13/2020 1:15:00 PM 5.75 42.35 0.074 7.27 1.51 13.19
12/13/2020 1:30:00 PM 5.78 42.404 0.074 7.08 1.49 13.09
12/13/2020 1:45:00 PM 5.82 42.476 0.074 7.2 1.67 12.94
12/13/2020 2:00:00 PM 5.84 42.512 0.074 7.1 1.65 12.87
12/13/2020 2:15:00 PM 5.88 42.584 0.074 7.21 1.61 12.96
12/13/2020 2:30:00 PM 5.91 42.638 0.074 7.22 1.49 13.01
12/13/2020 2:45:00 PM 5.92 42.656 0.074 7.23 1.64 13.01
12/13/2020 3:00:00 PM 5.91 42.638 0.074 7.18 1.8 12.86
12/13/2020 3:15:00 PM 5.9 42.62 0.074 7.12 1.51 12.78
12/13/2020 3:30:00 PM 5.89 42.602 0.074 7.04 1.69 12.74
12/13/2020 3:45:00 PM 5.89 42.602 0.074 7.11 1.53 12.64
12/13/2020 4:00:00 PM 5.88 42.584 0.074 7.07 1.62 12.56
12/13/2020 4:15:00 PM 5.86 42.548 0.075 7.05 1.77 12.47
12/13/2020 4:30:00 PM 5.84 42.512 0.075 7.02 1.66 12.38
12/13/2020 4:45:00 PM 5.82 42.476 0.075 7 1.6 12.32
12/13/2020 5:00:00 PM 5.79 42.422 0.075 6.98 1.65 12.25
12/13/2020 5:15:00 PM 5.76 42.368 0.075 6.96 1.59 12.2
12/13/2020 5:30:00 PM 5.72 42.296 0.075 6.95 1.93 12.2
12/13/2020 5:45:00 PM 5.69 42.242 0.075 6.94 1.84 12.17
12/13/2020 6:00:00 PM 5.64 42.152 0.075 6.93 1.59 12.18
12/13/2020 6:15:00 PM 5.61 42.098 0.076 6.91 1.73 12.17
12/13/2020 6:30:00 PM 5.57 42.026 0.076 6.92 1.68 12.17
12/13/2020 6:45:00 PM 5.54 41.972 0.076 6.77 1.81 12.18
12/13/2020 7:00:00 PM 5.51 41.918 0.076 6.92 1.89 12.19
12/13/2020 7:15:00 PM 5.47 41.846 0.076 6.9 1.66 12.2
12/13/2020 7:30:00 PM 5.43 41.774 0.076 6.9 2.12 12.21
12/13/2020 7:45:00 PM 5.4 41.72 0.076 6.89 1.65 12.22
12/13/2020 8:00:00 PM 5.36 41.648 0.076 6.89 1.69 12.24
12/13/2020 8:15:00 PM 5.32 41.576 0.076 6.89 1.6 12.25
12/13/2020 8:30:00 PM 5.29 41.522 0.077 6.88 1.71 12.26
12/13/2020 8:45:00 PM 5.26 41.468 0.077 6.88 1.64 12.27
12/13/2020 9:00:00 PM 5.23 41.414 0.077 6.88 1.61 12.29
12/13/2020 9:15:00 PM 5.2 41.36 0.077 6.87 1.71 12.3
12/13/2020 9:30:00 PM 5.17 41.306 0.077 6.87 1.66 12.31
12/13/2020 9:45:00 PM 5.12 41.216 0.077 6.88 1.59 12.32
12/13/2020 10:00:00 PM 5.09 41.162 0.077 6.88 1.72 12.34
12/13/2020 10:15:00 PM 5.03 41.054 0.077 6.87 1.78 12.34
12/13/2020 10:30:00 PM 4.99 40.982 0.077 6.83 1.57 12.35
12/13/2020 10:45:00 PM 4.95 40.91 0.077 6.87 1.65 12.36
12/13/2020 11:00:00 PM 4.9 40.82 0.077 6.75 1.74 12.39
12/13/2020 11:15:00 PM 4.88 40.784 0.077 6.87 1.78 12.39
12/13/2020 11:30:00 PM 4.86 40.748 0.077 6.87 1.64 12.41
12/13/2020 11:45:00 PM 4.81 40.658 0.077 6.87 1.76 12.42
12/14/2020 12:00:00 AM 4.77 40.586 0.077 6.87 1.71 12.44
12/14/2020 12:15:00 AM 4.75 40.55 0.077 6.79 1.54 12.44
12/14/2020 12:30:00 AM 4.71 40.478 0.077 6.87 1.61 12.45
12/14/2020 12:45:00 AM 4.67 40.406 0.077 6.86 1.62 12.46
12/14/2020 1:00:00 AM 4.63 40.334 0.077 6.85 1.58 12.46
12/14/2020 1:15:00 AM 4.59 40.262 0.077 6.86 1.78 12.48
12/14/2020 1:30:00 AM 4.57 40.226 0.077 6.85 1.54 12.49
12/14/2020 1:45:00 AM 4.54 40.172 0.077 6.72 1.56 12.49
12/14/2020 2:00:00 AM 4.5 40.1 0.077 6.86 1.6 12.5
12/14/2020 2:15:00 AM 4.48 40.064 0.077 6.86 1.62 12.51
12/14/2020 2:30:00 AM 4.44 39.992 0.077 6.85 1.7 12.53
12/14/2020 2:45:00 AM 4.42 39.956 0.077 6.85 1.64 12.53
12/14/2020 3:00:00 AM 4.38 39.884 0.077 6.85 1.62 12.54
12/14/2020 3:15:00 AM 4.36 39.848 0.077 6.84 1.63 12.54
12/14/2020 3:30:00 AM 4.33 39.794 0.077 6.84 1.59 12.57
12/14/2020 3:45:00 AM 4.31 39.758 0.077 6.84 1.74 12.55
12/14/2020 4:00:00 AM 4.27 39.686 0.078 6.84 1.62 12.56
12/14/2020 4:15:00 AM 4.25 39.65 0.078 6.83 1.6 12.57
12/14/2020 4:30:00 AM 4.21 39.578 0.078 6.83 1.59 12.58
12/14/2020 4:45:00 AM 4.2 39.56 0.077 6.83 1.52 12.59
12/14/2020 5:00:00 AM 4.18 39.524 0.077 6.83 1.66 12.58
12/14/2020 5:15:00 AM 4.16 39.488 0.077 6.83 1.49 12.6
12/14/2020 5:30:00 AM 4.15 39.47 0.077 6.74 1.5 12.61
12/14/2020 5:45:00 AM 4.11 39.398 0.077 6.83 1.55 12.62
12/14/2020 6:00:00 AM 4.1 39.38 0.077 6.78 1.73 12.64
12/14/2020 6:15:00 AM 4.07 39.326 0.077 6.83 1.59 12.63
12/14/2020 6:30:00 AM 4.06 39.308 0.077 6.82 1.49 12.63
12/14/2020 6:45:00 AM 4.03 39.254 0.077 6.82 1.64 12.64
12/14/2020 7:00:00 AM 4 39.2 0.077 6.82 1.73 12.65
12/14/2020 7:15:00 AM 3.94 39.092 0.077 6.82 1.53 12.66
12/14/2020 7:30:00 AM 3.88 38.984 0.077 6.82 1.48 12.68
12/14/2020 7:45:00 AM 3.81 38.858 0.077 6.83 1.52 12.73
12/14/2020 8:00:00 AM 3.76 38.768 0.077 6.81 1.54 12.77
12/14/2020 8:15:00 AM 3.75 38.75 0.077 6.84 1.55 12.81
12/14/2020 8:30:00 AM 3.72 38.696 0.077 6.85 1.61 12.88
12/14/2020 8:45:00 AM 3.7 38.66 0.077 6.86 1.54 12.97
12/14/2020 9:00:00 AM 3.71 38.678 0.077 6.87 1.46 13.05
12/14/2020 9:15:00 AM 3.68 38.624 0.076 6.74 1.48 13.17
12/14/2020 9:30:00 AM 3.68 38.624 0.076 6.92 1.58 13.29
12/14/2020 9:45:00 AM 3.67 38.606 0.076 6.93 1.67 13.34
12/14/2020 10:00:00 AM 3.67 38.606 0.076 6.93 1.59 13.37
12/14/2020 10:15:00 AM 3.64 38.552 0.076 6.95 1.54 13.43
12/14/2020 10:30:00 AM 3.63 38.534 0.076 6.92 1.45 13.51
12/14/2020 10:45:00 AM 3.64 38.552 0.075 7 1.46 13.6
12/14/2020 11:00:00 AM 3.66 38.588 0.075 6.99 1.45 13.63
12/14/2020 11:15:00 AM 3.66 38.588 0.075 7.03 1.37 13.68
12/14/2020 11:30:00 AM 3.66 38.588 0.075 7.04 1.42 13.63
12/14/2020 11:45:00 AM 3.62 38.516 0.075 7.04 1.43 13.61
12/14/2020 12:00:00 PM 3.6 38.48 0.075 7.05 1.39 13.66
12/14/2020 12:15:00 PM 3.62 38.516 0.075 7.07 1.61 13.68
12/14/2020 12:30:00 PM 3.63 38.534 0.075 7.09 1.48 13.73
12/14/2020 12:45:00 PM 3.66 38.588 0.075 7.09 1.48 13.71
12/14/2020 1:00:00 PM 3.66 38.588 0.075 7.02 1.53 13.69
12/14/2020 1:15:00 PM 3.67 38.606 0.075 7.05 1.44 13.66
12/14/2020 1:30:00 PM 3.67 38.606 0.075 7.09 1.54 13.61
12/14/2020 1:45:00 PM 3.7 38.66 0.075 7.06 1.5 13.58
12/14/2020 2:00:00 PM 3.71 38.678 0.075 7.08 1.64 13.59
12/14/2020 2:15:00 PM 3.71 38.678 0.075 7.08 1.51 13.54
12/14/2020 2:30:00 PM 3.69 38.642 0.075 7.08 1.45 13.52
12/14/2020 2:45:00 PM 3.7 38.66 0.075 7.11 1.5 13.56
12/14/2020 3:00:00 PM 3.69 38.642 0.075 7.11 1.56 13.54
12/14/2020 3:15:00 PM 3.68 38.624 0.075 7.1 1.46 13.5
12/14/2020 3:30:00 PM 3.69 38.642 0.075 7.11 1.51 13.52
12/14/2020 3:45:00 PM 3.67 38.606 0.075 6.98 1.51 13.44
12/14/2020 4:00:00 PM 3.65 38.57 0.075 7.09 1.62 13.37
12/14/2020 4:15:00 PM 3.64 38.552 0.075 7.05 1.5 13.3
12/14/2020 4:30:00 PM 3.63 38.534 0.076 7.03 1.64 13.19
12/14/2020 4:45:00 PM 3.62 38.516 0.076 7 1.51 13.09
12/14/2020 5:00:00 PM 3.61 38.498 0.076 6.98 1.61 13.03
12/14/2020 5:15:00 PM 3.59 38.462 0.076 6.97 1.77 12.98
12/14/2020 5:30:00 PM 3.58 38.444 0.076 6.95 1.84 12.94
12/14/2020 5:45:00 PM 3.53 38.354 0.076 6.94 1.59 12.91
12/14/2020 6:00:00 PM 3.51 38.318 0.076 6.93 1.63 12.9
12/14/2020 6:15:00 PM 3.47 38.246 0.077 6.93 1.7 12.9
12/14/2020 6:30:00 PM 3.41 38.138 0.077 6.92 1.58 12.9
12/14/2020 6:45:00 PM 3.36 38.048 0.077 6.91 1.56 12.91
12/14/2020 7:00:00 PM 3.33 37.994 0.077 6.91 1.58 12.92
12/14/2020 7:15:00 PM 3.3 37.94 0.077 6.91 1.61 12.93
12/14/2020 7:30:00 PM 3.26 37.868 0.077 6.9 1.54 12.94
12/14/2020 7:45:00 PM 3.22 37.796 0.077 6.81 1.57 12.96
12/14/2020 8:00:00 PM 3.15 37.67 0.077 6.91 1.65 12.98
12/14/2020 8:15:00 PM 3.11 37.598 0.078 6.89 1.66 13
12/14/2020 8:30:00 PM 3.07 37.526 0.078 6.89 1.54 13.01
12/14/2020 8:45:00 PM 3 37.4 0.078 6.88 1.84 13.03
12/14/2020 9:00:00 PM 2.92 37.256 0.078 6.88 1.68 13.06
12/14/2020 9:15:00 PM 2.85 37.13 0.078 6.8 1.7 13.1
12/14/2020 9:30:00 PM 2.79 37.022 0.078 6.87 1.66 13.1
12/14/2020 9:45:00 PM 2.71 36.878 0.078 6.88 1.69 13.14
12/14/2020 10:00:00 PM 2.65 36.77 0.078 6.87 1.81 13.16
12/14/2020 10:15:00 PM 2.58 36.644 0.078 6.88 1.85 13.2
12/14/2020 10:30:00 PM 2.51 36.518 0.078 6.84 1.94 13.22
12/14/2020 10:45:00 PM 2.45 36.41 0.078 6.87 1.75 13.23
12/14/2020 11:00:00 PM 2.37 36.266 0.078 6.87 1.81 13.27
12/14/2020 11:15:00 PM 2.29 36.122 0.078 6.87 1.79 13.3
12/14/2020 11:30:00 PM 2.21 35.978 0.078 6.87 1.81 13.33
12/14/2020 11:45:00 PM 2.16 35.888 0.078 6.86 1.85 13.35
12/15/2020 12:00:00 AM 2.1 35.78 0.078 6.86 1.63 13.38
12/15/2020 12:15:00 AM 2.05 35.69 0.078 6.86 1.7 13.41
12/15/2020 12:30:00 AM 2 35.6 0.078 6.85 1.6 13.42
12/15/2020 12:45:00 AM 1.93 35.474 0.078 6.85 1.61 13.45
12/15/2020 1:00:00 AM 1.88 35.384 0.078 6.85 1.64 13.48
12/15/2020 1:15:00 AM 1.84 35.312 0.078 6.85 1.52 13.49
12/15/2020 1:30:00 AM 1.82 35.276 0.078 6.85 1.7 13.53
12/15/2020 1:45:00 AM 1.74 35.132 0.078 6.85 1.48 13.55
12/15/2020 2:00:00 AM 1.73 35.114 0.078 6.84 1.66 13.55
12/15/2020 2:15:00 AM 1.71 35.078 0.078 6.84 1.58 13.58
12/15/2020 2:30:00 AM 1.68 35.024 0.078 6.84 1.46 13.58
12/15/2020 2:45:00 AM 1.65 34.97 0.078 6.84 1.48 13.6
12/15/2020 3:00:00 AM 1.62 34.916 0.078 6.82 1.51 13.62
12/15/2020 3:15:00 AM 1.56 34.808 0.078 6.84 1.49 13.64
12/15/2020 3:30:00 AM 1.53 34.754 0.078 6.83 1.51 13.66
12/15/2020 3:45:00 AM 1.48 34.664 0.078 6.74 1.5 13.68
12/15/2020 4:00:00 AM 1.45 34.61 0.078 6.78 1.43 13.68
12/15/2020 4:15:00 AM 1.42 34.556 0.078 6.85 1.47 13.71
12/15/2020 4:30:00 AM 1.42 34.556 0.078 6.73 1.5 13.72
12/15/2020 4:45:00 AM 1.41 34.538 0.078 6.84 1.42 13.72
12/15/2020 5:00:00 AM 1.42 34.556 0.078 6.83 1.44 13.72
12/15/2020 5:15:00 AM 1.38 34.484 0.078 6.82 1.62 13.74
12/15/2020 5:30:00 AM 1.39 34.502 0.078 6.82 1.58 13.73
12/15/2020 5:45:00 AM 1.37 34.466 0.078 6.82 1.44 13.73
12/15/2020 6:00:00 AM 1.36 34.448 0.078 6.82 1.4 13.75
12/15/2020 6:15:00 AM 1.37 34.466 0.078 6.81 1.64 13.73
12/15/2020 6:30:00 AM 1.35 34.43 0.078 6.73 1.39 13.77
12/15/2020 6:45:00 AM 1.35 34.43 0.078 6.82 1.42 13.77
12/15/2020 7:00:00 AM 1.34 34.412 0.078 6.81 1.4 13.76
12/15/2020 7:15:00 AM 1.33 34.394 0.078 6.77 1.45 13.76
12/15/2020 7:30:00 AM 1.3 34.34 0.078 6.82 1.48 13.79
12/15/2020 7:45:00 AM 1.29 34.322 0.078 6.82 1.5 13.85
12/15/2020 8:00:00 AM 1.27 34.286 0.078 6.83 1.41 13.97
12/15/2020 8:15:00 AM 1.26 34.268 0.078 6.84 1.45 14.05
12/15/2020 8:30:00 AM 1.23 34.214 0.077 6.79 1.44 14.2
12/15/2020 8:45:00 AM 1.24 34.232 0.077 6.89 2.01 14.3
12/15/2020 9:00:00 AM 1.27 34.286 0.077 6.91 1.38 14.44
12/15/2020 9:15:00 AM 1.29 34.322 0.077 6.92 1.38 14.53
12/15/2020 9:30:00 AM 1.35 34.43 0.077 6.94 1.4 14.59
12/15/2020 9:45:00 AM 1.33 34.394 0.077 6.8 1.36 14.56
12/15/2020 10:00:00 AM 1.33 34.394 0.077 6.96 1.37 14.53
12/15/2020 10:15:00 AM 1.35 34.43 0.076 6.96 1.39 14.58
12/15/2020 10:30:00 AM 1.37 34.466 0.076 6.97 1.38 14.61
12/15/2020 10:45:00 AM 1.43 34.574 0.076 6.99 1.39 14.67
12/15/2020 11:00:00 AM 1.5 34.7 0.076 6.99 1.33 14.66
12/15/2020 11:15:00 AM 1.49 34.682 0.076 7.02 1.58 14.72
12/15/2020 11:30:00 AM 1.55 34.79 0.076 7.03 1.32 14.74
12/15/2020 11:45:00 AM 1.57 34.826 0.076 7.01 1.47 14.76
12/15/2020 12:00:00 PM 1.6 34.88 0.076 7.09 1.52 14.79
12/15/2020 12:15:00 PM 1.72 35.096 0.076 6.87 1.41 14.75
12/15/2020 12:30:00 PM 1.73 35.114 0.076 7.1 1.31 14.77
12/15/2020 12:45:00 PM 1.73 35.114 0.076 7.09 1.39 14.74
12/15/2020 1:00:00 PM 1.74 35.132 0.076 7.08 1.62 14.71
12/15/2020 1:15:00 PM 1.72 35.096 0.076 7.12 1.43 14.75
12/15/2020 1:30:00 PM 1.76 35.168 0.075 6.99 1.41 14.71
12/15/2020 1:45:00 PM 1.8 35.24 0.075 7.11 1.36 14.7
12/15/2020 2:00:00 PM 1.79 35.222 0.075 7.1 1.37 14.68
12/15/2020 2:15:00 PM 1.79 35.222 0.075 7 1.38 14.72
12/15/2020 2:30:00 PM 1.81 35.258 0.075 7.15 1.33 14.71
12/15/2020 2:45:00 PM 1.85 35.33 0.075 7.11 1.43 14.66
12/15/2020 3:00:00 PM 1.8 35.24 0.075 7.11 1.42 14.6
12/15/2020 3:15:00 PM 1.76 35.168 0.075 7.01 1.36 14.55
12/15/2020 3:30:00 PM 1.76 35.168 0.076 7 1.4 14.49
12/15/2020 3:45:00 PM 1.74 35.132 0.076 7.05 1.43 14.39
12/15/2020 4:00:00 PM 1.68 35.024 0.076 7.03 1.39 14.32
12/15/2020 4:15:00 PM 1.63 34.934 0.076 7 1.34 14.22
12/15/2020 4:30:00 PM 1.57 34.826 0.076 6.89 1.41 14.15
12/15/2020 4:45:00 PM 1.51 34.718 0.077 6.82 1.37 14.06
12/15/2020 5:00:00 PM 1.46 34.628 0.077 6.95 1.39 13.97
12/15/2020 5:15:00 PM 1.44 34.592 0.077 6.92 1.35 13.92
12/15/2020 5:30:00 PM 1.36 34.448 0.077 6.91 1.34 13.92
12/15/2020 5:45:00 PM 1.34 34.412 0.077 6.9 1.36 13.87
12/15/2020 6:00:00 PM 1.31 34.358 0.077 6.84 1.43 13.87
12/15/2020 6:15:00 PM 1.25 34.25 0.078 6.86 1.34 13.88
12/15/2020 6:30:00 PM 1.22 34.196 0.078 6.88 1.41 13.88
12/15/2020 6:45:00 PM 1.17 34.106 0.078 6.87 1.46 13.87
12/15/2020 7:00:00 PM 1.15 34.07 0.078 6.85 1.41 13.87
12/15/2020 7:15:00 PM 1.11 33.998 0.078 6.85 1.39 13.88
12/15/2020 7:30:00 PM 1.08 33.944 0.078 6.84 1.38 13.88
12/15/2020 7:45:00 PM 1.03 33.854 0.078 6.8 1.37 13.92
12/15/2020 8:00:00 PM 0.99 33.782 0.078 6.85 1.39 13.95
12/15/2020 8:15:00 PM 0.95 33.71 0.078 6.76 1.39 13.94
12/15/2020 8:30:00 PM 0.9 33.62 0.078 6.82 1.35 13.98
12/15/2020 8:45:00 PM 0.84 33.512 0.078 6.81 1.35 14.01
12/15/2020 9:00:00 PM 0.82 33.476 0.078 6.82 1.41 14
12/15/2020 9:15:00 PM 0.74 33.332 0.079 6.83 1.39 14.05
12/15/2020 9:30:00 PM 0.68 33.224 0.079 6.83 1.39 14.09
12/15/2020 9:45:00 PM 0.67 33.206 0.079 6.83 1.39 14.07
12/15/2020 10:00:00 PM 0.61 33.098 0.079 6.82 1.35 14.09
12/15/2020 10:15:00 PM 0.58 33.044 0.079 6.69 1.4 14.11
12/15/2020 10:30:00 PM 0.53 32.954 0.079 6.83 1.41 14.13
12/15/2020 10:45:00 PM 0.48 32.864 0.079 6.75 1.44 14.17
12/15/2020 11:00:00 PM 0.45 32.81 0.079 6.83 1.38 14.17
12/15/2020 11:15:00 PM 0.45 32.81 0.079 6.82 1.36 14.17
12/15/2020 11:30:00 PM 0.4 32.72 0.079 6.81 1.36 14.17
12/15/2020 11:45:00 PM 0.35 32.63 0.079 6.75 1.41 14.2
12/16/2020 12:00:00 AM 0.34 32.612 0.079 6.64 1.39 14.2
12/16/2020 12:15:00 AM 0.27 32.486 0.079 6.83 1.42 14.24
12/16/2020 12:30:00 AM 0.25 32.45 0.079 6.74 1.41 14.25
12/16/2020 12:45:00 AM 0.19 32.342 0.08 6.82 1.39 14.27
12/16/2020 1:00:00 AM 0.17 32.306 0.08 6.81 1.38 14.29
12/16/2020 1:15:00 AM 0.16 32.288 0.08 6.8 1.51 14.28
12/16/2020 1:30:00 AM 0.15 32.27 0.08 6.81 1.4 14.31
12/16/2020 1:45:00 AM 0.14 32.252 0.08 6.82 1.46 14.35
12/16/2020 2:00:00 AM 0.05 32.09 0.08 6.84 1.4 14.42
12/16/2020 2:15:00 AM 0.04 32.072 0.08 6.83 1.36 14.41
12/16/2020 2:30:00 AM 0 32 0.081 6.86 1.4 14.48
12/16/2020 2:45:00 AM 0 32 0.081 6.8 1.44 14.5
12/16/2020 3:00:00 AM 0 32 0.081 6.88 1.39 14.51
12/16/2020 3:15:00 AM 0 32 0.081 6.87 1.43 14.52
12/16/2020 3:30:00 AM 0 32 0.081 6.7 1.55 14.52
12/16/2020 3:45:00 AM 0 32 0.081 6.9 1.45 14.53
12/16/2020 4:00:00 AM 0 32 0.081 6.86 1.43 14.55
12/16/2020 4:15:00 AM -0.01 31.982 0.081 6.89 1.43 14.55
12/16/2020 4:30:00 AM 0 32 0.081 6.87 1.41 14.51
12/16/2020 4:45:00 AM 0.01 32.018 0.081 6.87 1.42 14.48
12/16/2020 5:00:00 AM 0.05 32.09 0.081 6.85 1.59 14.44
12/16/2020 5:15:00 AM 0.1 32.18 0.081 6.82 1.34 14.39
12/16/2020 5:30:00 AM 0.1 32.18 0.081 6.82 1.38 14.38
12/16/2020 5:45:00 AM 0.12 32.216 0.081 6.81 1.35 14.37
12/16/2020 6:00:00 AM 0.12 32.216 0.082 6.76 1.4 14.36
12/16/2020 6:15:00 AM 0.13 32.234 0.082 6.81 1.36 14.35
12/16/2020 6:30:00 AM 0.11 32.198 0.082 6.81 1.44 14.39
12/16/2020 6:45:00 AM 0.11 32.198 0.082 6.81 1.37 14.4
12/16/2020 7:00:00 AM 0.13 32.234 0.082 6.63 1.42 14.35
12/16/2020 7:15:00 AM 0.16 32.288 0.082 6.81 1.38 14.34
12/16/2020 7:30:00 AM 0.16 32.288 0.082 6.79 1.34 14.33
12/16/2020 7:45:00 AM 0.19 32.342 0.082 6.78 1.37 14.31
12/16/2020 8:00:00 AM 0.25 32.45 0.082 6.65 1.32 14.36
12/16/2020 8:15:00 AM 0.25 32.45 0.082 6.79 1.36 14.41
12/16/2020 8:30:00 AM 0.28 32.504 0.081 6.78 1.37 14.48
12/16/2020 8:45:00 AM 0.29 32.522 0.081 6.71 1.4 14.56
12/16/2020 9:00:00 AM 0.23 32.414 0.081 6.8 1.36 14.68
12/16/2020 9:15:00 AM 0.28 32.504 0.081 6.74 1.38 14.78
12/16/2020 9:30:00 AM 0.26 32.468 0.081 6.85 1.36 14.84
12/16/2020 9:45:00 AM 0.25 32.45 0.081 6.78 1.35 14.85
12/16/2020 10:00:00 AM 0.2 32.36 0.081 6.87 1.34 14.9
12/16/2020 10:15:00 AM 0.24 32.432 0.081 6.86 1.28 14.94
12/16/2020 10:30:00 AM 0.23 32.414 0.08 6.87 1.29 15.01
12/16/2020 10:45:00 AM 0.23 32.414 0.08 6.89 1.33 15.06
12/16/2020 11:00:00 AM 0.18 32.324 0.08 6.93 1.33 15.16
12/16/2020 11:15:00 AM 0.16 32.288 0.08 6.96 1.36 15.18
12/16/2020 11:30:00 AM 0.12 32.216 0.08 6.91 1.34 15.21
12/16/2020 11:45:00 AM 0.08 32.144 0.08 7.03 1.32 15.25
12/16/2020 12:00:00 PM 0.06 32.108 0.08 7.04 1.29 15.26
12/16/2020 12:15:00 PM 0.05 32.09 0.08 7.06 1.29 15.27
12/16/2020 12:30:00 PM 0.06 32.108 0.08 7.06 1.39 15.2
12/16/2020 12:45:00 PM 0.05 32.09 0.08 7.05 1.42 15.18
12/16/2020 1:00:00 PM 0.05 32.09 0.08 7.07 1.44 15.19
12/16/2020 1:15:00 PM 0.05 32.09 0.08 7.08 1.35 15.21
12/16/2020 1:30:00 PM 0.05 32.09 0.08 7.09 1.32 15.19
12/16/2020 1:45:00 PM 0.04 32.072 0.08 7.1 1.37 15.19
12/16/2020 2:00:00 PM 0.04 32.072 0.08 7.07 1.32 15.16
12/16/2020 2:15:00 PM 0.04 32.072 0.08 7.09 1.35 15.11
12/16/2020 2:30:00 PM 0.04 32.072 0.08 7.08 1.51 15.06
12/16/2020 2:45:00 PM 0.05 32.09 0.08 7.03 1.37 15
12/16/2020 3:00:00 PM 0.05 32.09 0.08 7.05 1.3 14.94
12/16/2020 3:15:00 PM 0.07 32.126 0.08 6.99 1.34 14.86
12/16/2020 3:30:00 PM 0.12 32.216 0.08 6.98 1.31 14.76
12/16/2020 3:45:00 PM 0.15 32.27 0.08 6.85 1.33 14.67
12/16/2020 4:00:00 PM 0.17 32.306 0.08 6.93 1.39 14.6
12/16/2020 4:15:00 PM 0.16 32.288 0.08 6.91 1.4 14.52
12/16/2020 4:30:00 PM 0.13 32.234 0.08 6.9 1.39 14.5
12/16/2020 4:45:00 PM 0.17 32.306 0.08 6.88 1.38 14.42
12/16/2020 5:00:00 PM 0.29 32.522 0.08 6.83 1.43 14.28
12/16/2020 5:15:00 PM 0.33 32.594 0.08 6.81 1.45 14.23
12/16/2020 5:30:00 PM 0.26 32.468 0.08 6.79 1.46 14.2
12/16/2020 5:45:00 PM 0.29 32.522 0.08 6.78 1.42 14.16
12/16/2020 6:00:00 PM 0.29 32.522 0.08 6.79 1.49 14.22
12/16/2020 6:15:00 PM 0.31 32.558 0.08 6.77 1.54 14.15
12/16/2020 6:30:00 PM 0.34 32.612 0.08 6.65 1.5 14.11
12/16/2020 6:45:00 PM 0.35 32.63 0.08 6.77 1.49 14.12
12/16/2020 7:00:00 PM 0.29 32.522 0.08 6.56 1.56 14.13
12/16/2020 7:15:00 PM 0.23 32.414 0.08 6.77 1.5 14.12
12/16/2020 7:30:00 PM 0.31 32.558 0.08 6.72 1.66 14.11
12/16/2020 7:45:00 PM 0.32 32.576 0.08 6.7 2.26 13.98
12/16/2020 8:00:00 PM 0.39 32.702 0.08 6.68 2.09 13.84
12/16/2020 8:15:00 PM 0.56 33.008 0.079 6.66 1.99 13.85
12/16/2020 8:30:00 PM 0.39 32.702 0.08 6.65 2.13 13.89
12/16/2020 8:45:00 PM 0.11 32.198 0.081 6.75 3.03 14.15
12/16/2020 9:00:00 PM 0.32 32.576 0.081 6.73 2.18 14.09
12/16/2020 9:15:00 PM 0.12 32.216 0.081 6.76 6.31 14.25
12/16/2020 9:30:00 PM 0.26 32.468 0.081 6.72 2.84 14.06
12/16/2020 9:45:00 PM 0.16 32.288 0.082 6.77 2.26 14.19
12/16/2020 10:00:00 PM 0.09 32.162 0.082 6.72 2.56 14.23
12/16/2020 10:15:00 PM 0.05 32.09 0.082 6.81 2.38 14.24
12/16/2020 10:30:00 PM 0.6 33.08 0.079 6.63 2.39 13.55
12/16/2020 10:45:00 PM 0.18 32.324 0.082 6.72 4.36 14.05
12/16/2020 11:00:00 PM 0.06 32.108 0.082 6.66 2.94 14.23
12/16/2020 11:15:00 PM 0.1 32.18 0.082 6.81 2.38 14.21
12/16/2020 11:30:00 PM 0.07 32.126 0.082 6.8 2.37 14.19
12/16/2020 11:45:00 PM 0.04 32.072 0.082 6.61 2.67 14.22
12/17/2020 12:00:00 AM 0.04 32.072 0.082 6.82 2.25 14.23
12/17/2020 12:15:00 AM 0.03 32.054 0.082 6.81 2.15 14.21
12/17/2020 12:30:00 AM 0.01 32.018 0.083 6.82 2.32 14.23
12/17/2020 12:45:00 AM 0.01 32.018 0.083 6.81 2.67 14.26
12/17/2020 1:00:00 AM 0.01 32.018 0.083 6.81 2.27 14.26
12/17/2020 1:15:00 AM 0.01 32.018 0.083 6.67 2.07 14.26
12/17/2020 1:30:00 AM 0.02 32.036 0.083 6.84 2.33 14.25
12/17/2020 1:45:00 AM 0.01 32.018 0.083 6.82 2.03 14.23
12/17/2020 2:00:00 AM 0.02 32.036 0.083 6.82 1.94 14.22
12/17/2020 2:15:00 AM 0.01 32.018 0.083 6.81 1.91 14.22
12/17/2020 2:30:00 AM 0.01 32.018 0.083 6.82 1.8 14.22
12/17/2020 2:45:00 AM 0 32 0.083 6.82 1.84 14.22
12/17/2020 3:00:00 AM 0 32 0.083 6.77 1.85 14.2
12/17/2020 3:15:00 AM 0 32 0.083 6.82 1.83 14.21
12/17/2020 3:30:00 AM 0 32 0.084 6.81 1.82 14.18
12/17/2020 3:45:00 AM 0.01 32.018 0.084 6.81 1.88 14.18
12/17/2020 4:00:00 AM 0.01 32.018 0.084 6.8 1.8 14.15
12/17/2020 4:15:00 AM 0 32 0.084 6.79 3.65 14.16
12/17/2020 4:30:00 AM 0.01 32.018 0.084 6.81 3.29 14.16
12/17/2020 4:45:00 AM 0.05 32.09 0.084 6.8 2.48 14.11
12/17/2020 5:00:00 AM 0.05 32.09 0.084 6.6 2.33 14.1
12/17/2020 5:15:00 AM 0.06 32.108 0.084 6.79 1.91 14.05
12/17/2020 5:30:00 AM 0.05 32.09 0.084 6.77 1.86 14.03
12/17/2020 5:45:00 AM 0.02 32.036 0.084 6.77 1.77 14.04
12/17/2020 6:00:00 AM 0.04 32.072 0.084 6.74 1.7 14
12/17/2020 6:15:00 AM 0.01 32.018 0.085 6.78 1.69 14.02
12/17/2020 6:30:00 AM 0.02 32.036 0.085 6.76 1.7 13.97
12/17/2020 6:45:00 AM 0.01 32.018 0.085 6.76 1.64 13.95
12/17/2020 7:00:00 AM 0.01 32.018 0.085 6.76 1.59 13.93
12/17/2020 7:15:00 AM 0.02 32.036 0.085 6.75 1.59 13.92
12/17/2020 7:30:00 AM 0.01 32.018 0.085 6.74 2.23 13.92
12/17/2020 7:45:00 AM 0 32 0.085 6.76 2.53 14.01
12/17/2020 8:00:00 AM 0.01 32.018 0.085 6.58 2.22 14.03
12/17/2020 8:15:00 AM 0.01 32.018 0.085 6.79 1.91 14.06
12/17/2020 8:30:00 AM 0 32 0.084 6.78 1.99 14.12
12/17/2020 8:45:00 AM 0 32 0.084 6.79 1.8 14.16
12/17/2020 9:00:00 AM 0 32 0.084 6.79 1.84 14.19
12/17/2020 9:15:00 AM 0 32 0.084 6.8 1.79 14.25
12/17/2020 9:30:00 AM 0 32 0.084 6.81 1.7 14.31
12/17/2020 9:45:00 AM 0 32 0.084 6.81 1.8 14.37
12/17/2020 10:00:00 AM 0 32 0.084 6.83 2.15 14.42
12/17/2020 10:15:00 AM 0 32 0.084 6.84 2.46 14.47
12/17/2020 10:30:00 AM 0 32 0.084 6.84 2.04 14.51
12/17/2020 10:45:00 AM 0 32 0.084 6.78 1.99 14.56
12/17/2020 11:00:00 AM 0 32 0.085 6.87 2.23 14.6
12/17/2020 11:15:00 AM 0 32 0.084 6.87 2.02 14.63
12/17/2020 11:30:00 AM 0 32 0.084 6.87 2.05 14.65
12/17/2020 11:45:00 AM 0 32 0.084 6.88 2.27 14.69
12/17/2020 12:00:00 PM 0 32 0.083 6.89 2.33 14.72
12/17/2020 12:15:00 PM 0 32 0.083 6.82 2.24 14.75
12/17/2020 12:30:00 PM 0 32 0.083 6.92 2.59 14.77
12/17/2020 12:45:00 PM 0 32 0.083 6.92 2.33 14.79
12/17/2020 1:00:00 PM 0 32 0.083 6.93 2.28 14.81
12/17/2020 1:15:00 PM 0 32 0.083 6.94 2.31 14.81
12/17/2020 1:30:00 PM 0 32 0.083 6.94 2.25 14.82
12/17/2020 1:45:00 PM 0 32 0.083 6.95 2.46 14.82
12/17/2020 2:00:00 PM 0 32 0.083 6.86 2.92 14.82
12/17/2020 2:15:00 PM 0 32 0.083 6.98 4.05 14.82
12/17/2020 2:30:00 PM 0 32 0.082 6.97 2.52 14.8
12/17/2020 2:45:00 PM 0.01 32.018 0.082 6.97 2.37 14.8
12/17/2020 3:00:00 PM 0.01 32.018 0.082 6.96 10.27 14.74
12/17/2020 3:15:00 PM 0.02 32.036 0.082 6.95 2.74 14.76
12/17/2020 3:30:00 PM 0.04 32.072 0.082 6.91 2.47 14.7
12/17/2020 3:45:00 PM 0.04 32.072 0.082 6.94 2.58 14.68
12/17/2020 4:00:00 PM 0.04 32.072 0.082 6.93 3.07 14.65
12/17/2020 4:15:00 PM 0.11 32.198 0.081 6.92 2.21 14.59
12/17/2020 4:30:00 PM 0.01 32.018 0.081 6.93 2.52 14.62
12/17/2020 4:45:00 PM 0 32 0.081 6.92 2.33 14.59
12/17/2020 5:00:00 PM 0 32 0.081 6.92 2.17 14.56
12/17/2020 5:15:00 PM -0.01 31.982 0.081 6.92 2.08 14.53
12/17/2020 5:30:00 PM -0.01 31.982 0.081 6.86 2.19 14.51
12/17/2020 5:45:00 PM -0.01 31.982 0.081 6.91 2.25 14.48
12/17/2020 6:00:00 PM -0.01 31.982 0.08 6.9 2.06 14.47
12/17/2020 6:15:00 PM -0.01 31.982 0.08 6.76 2.25 14.46
12/17/2020 6:30:00 PM -0.01 31.982 0.08 6.91 2.06 14.46
12/17/2020 6:45:00 PM -0.01 31.982 0.08 6.88 2.02 14.46
12/17/2020 7:00:00 PM -0.01 31.982 0.08 6.88 1.93 14.44
12/17/2020 7:15:00 PM -0.01 31.982 0.08 6.87 1.93 14.44
12/17/2020 7:30:00 PM -0.01 31.982 0.079 6.87 2.1 14.42
12/17/2020 7:45:00 PM -0.01 31.982 0.079 6.86 2.04 14.42
12/17/2020 8:00:00 PM -0.01 31.982 0.079 6.86 1.96 14.4
12/17/2020 8:15:00 PM -0.01 31.982 0.079 6.86 1.97 14.4
12/17/2020 8:30:00 PM -99999.99 -179968 -99999.99 -99999.99 -99999.99 -99999.99
12/17/2020 8:45:00 PM -99999.99 -179968 -99999.99 -99999.99 -99999.99 -99999.99
12/17/2020 9:00:00 PM -99999.99 -179968 -99999.99 -99999.99 -99999.99 -99999.99
12/17/2020 9:15:00 PM -99999.99 -179968 -99999.99 -99999.99 -99999.99 -99999.99
12/17/2020 9:30:00 PM -99999.99 -179968 -99999.99 -99999.99 -99999.99 -99999.99
12/17/2020 9:45:00 PM -99999.99 -179968 -99999.99 -99999.99 -99999.99 -99999.99
12/17/2020 10:00:00 PM -99999.99 -179968 -99999.99 -99999.99 -99999.99 -99999.99
12/17/2020 10:15:00 PM -99999.99 -179968 -99999.99 -99999.99 -99999.99 -99999.99
12/17/2020 10:30:00 PM -99999.99 -179968 -99999.99 -99999.99 -99999.99 -99999.99
12/17/2020 10:45:00 PM -99999.99 -179968 -99999.99 -99999.99 -99999.99 -99999.99
12/17/2020 11:00:00 PM -99999.99 -179968 -99999.99 -99999.99 -99999.99 -99999.99
12/17/2020 11:15:00 PM -99999.99 -179968 -99999.99 -99999.99 -99999.99 -99999.99
12/17/2020 11:30:00 PM -99999.99 -179968 -99999.99 -99999.99 -99999.99 -99999.99
12/17/2020 11:45:00 PM -99999.99 -179968 -99999.99 -99999.99 -99999.99 -99999.99
12/18/2020 12:00:00 AM -99999.99 -179968 -99999.99 -99999.99 -99999.99 -99999.99
12/18/2020 12:15:00 AM -99999.99 -179968 -99999.99 -99999.99 -99999.99 -99999.99
12/18/2020 12:30:00 AM -99999.99 -179968 -99999.99 -99999.99 -99999.99 -99999.99
12/18/2020 12:45:00 AM -99999.99 -179968 -99999.99 -99999.99 -99999.99 -99999.99
12/18/2020 1:00:00 AM -99999.99 -179968 -99999.99 -99999.99 -99999.99 -99999.99
12/18/2020 1:15:00 AM -99999.99 -179968 -99999.99 -99999.99 -99999.99 -99999.99
12/18/2020 1:30:00 AM -99999.99 -179968 -99999.99 -99999.99 -99999.99 -99999.99
12/18/2020 1:45:00 AM -99999.99 -179968 -99999.99 -99999.99 -99999.99 -99999.99
12/18/2020 2:00:00 AM -99999.99 -179968 -99999.99 -99999.99 -99999.99 -99999.99
12/18/2020 2:15:00 AM -99999.99 -179968 -99999.99 -99999.99 -99999.99 -99999.99
12/18/2020 2:30:00 AM -99999.99 -179968 -99999.99 -99999.99 -99999.99 -99999.99
12/18/2020 2:45:00 AM -99999.99 -179968 -99999.99 -99999.99 -99999.99 -99999.99
12/18/2020 3:00:00 AM -99999.99 -179968 -99999.99 -99999.99 -99999.99 -99999.99
12/18/2020 3:15:00 AM -99999.99 -179968 -99999.99 -99999.99 -99999.99 -99999.99
12/18/2020 3:30:00 AM -99999.99 -179968 -99999.99 -99999.99 -99999.99 -99999.99
12/18/2020 3:45:00 AM -99999.99 -179968 -99999.99 -99999.99 -99999.99 -99999.99
12/18/2020 4:00:00 AM -99999.99 -179968 -99999.99 -99999.99 -99999.99 -99999.99
12/18/2020 4:15:00 AM -99999.99 -179968 -99999.99 -99999.99 -99999.99 -99999.99
12/18/2020 4:30:00 AM -99999.99 -179968 -99999.99 -99999.99 -99999.99 -99999.99
12/18/2020 4:45:00 AM -99999.99 -179968 -99999.99 -99999.99 -99999.99 -99999.99
12/18/2020 5:00:00 AM -99999.99 -179968 -99999.99 -99999.99 -99999.99 -99999.99
12/18/2020 5:15:00 AM -99999.99 -179968 -99999.99 -99999.99 -99999.99 -99999.99
12/18/2020 5:30:00 AM -99999.99 -179968 -99999.99 -99999.99 -99999.99 -99999.99
12/18/2020 5:45:00 AM -99999.99 -179968 -99999.99 -99999.99 -99999.99 -99999.99
12/18/2020 6:00:00 AM -99999.99 -179968 -99999.99 -99999.99 -99999.99 -99999.99
12/18/2020 6:15:00 AM -99999.99 -179968 -99999.99 -99999.99 -99999.99 -99999.99
12/18/2020 6:30:00 AM -99999.99 -179968 -99999.99 -99999.99 -99999.99 -99999.99
12/18/2020 6:45:00 AM -99999.99 -179968 -99999.99 -99999.99 -99999.99 -99999.99
12/18/2020 7:00:00 AM -99999.99 -179968 -99999.99 -99999.99 -99999.99 -99999.99
12/18/2020 7:15:00 AM -99999.99 -179968 -99999.99 -99999.99 -99999.99 -99999.99
12/18/2020 7:30:00 AM -99999.99 -179968 -99999.99 -99999.99 -99999.99 -99999.99
12/18/2020 7:45:00 AM -99999.99 -179968 -99999.99 -99999.99 -99999.99 -99999.99
12/18/2020 8:00:00 AM -99999.99 -179968 -99999.99 -99999.99 -99999.99 -99999.99
12/18/2020 8:15:00 AM -99999.99 -179968 -99999.99 -99999.99 -99999.99 -99999.99
12/18/2020 8:30:00 AM -99999.99 -179968 -99999.99 -99999.99 -99999.99 -99999.99
12/18/2020 8:45:00 AM -99999.99 -179968 -99999.99 -99999.99 -99999.99 -99999.99
12/18/2020 9:00:00 AM -99999.99 -179968 -99999.99 -99999.99 -99999.99 -99999.99
12/18/2020 9:15:00 AM -99999.99 -179968 -99999.99 -99999.99 -99999.99 -99999.99
12/18/2020 9:30:00 AM -99999.99 -179968 -99999.99 -99999.99 -99999.99 -99999.99
12/18/2020 9:45:00 AM -99999.99 -179968 -99999.99 -99999.99 -99999.99 -99999.99
12/18/2020 10:00:00 AM -99999.99 -179968 -99999.99 -99999.99 -99999.99 -99999.99
12/18/2020 10:15:00 AM -99999.99 -179968 -99999.99 -99999.99 -99999.99 -99999.99
12/18/2020 10:30:00 AM -99999.99 -179968 -99999.99 -99999.99 -99999.99 -99999.99
12/18/2020 10:45:00 AM -99999.99 -179968 -99999.99 -99999.99 -99999.99 -99999.99
12/18/2020 11:00:00 AM -99999.99 -179968 -99999.99 -99999.99 -99999.99 -99999.99
12/18/2020 11:15:00 AM -99999.99 -179968 -99999.99 -99999.99 -99999.99 -99999.99
12/18/2020 11:30:00 AM -99999.99 -179968 -99999.99 -99999.99 -99999.99 -99999.99
12/18/2020 11:45:00 AM -99999.99 -179968 -99999.99 -99999.99 -99999.99 -99999.99
12/18/2020 12:00:00 PM -99999.99 -179968 -99999.99 -99999.99 -99999.99 -99999.99
12/18/2020 12:15:00 PM -99999.99 -179968 -99999.99 -99999.99 -99999.99 -99999.99
12/18/2020 12:30:00 PM -99999.99 -179968 -99999.99 -99999.99 -99999.99 -99999.99
12/18/2020 12:45:00 PM -99999.99 -179968 -99999.99 -99999.99 -99999.99 -99999.99
12/18/2020 1:00:00 PM -99999.99 -179968 -99999.99 -99999.99 -99999.99 -99999.99
12/21/2020 10:00:00 AM 0.17 32.306 0.076 6.97 1.88 14.42
12/21/2020 10:15:00 AM -99999.99 -179968 -99999.99 -99999.99 -99999.99 -99999.99
12/21/2020 10:30:00 AM 0.2 32.36 0.076 6.8 1.83 14.49
12/21/2020 10:45:00 AM 0.21 32.378 0.076 6.79 2 14.52
12/21/2020 11:00:00 AM 0.22 32.396 0.076 6.79 1.62 14.54
12/21/2020 11:15:00 AM 0.25 32.45 0.076 6.79 1.76 14.54
12/21/2020 11:30:00 AM 0.27 32.486 0.075 6.77 1.56 14.53
12/21/2020 11:45:00 AM 0.25 32.45 0.075 6.78 1.68 14.55
12/21/2020 12:00:00 PM 0.27 32.486 0.075 6.8 1.68 14.58
12/21/2020 12:15:00 PM 0.17 32.306 0.075 6.85 1.62 14.7
12/21/2020 12:30:00 PM 0.24 32.432 0.075 6.84 1.64 14.65
12/21/2020 12:45:00 PM 0.23 32.414 0.075 6.75 1.81 14.64
12/21/2020 1:00:00 PM 0.15 32.27 0.075 6.89 1.93 14.71
12/21/2020 1:15:00 PM 0.13 32.234 0.075 6.9 1.88 14.73
12/21/2020 1:30:00 PM 0.14 32.252 0.075 6.91 1.92 14.74
12/21/2020 1:45:00 PM 0.12 32.216 0.075 6.93 1.92 14.75
12/21/2020 2:00:00 PM 0.11 32.198 0.075 6.92 1.86 14.75
12/21/2020 2:15:00 PM 0.11 32.198 0.074 6.95 1.96 14.75
12/21/2020 2:30:00 PM 0.1 32.18 0.074 6.79 1.81 14.73
12/21/2020 2:45:00 PM 0.1 32.18 0.074 6.97 1.76 14.72
12/21/2020 3:00:00 PM 0.11 32.198 0.074 6.86 1.74 14.72
12/21/2020 3:15:00 PM 0.1 32.18 0.074 6.97 1.75 14.71
12/21/2020 3:30:00 PM 0.13 32.234 0.074 6.92 1.69 14.62
12/21/2020 3:45:00 PM 0.09 32.162 0.074 6.93 1.71 14.61
12/21/2020 4:00:00 PM 0.09 32.162 0.074 6.93 1.74 14.59
12/21/2020 4:15:00 PM 0.08 32.144 0.074 6.86 1.7 14.53
12/21/2020 4:30:00 PM 0.07 32.126 0.074 6.79 1.74 14.47
12/21/2020 4:45:00 PM 0.07 32.126 0.074 6.91 1.71 14.4
12/21/2020 5:00:00 PM 0.05 32.09 0.074 6.8 1.79 14.35
12/21/2020 5:15:00 PM 0.06 32.108 0.074 6.89 1.76 14.29
12/21/2020 5:30:00 PM 0.06 32.108 0.074 6.88 1.73 14.25
12/21/2020 5:45:00 PM 0.07 32.126 0.074 6.86 1.77 14.22
12/21/2020 6:00:00 PM 0.07 32.126 0.074 6.84 1.7 14.18
12/21/2020 6:15:00 PM 0.06 32.108 0.074 6.69 1.7 14.17
12/21/2020 6:30:00 PM 0.07 32.126 0.074 6.85 1.79 14.15
12/21/2020 6:45:00 PM 0.08 32.144 0.074 6.82 1.86 14.11
12/21/2020 7:00:00 PM 0.08 32.144 0.074 6.82 1.67 14.12
12/21/2020 7:15:00 PM 0.06 32.108 0.074 6.82 1.62 14.11
12/21/2020 7:30:00 PM 0.07 32.126 0.075 6.82 1.71 14.09
12/21/2020 7:45:00 PM 0.06 32.108 0.075 6.81 1.66 14.09
12/21/2020 8:00:00 PM 0.07 32.126 0.075 6.67 1.75 14.08
12/21/2020 8:15:00 PM 0.06 32.108 0.075 6.82 1.77 14.07
12/21/2020 8:30:00 PM 0.06 32.108 0.075 6.81 1.66 14.06
12/21/2020 8:45:00 PM 0.06 32.108 0.075 6.81 1.67 14.06
12/21/2020 9:00:00 PM 0.06 32.108 0.075 6.8 1.71 14.06
12/21/2020 9:15:00 PM 0.06 32.108 0.075 6.79 1.74 14.05
12/21/2020 9:30:00 PM 0.06 32.108 0.075 6.8 1.64 14.04
12/21/2020 9:45:00 PM 0.06 32.108 0.075 6.79 1.79 14.04
12/21/2020 10:00:00 PM 0.06 32.108 0.075 6.79 1.86 14.04
12/21/2020 10:15:00 PM 0.06 32.108 0.076 6.79 1.72 14.04
12/21/2020 10:30:00 PM 0.08 32.144 0.076 6.7 1.69 14.03
12/21/2020 10:45:00 PM 0.07 32.126 0.076 6.8 1.66 14.03
12/21/2020 11:00:00 PM 0.07 32.126 0.076 6.78 1.82 14.03
12/21/2020 11:15:00 PM 0.07 32.126 0.076 6.78 1.66 14.02
12/21/2020 11:30:00 PM 0.06 32.108 0.076 6.7 1.67 14.03
12/21/2020 11:45:00 PM 0.06 32.108 0.076 6.68 1.96 14.03
12/22/2020 12:00:00 AM 0.06 32.108 0.076 6.79 1.71 14.02
12/22/2020 12:15:00 AM 0.06 32.108 0.076 6.66 1.78 14.02
12/22/2020 12:30:00 AM 0.07 32.126 0.076 6.8 3.08 14.02
12/22/2020 12:45:00 AM 0.08 32.144 0.076 6.77 2.09 14
12/22/2020 1:00:00 AM 0.12 32.216 0.076 6.77 2.3 13.96
12/22/2020 1:15:00 AM 0.11 32.198 0.077 6.77 2.43 13.97
12/22/2020 1:30:00 AM 0.11 32.198 0.077 6.77 2.94 13.97
12/22/2020 1:45:00 AM 0.11 32.198 0.077 6.76 2.38 13.96
12/22/2020 2:00:00 AM 0.12 32.216 0.077 6.76 2.48 13.95
12/22/2020 2:15:00 AM 0.12 32.216 0.077 6.66 2.36 13.95
12/22/2020 2:30:00 AM 0.08 32.144 0.077 6.77 2.2 13.97
12/22/2020 2:45:00 AM 0.08 32.144 0.077 6.77 2.02 13.98
12/22/2020 3:00:00 AM 0.11 32.198 0.077 6.71 1.98 13.97
12/22/2020 3:15:00 AM 0.13 32.234 0.077 6.7 1.91 13.96
12/22/2020 3:30:00 AM 0.07 32.126 0.077 6.65 1.89 13.99
12/22/2020 3:45:00 AM 0.08 32.144 0.077 6.78 1.83 13.99
12/22/2020 4:00:00 AM 0.06 32.108 0.077 6.62 1.82 13.99
12/22/2020 4:15:00 AM 0.04 32.072 0.077 6.79 1.74 14
12/22/2020 4:30:00 AM 0.04 32.072 0.077 6.77 1.81 14
12/22/2020 4:45:00 AM 0.05 32.09 0.077 6.78 1.69 14.01
12/22/2020 5:00:00 AM 0.09 32.162 0.077 6.6 1.77 13.99
12/22/2020 5:15:00 AM 0.1 32.18 0.077 6.78 1.83 13.97
12/22/2020 5:30:00 AM 0.1 32.18 0.077 6.76 1.64 13.97
12/22/2020 5:45:00 AM 0.08 32.144 0.077 6.76 1.68 14
12/22/2020 6:00:00 AM 0.07 32.126 0.077 6.78 1.68 14.01
12/22/2020 6:15:00 AM 0.06 32.108 0.077 6.78 1.66 14
12/22/2020 6:30:00 AM 0.05 32.09 0.077 6.77 1.73 14.02
12/22/2020 6:45:00 AM 0.06 32.108 0.077 6.77 1.72 14.02
12/22/2020 7:00:00 AM 0.06 32.108 0.077 6.62 1.67 14.02
12/22/2020 7:15:00 AM 0.06 32.108 0.077 6.79 1.65 14.02
12/22/2020 7:30:00 AM 0.07 32.126 0.077 6.65 1.79 14.02
12/22/2020 7:45:00 AM 0.07 32.126 0.077 6.71 1.7 14.03
12/22/2020 8:00:00 AM 0.08 32.144 0.077 6.75 1.66 14.05
12/22/2020 8:15:00 AM 0.07 32.126 0.077 6.8 1.67 14.06
12/22/2020 8:30:00 AM 0.08 32.144 0.077 6.65 1.7 14.09
12/22/2020 8:45:00 AM 0.08 32.144 0.077 6.82 1.69 14.14
12/22/2020 9:00:00 AM 0.09 32.162 0.077 6.8 1.9 14.18
12/22/2020 9:15:00 AM 0.1 32.18 0.077 6.81 1.94 14.17
12/22/2020 9:30:00 AM 0.16 32.288 0.077 6.77 1.64 14.13
12/22/2020 9:45:00 AM 0.17 32.306 0.077 6.79 1.62 14.2
12/22/2020 10:00:00 AM 0.16 32.288 0.077 6.79 1.88 14.23
12/22/2020 10:15:00 AM 0.16 32.288 0.077 6.8 1.88 14.26
12/22/2020 10:30:00 AM 0.18 32.324 0.077 6.72 2.43 14.3
12/22/2020 10:45:00 AM 0.12 32.216 0.077 6.84 1.65 14.39
12/22/2020 11:00:00 AM 0.21 32.378 0.077 6.82 1.57 14.4
12/22/2020 11:15:00 AM 0.19 32.342 0.076 6.85 1.96 14.47
12/22/2020 11:30:00 AM 0.22 32.396 0.076 6.86 1.72 14.47
12/22/2020 11:45:00 AM 0.25 32.45 0.076 6.85 1.59 14.47
12/22/2020 12:00:00 PM 0.23 32.414 0.076 6.85 1.71 14.5
12/22/2020 12:15:00 PM 0.21 32.378 0.076 6.88 1.63 14.56
12/22/2020 12:30:00 PM 0.21 32.378 0.076 6.89 1.65 14.58
12/22/2020 12:45:00 PM 0.22 32.396 0.076 6.89 1.67 14.55
12/22/2020 1:00:00 PM 0.21 32.378 0.076 6.75 1.96 14.56
12/22/2020 1:15:00 PM 0.15 32.27 0.076 6.94 1.81 14.63
12/22/2020 1:30:00 PM 0.17 32.306 0.076 6.86 1.68 14.56
12/22/2020 1:45:00 PM 0.18 32.324 0.076 6.76 1.84 14.52
12/22/2020 2:00:00 PM 0.18 32.324 0.075 6.93 1.66 14.53
12/22/2020 2:15:00 PM 0.13 32.234 0.075 6.93 1.85 14.54
12/22/2020 2:30:00 PM 0.13 32.234 0.075 6.93 1.75 14.52
12/22/2020 2:45:00 PM 0.14 32.252 0.075 6.93 1.76 14.56
12/22/2020 3:00:00 PM 0.15 32.27 0.075 6.93 2.13 14.49
12/22/2020 3:15:00 PM 0.14 32.252 0.075 6.92 1.64 14.47
12/22/2020 3:30:00 PM 0.13 32.234 0.075 6.93 2.01 14.47
12/22/2020 3:45:00 PM 0.11 32.198 0.075 6.93 1.81 14.46
12/22/2020 4:00:00 PM 0.12 32.216 0.075 6.84 2.38 14.4
12/22/2020 4:15:00 PM 0.12 32.216 0.075 6.92 1.81 14.34
12/22/2020 4:30:00 PM 0.1 32.18 0.075 6.91 1.79 14.3
12/22/2020 4:45:00 PM 0.11 32.198 0.076 6.79 1.93 14.25
12/22/2020 5:00:00 PM 0.13 32.234 0.076 6.88 1.97 14.21
12/22/2020 5:15:00 PM 0.13 32.234 0.076 6.71 2.07 14.17
12/22/2020 5:30:00 PM 0.13 32.234 0.076 6.75 1.94 14.14
12/22/2020 5:45:00 PM 0.19 32.342 0.076 6.84 2.02 14.09
12/22/2020 6:00:00 PM 0.21 32.378 0.076 6.81 2 14.04
12/22/2020 6:15:00 PM 0.11 32.198 0.076 6.68 1.89 14.12
12/22/2020 6:30:00 PM 0.21 32.378 0.076 6.81 1.88 14.03
12/22/2020 6:45:00 PM 0.19 32.342 0.076 6.76 2 14.05
12/22/2020 7:00:00 PM 0.19 32.342 0.076 6.79 1.99 14.06
12/22/2020 7:15:00 PM 0.13 32.234 0.076 6.82 2.26 14.08
12/22/2020 7:30:00 PM 0.13 32.234 0.076 6.82 2.33 14.1
12/22/2020 7:45:00 PM 0.13 32.234 0.076 6.82 2.18 14.09
12/22/2020 8:00:00 PM 0.11 32.198 0.076 6.82 2.32 14.1
12/22/2020 8:15:00 PM 0.1 32.18 0.077 6.83 2.21 14.12
12/22/2020 8:30:00 PM 0.12 32.216 0.077 6.82 2.33 14.1
12/22/2020 8:45:00 PM 0.12 32.216 0.077 6.81 2.09 14.1
12/22/2020 9:00:00 PM 0.14 32.252 0.077 6.81 1.88 14.08
12/22/2020 9:15:00 PM 0.15 32.27 0.077 6.77 2.26 14.07
12/22/2020 9:30:00 PM 0.14 32.252 0.077 6.8 2.31 14.07
12/22/2020 9:45:00 PM 0.17 32.306 0.077 6.8 2.26 14.09
12/22/2020 10:00:00 PM 0.19 32.342 0.077 6.79 1.86 14.06
12/22/2020 10:15:00 PM 0.18 32.324 0.077 6.78 1.88 14.05
12/22/2020 10:30:00 PM 0.2 32.36 0.077 6.76 1.79 14.04
12/22/2020 10:45:00 PM 0.21 32.378 0.077 6.78 2.18 14.04
12/22/2020 11:00:00 PM 0.19 32.342 0.077 6.78 2.11 14.04
12/22/2020 11:15:00 PM 0.19 32.342 0.077 6.78 2.12 14.03
12/22/2020 11:30:00 PM 0.24 32.432 0.077 6.68 2.3 14.03
12/22/2020 11:45:00 PM 0.22 32.396 0.077 6.65 2.01 14.01
12/23/2020 12:00:00 AM 0.24 32.432 0.077 6.78 2.15 14
12/23/2020 12:15:00 AM 0.25 32.45 0.077 6.77 2.08 13.98
12/23/2020 12:30:00 AM 0.25 32.45 0.077 6.75 2.35 13.97
12/23/2020 12:45:00 AM 0.27 32.486 0.077 6.75 2.07 13.98
12/23/2020 1:00:00 AM 0.27 32.486 0.077 6.73 2.21 13.99
12/23/2020 1:15:00 AM 0.26 32.468 0.077 6.76 2.24 13.99
12/23/2020 1:30:00 AM 0.26 32.468 0.078 6.75 2.43 13.97
12/23/2020 1:45:00 AM 0.22 32.396 0.078 6.76 2.22 14
12/23/2020 2:00:00 AM 0.24 32.432 0.078 6.75 2.12 14
12/23/2020 2:15:00 AM 0.25 32.45 0.078 6.75 2.54 13.98
12/23/2020 2:30:00 AM 0.24 32.432 0.078 6.59 2.16 13.99
12/23/2020 2:45:00 AM 0.23 32.414 0.078 6.78 2.42 14.01
12/23/2020 3:00:00 AM 0.23 32.414 0.078 6.76 2.2 14
12/23/2020 3:15:00 AM 0.24 32.432 0.078 6.75 2.98 14
12/23/2020 3:30:00 AM 0.26 32.468 0.078 6.75 2.15 13.98
12/23/2020 3:45:00 AM 0.26 32.468 0.078 6.75 2.43 14
12/23/2020 4:00:00 AM 0.28 32.504 0.078 6.59 2.49 14
12/23/2020 4:15:00 AM 0.28 32.504 0.078 6.77 2.1 14.01
12/23/2020 4:30:00 AM 0.29 32.522 0.078 6.58 2.51 13.98
12/23/2020 4:45:00 AM 0.3 32.54 0.078 6.78 2.15 14
12/23/2020 5:00:00 AM 0.31 32.558 0.078 6.77 1.96 13.99
12/23/2020 5:15:00 AM 0.33 32.594 0.078 6.63 2.16 13.98
12/23/2020 5:30:00 AM 0.32 32.576 0.078 6.77 2.07 13.99
12/23/2020 5:45:00 AM 0.36 32.648 0.078 6.75 2.13 13.98
12/23/2020 6:00:00 AM 0.38 32.684 0.078 6.71 2.31 13.98
12/23/2020 6:15:00 AM 0.35 32.63 0.078 6.76 2.09 14
12/23/2020 6:30:00 AM 0.34 32.612 0.078 6.75 2.28 13.99
12/23/2020 6:45:00 AM 0.3 32.54 0.078 6.58 2.06 14.02
12/23/2020 7:00:00 AM 0.35 32.63 0.078 6.76 1.85 13.99
12/23/2020 7:15:00 AM 0.29 32.522 0.078 6.76 2.35 14.03
12/23/2020 7:30:00 AM 0.31 32.558 0.078 6.75 2.1 14.04
12/23/2020 7:45:00 AM 0.3 32.54 0.078 6.75 1.95 14.05
12/23/2020 8:00:00 AM 0.19 32.342 0.079 6.79 2.16 14.21
12/23/2020 8:15:00 AM 0.35 32.63 0.078 6.74 2.22 14.14
12/23/2020 8:30:00 AM 0.3 32.54 0.078 6.76 2.34 14.24
12/23/2020 8:45:00 AM 0.27 32.486 0.078 6.79 2.8 14.36
12/23/2020 9:00:00 AM 0.35 32.63 0.078 6.78 1.9 14.39
12/23/2020 9:15:00 AM 0.26 32.468 0.078 6.84 2.27 14.56
12/23/2020 9:30:00 AM 0.38 32.684 0.078 6.82 2.1 14.54
12/23/2020 9:45:00 AM 0.44 32.792 0.078 6.75 2.13 14.57
12/23/2020 10:00:00 AM 0.41 32.738 0.078 6.87 1.96 14.66
12/23/2020 10:15:00 AM 0.43 32.774 0.078 6.88 2.22 14.72
12/23/2020 10:30:00 AM 0.5 32.9 0.077 6.89 2.19 14.69
12/23/2020 10:45:00 AM 0.54 32.972 0.077 6.87 2.4 14.68
12/23/2020 11:00:00 AM 0.58 33.044 0.077 6.9 1.98 14.69
12/23/2020 11:15:00 AM 0.65 33.17 0.077 6.75 2.05 14.66
12/23/2020 11:30:00 AM 0.69 33.242 0.077 6.93 2.23 14.66
12/23/2020 11:45:00 AM 0.71 33.278 0.077 6.93 2.1 14.66
12/23/2020 12:00:00 PM 0.77 33.386 0.077 6.92 2.32 14.62
12/23/2020 12:15:00 PM 0.8 33.44 0.077 6.94 2.25 14.62
12/23/2020 12:30:00 PM 0.87 33.566 0.077 6.94 2.11 14.58
12/23/2020 12:45:00 PM 0.92 33.656 0.076 6.94 2.13 14.57
12/23/2020 1:00:00 PM 1.02 33.836 0.076 6.9 2.13 14.52
12/23/2020 1:15:00 PM 1.04 33.872 0.076 6.98 2.15 14.52
12/23/2020 1:30:00 PM 1.14 34.052 0.076 6.95 1.78 14.44
12/23/2020 1:45:00 PM 1.14 34.052 0.076 6.98 2.34 14.47
12/23/2020 2:00:00 PM 1.26 34.268 0.076 6.96 1.97 14.41
12/23/2020 2:15:00 PM 1.37 34.466 0.076 6.96 1.9 14.35
12/23/2020 2:30:00 PM 1.44 34.592 0.076 6.96 2.08 14.33
12/23/2020 2:45:00 PM 1.47 34.646 0.076 6.96 2 14.28
12/23/2020 3:00:00 PM 1.54 34.772 0.076 6.97 1.74 14.24
12/23/2020 3:15:00 PM 1.6 34.88 0.076 6.97 1.75 14.23
12/23/2020 3:30:00 PM 1.6 34.88 0.076 6.81 1.84 14.21
12/23/2020 3:45:00 PM 1.58 34.844 0.076 7 2.1 14.15
12/23/2020 4:00:00 PM 1.67 35.006 0.076 6.97 1.88 14.08
12/23/2020 4:15:00 PM 1.71 35.078 0.076 6.96 1.78 13.98
12/23/2020 4:30:00 PM 1.48 34.664 0.076 6.92 2.47 13.99
12/23/2020 4:45:00 PM 1.46 34.628 0.076 6.94 2.87 13.88
12/23/2020 5:00:00 PM 1.41 34.538 0.076 6.93 2.32 13.87
12/23/2020 5:15:00 PM 1.39 34.502 0.076 6.92 2.46 13.83
12/23/2020 5:30:00 PM 1.41 34.538 0.077 6.91 2.45 13.81
12/23/2020 5:45:00 PM 1.41 34.538 0.077 6.91 2.46 13.79
12/23/2020 6:00:00 PM 1.41 34.538 0.077 6.9 2.59 13.78
12/23/2020 6:15:00 PM 1.38 34.484 0.077 6.88 2.44 13.79
12/23/2020 6:30:00 PM 1.38 34.484 0.077 6.88 2.28 13.78
12/23/2020 6:45:00 PM 1.38 34.484 0.077 6.79 2.13 13.78
12/23/2020 7:00:00 PM 1.38 34.484 0.077 6.88 2.04 13.79
12/23/2020 7:15:00 PM 1.35 34.43 0.077 6.86 2.37 13.81
12/23/2020 7:30:00 PM 1.32 34.376 0.077 6.86 1.98 13.83
12/23/2020 7:45:00 PM 1.29 34.322 0.076 6.85 2.06 13.84
12/23/2020 8:00:00 PM 1.27 34.286 0.076 6.85 2.17 13.84
12/23/2020 8:15:00 PM 1.25 34.25 0.076 6.84 2.23 13.86
12/23/2020 8:30:00 PM 1.24 34.232 0.076 6.85 2.33 13.87
12/23/2020 8:45:00 PM 1.21 34.178 0.075 6.85 2.71 13.87
12/23/2020 9:00:00 PM 1.19 34.142 0.075 6.84 2.66 13.89
12/23/2020 9:15:00 PM 1.18 34.124 0.075 6.85 2.55 13.9
12/23/2020 9:30:00 PM 1.19 34.142 0.075 6.84 2.56 13.9
12/23/2020 9:45:00 PM 1.17 34.106 0.075 6.83 2.4 13.9
12/23/2020 10:00:00 PM 1.17 34.106 0.075 6.83 2.28 13.89
12/23/2020 10:15:00 PM 1.18 34.124 0.075 6.83 2.21 13.9
12/23/2020 10:30:00 PM 1.18 34.124 0.075 6.83 2.19 13.9
12/23/2020 10:45:00 PM 1.17 34.106 0.076 6.82 2.12 13.9
12/23/2020 11:00:00 PM 1.16 34.088 0.076 6.84 2.06 13.91
12/23/2020 11:15:00 PM 1.2 34.16 0.076 6.83 1.91 13.9
12/23/2020 11:30:00 PM 1.2 34.16 0.076 6.82 2.02 13.9
12/23/2020 11:45:00 PM 1.21 34.178 0.076 6.84 1.96 13.9
12/24/2020 12:00:00 AM 1.25 34.25 0.076 6.83 2.06 13.87
12/24/2020 12:15:00 AM 1.31 34.358 0.076 6.82 1.83 13.82
12/24/2020 12:30:00 AM 1.29 34.322 0.076 6.83 1.85 13.86
12/24/2020 12:45:00 AM 1.33 34.394 0.076 6.82 1.81 13.81
12/24/2020 1:00:00 AM 1.36 34.448 0.076 6.81 1.89 13.79
12/24/2020 1:15:00 AM 1.35 34.43 0.076 6.64 1.78 13.78
12/24/2020 1:30:00 AM 1.41 34.538 0.076 6.83 1.87 13.77
12/24/2020 1:45:00 AM 1.39 34.502 0.076 6.81 1.84 13.75
12/24/2020 2:00:00 AM 1.42 34.556 0.076 6.81 1.88 13.76
12/24/2020 2:15:00 AM 1.43 34.574 0.076 6.81 1.8 13.75
12/24/2020 2:30:00 AM 1.42 34.556 0.076 6.81 1.74 13.74
12/24/2020 2:45:00 AM 1.45 34.61 0.076 6.78 1.69 13.74
12/24/2020 3:00:00 AM 1.43 34.574 0.076 6.81 1.76 13.74
12/24/2020 3:15:00 AM 1.48 34.664 0.076 6.81 1.8 13.73
12/24/2020 3:30:00 AM 1.48 34.664 0.076 6.81 1.76 13.73
12/24/2020 3:45:00 AM 1.53 34.754 0.076 6.8 1.74 13.7
12/24/2020 4:00:00 AM 1.55 34.79 0.076 6.77 1.78 13.7
12/24/2020 4:15:00 AM 1.59 34.862 0.076 6.8 1.69 13.67
12/24/2020 4:30:00 AM 1.61 34.898 0.076 6.8 1.68 13.68
12/24/2020 4:45:00 AM 1.64 34.952 0.076 6.77 1.7 13.66
12/24/2020 5:00:00 AM 1.67 35.006 0.076 6.8 1.84 13.64
12/24/2020 5:15:00 AM 1.69 35.042 0.076 6.81 1.7 13.63
12/24/2020 5:30:00 AM 1.72 35.096 0.076 6.8 1.65 13.62
12/24/2020 5:45:00 AM 1.7 35.06 0.076 6.82 1.66 13.66
12/24/2020 6:00:00 AM 1.72 35.096 0.076 6.82 1.6 13.64
12/24/2020 6:15:00 AM 1.74 35.132 0.076 6.82 1.62 13.63
12/24/2020 6:30:00 AM 1.77 35.186 0.076 6.81 1.68 13.62
12/24/2020 6:45:00 AM 1.8 35.24 0.076 6.82 1.95 13.61
12/24/2020 7:00:00 AM 1.83 35.294 0.076 6.68 1.62 13.58
12/24/2020 7:15:00 AM 1.87 35.366 0.076 6.82 1.62 13.57
12/24/2020 7:30:00 AM 1.88 35.384 0.077 6.81 1.86 13.56
12/24/2020 7:45:00 AM 1.92 35.456 0.077 6.81 1.56 13.55
12/24/2020 8:00:00 AM 1.97 35.546 0.077 6.81 1.55 13.55
12/24/2020 8:15:00 AM 2 35.6 0.077 6.81 1.59 13.53
12/24/2020 8:30:00 AM 2.02 35.636 0.077 6.82 1.62 13.55
12/24/2020 8:45:00 AM 2.08 35.744 0.077 6.82 1.61 13.54
12/24/2020 9:00:00 AM 2.11 35.798 0.077 6.82 1.57 13.55
12/24/2020 9:15:00 AM 2.11 35.798 0.077 6.83 1.67 13.58
12/24/2020 9:30:00 AM 2.15 35.87 0.076 6.83 1.61 13.58
12/24/2020 9:45:00 AM 2.18 35.924 0.076 6.84 1.59 13.6
12/24/2020 10:00:00 AM 2.19 35.942 0.076 6.86 1.71 13.67
12/24/2020 10:15:00 AM 2.27 36.086 0.076 6.86 1.61 13.71
12/24/2020 10:30:00 AM 2.31 36.158 0.076 6.87 1.79 13.72
12/24/2020 10:45:00 AM 2.38 36.284 0.076 6.89 1.57 13.76
12/24/2020 11:00:00 AM 2.43 36.374 0.076 6.89 1.57 13.78
12/24/2020 11:15:00 AM 2.48 36.464 0.075 6.91 1.52 13.83
12/24/2020 11:30:00 AM 2.57 36.626 0.075 6.91 1.66 13.83
12/24/2020 11:45:00 AM 2.65 36.77 0.075 6.84 1.64 13.83
12/24/2020 12:00:00 PM 2.67 36.806 0.075 6.97 1.73 13.86
12/24/2020 12:15:00 PM 2.8 37.04 0.075 6.96 1.64 13.83
12/24/2020 12:30:00 PM 2.86 37.148 0.075 6.98 1.78 13.82
12/24/2020 12:45:00 PM 2.91 37.238 0.075 7.01 2.67 13.81
12/24/2020 1:00:00 PM 2.98 37.364 0.075 7 3.47 13.79
12/24/2020 1:15:00 PM 3.03 37.454 0.074 7.02 3.47 13.75
12/24/2020 1:30:00 PM 3.06 37.508 0.074 7.02 4.89 13.71
12/24/2020 1:45:00 PM 3.13 37.634 0.074 7.02 6.38 13.66
12/24/2020 2:00:00 PM 3.15 37.67 0.074 6.86 5.51 13.61
12/24/2020 2:15:00 PM 3.11 37.598 0.074 7.03 5.55 13.59
12/24/2020 2:30:00 PM 3.1 37.58 0.073 7.03 5.7 13.54
12/24/2020 2:45:00 PM 3.07 37.526 0.073 7.01 5.01 13.49
12/24/2020 3:00:00 PM 3.04 37.472 0.073 7 6.28 13.44
12/24/2020 3:15:00 PM 2.95 37.31 0.073 6.97 8.23 13.41
12/24/2020 3:30:00 PM 2.87 37.166 0.073 6.96 10.18 13.38
12/24/2020 3:45:00 PM 2.79 37.022 0.073 6.95 11.2 13.36
12/24/2020 4:00:00 PM 2.67 36.806 0.073 6.93 12.31 13.34
12/24/2020 4:15:00 PM 2.56 36.608 0.073 6.9 17.19 13.34
12/24/2020 4:30:00 PM 2.47 36.446 0.073 6.88 16.32 13.36
12/24/2020 4:45:00 PM 2.34 36.212 0.072 6.84 26.83 13.38
12/24/2020 5:00:00 PM 2.22 35.996 0.072 6.84 35.73 13.43
12/24/2020 5:15:00 PM 2.08 35.744 0.071 6.65 39.31 13.48
12/24/2020 5:30:00 PM 1.95 35.51 0.07 6.82 63.66 13.52
12/24/2020 5:45:00 PM 1.81 35.258 0.069 6.79 68.72 13.57
12/24/2020 6:00:00 PM 1.66 34.988 0.068 6.77 105.05 13.62
12/24/2020 6:15:00 PM 1.51 34.718 0.066 6.76 97.05 13.68
12/24/2020 6:30:00 PM 1.41 34.538 0.064 6.71 127.12 13.72
12/24/2020 6:45:00 PM 1.35 34.43 0.062 6.7 141.04 13.77
12/24/2020 7:00:00 PM 1.3 34.34 0.061 6.68 154.38 13.8
12/24/2020 7:15:00 PM 1.24 34.232 0.06 6.66 192.95 13.83
12/24/2020 7:30:00 PM 1.19 34.142 0.059 6.62 222.78 13.85
12/24/2020 7:45:00 PM 1.23 34.214 0.057 6.6 213.22 13.86
12/24/2020 8:00:00 PM 1.25 34.25 0.056 6.59 591.32 13.89
12/24/2020 8:15:00 PM 1.28 34.304 0.055 6.55 253.79 13.88
12/24/2020 8:30:00 PM 1.33 34.394 0.054 6.54 241.32 13.87
12/24/2020 8:45:00 PM 1.36 34.448 0.035 6.37 570.41 13.86
12/24/2020 9:00:00 PM 1.37 34.466 0.031 6.52 300.1 13.84
12/24/2020 9:15:00 PM 1.41 34.538 0.028 6.5 323.34 13.82
12/24/2020 9:30:00 PM 1.44 34.592 0.026 6.49 334.71 13.81
12/24/2020 9:45:00 PM 1.46 34.628 0.025 6.47 408.45 13.81
12/24/2020 10:00:00 PM 1.48 34.664 0.023 6.46 366.78 13.81
12/24/2020 10:15:00 PM 1.53 34.754 0.023 6.43 396.22 13.8
12/24/2020 10:30:00 PM 1.59 34.862 0.029 6.22 482.18 13.79
12/24/2020 10:45:00 PM 1.64 34.952 0.028 6.45 413.36 13.77
12/24/2020 11:00:00 PM 1.72 35.096 0.046 6.13 412.47 13.74
12/24/2020 11:15:00 PM 1.78 35.204 0.046 6.34 424.98 13.71
12/24/2020 11:30:00 PM 1.83 35.294 0.034 6.33 276.72 13.68
12/24/2020 11:45:00 PM 1.85 35.33 0.032 6.35 351.69 13.65
12/25/2020 12:00:00 AM 1.89 35.402 0.027 6.15 481.68 13.63
12/25/2020 12:15:00 AM 1.94 35.492 0.043 6.29 546 13.61
12/25/2020 12:30:00 AM 2.01 35.618 0.042 6.27 475.55 13.57
12/25/2020 12:45:00 AM 2.09 35.762 0.042 6.15 460.59 13.53
12/25/2020 1:00:00 AM 2.17 35.906 0.042 6.23 429.62 13.5
12/25/2020 1:15:00 AM 2.23 36.014 0.042 6.21 390.27 13.46
12/25/2020 1:30:00 AM 2.3 36.14 0.041 6.21 386.38 13.44
12/25/2020 1:45:00 AM 2.38 36.284 0.041 6.2 324.13 13.41
12/25/2020 2:00:00 AM 2.49 36.482 0.041 6.2 306.6 13.37
12/25/2020 2:15:00 AM 2.6 36.68 0.04 6.05 6.86 13.33
12/25/2020 2:30:00 AM 2.7 36.86 0.035 6.07 29.94 13.29
12/25/2020 2:45:00 AM 2.8 37.04 0.035 6.08 39.05 13.26
12/25/2020 3:00:00 AM 2.91 37.238 0.037 6.2 65.17 13.22
12/25/2020 3:15:00 AM 3.05 37.49 0.034 6.22 63.05 13.18
12/25/2020 3:30:00 AM 3.13 37.634 0.035 6.18 75.79 13.14
12/25/2020 3:45:00 AM 3.23 37.814 0.033 6.22 64.24 13.11
12/25/2020 4:00:00 AM 3.34 38.012 0.033 6.22 109.02 13.08
12/25/2020 4:15:00 AM 3.41 38.138 0.032 6.21 128.96 13.05
12/25/2020 4:30:00 AM 3.45 38.21 0.03 6.2 138.92 13.03
12/25/2020 4:45:00 AM -99999.99 -179968 -99999.99 -99999.99 -99999.99 -99999.99
12/25/2020 5:00:00 AM -99999.99 -179968 -99999.99 -99999.99 -99999.99 -99999.99
12/25/2020 5:15:00 AM -99999.99 -179968 -99999.99 -99999.99 -99999.99 -99999.99
12/25/2020 5:30:00 AM -99999.99 -179968 -99999.99 -99999.99 -99999.99 -99999.99
12/25/2020 5:45:00 AM -99999.99 -179968 -99999.99 -99999.99 -99999.99 -99999.99
12/25/2020 6:00:00 AM -99999.99 -179968 -99999.99 -99999.99 -99999.99 -99999.99
12/25/2020 6:15:00 AM -99999.99 -179968 -99999.99 -99999.99 -99999.99 -99999.99
12/25/2020 6:30:00 AM -99999.99 -179968 -99999.99 -99999.99 -99999.99 -99999.99
12/25/2020 6:45:00 AM -99999.99 -179968 -99999.99 -99999.99 -99999.99 -99999.99
12/25/2020 7:00:00 AM -99999.99 -179968 -99999.99 -99999.99 -99999.99 -99999.99
12/25/2020 7:15:00 AM -99999.99 -179968 -99999.99 -99999.99 -99999.99 -99999.99
12/25/2020 7:30:00 AM -99999.99 -179968 -99999.99 -99999.99 -99999.99 -99999.99
12/25/2020 7:45:00 AM -99999.99 -179968 -99999.99 -99999.99 -99999.99 -99999.99
12/25/2020 8:00:00 AM -99999.99 -179968 -99999.99 -99999.99 -99999.99 -99999.99
12/25/2020 8:15:00 AM -99999.99 -179968 -99999.99 -99999.99 -99999.99 -99999.99
12/25/2020 8:30:00 AM -99999.99 -179968 -99999.99 -99999.99 -99999.99 -99999.99
12/25/2020 8:45:00 AM -99999.99 -179968 -99999.99 -99999.99 -99999.99 -99999.99
12/25/2020 9:00:00 AM -99999.99 -179968 -99999.99 -99999.99 -99999.99 -99999.99
12/25/2020 9:15:00 AM -99999.99 -179968 -99999.99 -99999.99 -99999.99 -99999.99
12/25/2020 9:30:00 AM -99999.99 -179968 -99999.99 -99999.99 -99999.99 -99999.99
12/25/2020 9:45:00 AM -99999.99 -179968 -99999.99 -99999.99 -99999.99 -99999.99
12/25/2020 10:00:00 AM -99999.99 -179968 -99999.99 -99999.99 -99999.99 -99999.99
12/25/2020 10:15:00 AM -99999.99 -179968 -99999.99 -99999.99 -99999.99 -99999.99
12/25/2020 10:30:00 AM -99999.99 -179968 -99999.99 -99999.99 -99999.99 -99999.99
12/25/2020 10:45:00 AM -99999.99 -179968 -99999.99 -99999.99 -99999.99 -99999.99
12/25/2020 11:00:00 AM -99999.99 -179968 -99999.99 -99999.99 -99999.99 -99999.99
12/25/2020 11:15:00 AM -99999.99 -179968 -99999.99 -99999.99 -99999.99 -99999.99
12/25/2020 11:30:00 AM -99999.99 -179968 -99999.99 -99999.99 -99999.99 -99999.99
12/25/2020 11:45:00 AM -99999.99 -179968 -99999.99 -99999.99 -99999.99 -99999.99
12/25/2020 12:00:00 PM -99999.99 -179968 -99999.99 -99999.99 -99999.99 -99999.99
12/25/2020 12:15:00 PM -99999.99 -179968 -99999.99 -99999.99 -99999.99 -99999.99
12/25/2020 12:30:00 PM -99999.99 -179968 -99999.99 -99999.99 -99999.99 -99999.99
12/25/2020 12:45:00 PM -99999.99 -179968 -99999.99 -99999.99 -99999.99 -99999.99
12/25/2020 1:00:00 PM -99999.99 -179968 -99999.99 -99999.99 -99999.99 -99999.99
12/25/2020 1:15:00 PM -99999.99 -179968 -99999.99 -99999.99 -99999.99 -99999.99
12/25/2020 1:30:00 PM -99999.99 -179968 -99999.99 -99999.99 -99999.99 -99999.99
12/25/2020 1:45:00 PM -99999.99 -179968 -99999.99 -99999.99 -99999.99 -99999.99
12/25/2020 2:00:00 PM -99999.99 -179968 -99999.99 -99999.99 -99999.99 -99999.99
12/25/2020 2:15:00 PM -99999.99 -179968 -99999.99 -99999.99 -99999.99 -99999.99
12/25/2020 2:30:00 PM -99999.99 -179968 -99999.99 -99999.99 -99999.99 -99999.99
12/25/2020 2:45:00 PM -99999.99 -179968 -99999.99 -99999.99 -99999.99 -99999.99
12/25/2020 3:00:00 PM -99999.99 -179968 -99999.99 -99999.99 -99999.99 -99999.99
12/25/2020 3:15:00 PM -99999.99 -179968 -99999.99 -99999.99 -99999.99 -99999.99
12/25/2020 3:30:00 PM -99999.99 -179968 -99999.99 -99999.99 -99999.99 -99999.99
12/25/2020 3:45:00 PM -99999.99 -179968 -99999.99 -99999.99 -99999.99 -99999.99
12/25/2020 4:00:00 PM -99999.99 -179968 -99999.99 -99999.99 -99999.99 -99999.99
12/25/2020 4:15:00 PM -99999.99 -179968 -99999.99 -99999.99 -99999.99 -99999.99
12/25/2020 4:30:00 PM -99999.99 -179968 -99999.99 -99999.99 -99999.99 -99999.99
12/25/2020 4:45:00 PM -99999.99 -179968 -99999.99 -99999.99 -99999.99 -99999.99
12/25/2020 5:00:00 PM -99999.99 -179968 -99999.99 -99999.99 -99999.99 -99999.99
12/25/2020 5:15:00 PM -99999.99 -179968 -99999.99 -99999.99 -99999.99 -99999.99
12/25/2020 5:30:00 PM -99999.99 -179968 -99999.99 -99999.99 -99999.99 -99999.99
12/25/2020 5:45:00 PM -99999.99 -179968 -99999.99 -99999.99 -99999.99 -99999.99
12/25/2020 6:00:00 PM -99999.99 -179968 -99999.99 -99999.99 -99999.99 -99999.99
12/25/2020 6:15:00 PM -99999.99 -179968 -99999.99 -99999.99 -99999.99 -99999.99
12/25/2020 6:30:00 PM -99999.99 -179968 -99999.99 -99999.99 -99999.99 -99999.99
12/25/2020 6:45:00 PM -99999.99 -179968 -99999.99 -99999.99 -99999.99 -99999.99
12/25/2020 7:00:00 PM -99999.99 -179968 -99999.99 -99999.99 -99999.99 -99999.99
12/25/2020 7:15:00 PM -99999.99 -179968 -99999.99 -99999.99 -99999.99 -99999.99
12/25/2020 7:30:00 PM -99999.99 -179968 -99999.99 -99999.99 -99999.99 -99999.99
12/25/2020 7:45:00 PM -99999.99 -179968 -99999.99 -99999.99 -99999.99 -99999.99
12/25/2020 8:00:00 PM -99999.99 -179968 -99999.99 -99999.99 -99999.99 -99999.99
12/25/2020 8:15:00 PM -99999.99 -179968 -99999.99 -99999.99 -99999.99 -99999.99
12/25/2020 8:30:00 PM -99999.99 -179968 -99999.99 -99999.99 -99999.99 -99999.99
12/25/2020 8:45:00 PM -99999.99 -179968 -99999.99 -99999.99 -99999.99 -99999.99
12/25/2020 9:00:00 PM -99999.99 -179968 -99999.99 -99999.99 -99999.99 -99999.99
12/25/2020 9:15:00 PM -99999.99 -179968 -99999.99 -99999.99 -99999.99 -99999.99
12/25/2020 9:30:00 PM -99999.99 -179968 -99999.99 -99999.99 -99999.99 -99999.99
12/25/2020 9:45:00 PM -99999.99 -179968 -99999.99 -99999.99 -99999.99 -99999.99
12/25/2020 10:00:00 PM -99999.99 -179968 -99999.99 -99999.99 -99999.99 -99999.99
12/25/2020 10:15:00 PM -99999.99 -179968 -99999.99 -99999.99 -99999.99 -99999.99
12/25/2020 10:30:00 PM -99999.99 -179968 -99999.99 -99999.99 -99999.99 -99999.99
12/25/2020 10:45:00 PM -99999.99 -179968 -99999.99 -99999.99 -99999.99 -99999.99
12/25/2020 11:00:00 PM -99999.99 -179968 -99999.99 -99999.99 -99999.99 -99999.99
12/25/2020 11:15:00 PM -99999.99 -179968 -99999.99 -99999.99 -99999.99 -99999.99
12/25/2020 11:30:00 PM -99999.99 -179968 -99999.99 -99999.99 -99999.99 -99999.99
12/25/2020 11:45:00 PM -99999.99 -179968 -99999.99 -99999.99 -99999.99 -99999.99
12/26/2020 12:00:00 AM -99999.99 -179968 -99999.99 -99999.99 -99999.99 -99999.99
12/26/2020 12:15:00 AM -99999.99 -179968 -99999.99 -99999.99 -99999.99 -99999.99
12/26/2020 12:30:00 AM -99999.99 -179968 -99999.99 -99999.99 -99999.99 -99999.99
12/26/2020 12:45:00 AM -99999.99 -179968 -99999.99 -99999.99 -99999.99 -99999.99
12/26/2020 1:00:00 AM -99999.99 -179968 -99999.99 -99999.99 -99999.99 -99999.99
12/26/2020 1:15:00 AM -99999.99 -179968 -99999.99 -99999.99 -99999.99 -99999.99
12/26/2020 1:30:00 AM -99999.99 -179968 -99999.99 -99999.99 -99999.99 -99999.99
12/26/2020 1:45:00 AM -99999.99 -179968 -99999.99 -99999.99 -99999.99 -99999.99
12/26/2020 2:00:00 AM -99999.99 -179968 -99999.99 -99999.99 -99999.99 -99999.99
12/26/2020 2:15:00 AM -99999.99 -179968 -99999.99 -99999.99 -99999.99 -99999.99
12/26/2020 2:30:00 AM -99999.99 -179968 -99999.99 -99999.99 -99999.99 -99999.99
12/26/2020 2:45:00 AM -99999.99 -179968 -99999.99 -99999.99 -99999.99 -99999.99
12/26/2020 3:00:00 AM -99999.99 -179968 -99999.99 -99999.99 -99999.99 -99999.99
12/26/2020 3:15:00 AM -99999.99 -179968 -99999.99 -99999.99 -99999.99 -99999.99
12/26/2020 3:30:00 AM -99999.99 -179968 -99999.99 -99999.99 -99999.99 -99999.99
12/26/2020 3:45:00 AM -99999.99 -179968 -99999.99 -99999.99 -99999.99 -99999.99
12/26/2020 4:00:00 AM -99999.99 -179968 -99999.99 -99999.99 -99999.99 -99999.99
12/26/2020 4:15:00 AM -99999.99 -179968 -99999.99 -99999.99 -99999.99 -99999.99
12/26/2020 4:30:00 AM -99999.99 -179968 -99999.99 -99999.99 -99999.99 -99999.99
12/26/2020 4:45:00 AM -99999.99 -179968 -99999.99 -99999.99 -99999.99 -99999.99
12/26/2020 5:00:00 AM -99999.99 -179968 -99999.99 -99999.99 -99999.99 -99999.99
12/26/2020 5:15:00 AM -99999.99 -179968 -99999.99 -99999.99 -99999.99 -99999.99
12/26/2020 5:30:00 AM -99999.99 -179968 -99999.99 -99999.99 -99999.99 -99999.99
12/26/2020 5:45:00 AM -99999.99 -179968 -99999.99 -99999.99 -99999.99 -99999.99
12/26/2020 6:00:00 AM -99999.99 -179968 -99999.99 -99999.99 -99999.99 -99999.99
12/26/2020 6:15:00 AM -99999.99 -179968 -99999.99 -99999.99 -99999.99 -99999.99
12/26/2020 6:30:00 AM -99999.99 -179968 -99999.99 -99999.99 -99999.99 -99999.99
12/26/2020 6:45:00 AM -99999.99 -179968 -99999.99 -99999.99 -99999.99 -99999.99
12/26/2020 7:00:00 AM -99999.99 -179968 -99999.99 -99999.99 -99999.99 -99999.99
12/26/2020 7:15:00 AM -99999.99 -179968 -99999.99 -99999.99 -99999.99 -99999.99
12/26/2020 7:30:00 AM -99999.99 -179968 -99999.99 -99999.99 -99999.99 -99999.99
12/26/2020 7:45:00 AM -99999.99 -179968 -99999.99 -99999.99 -99999.99 -99999.99
12/26/2020 8:00:00 AM -99999.99 -179968 -99999.99 -99999.99 -99999.99 -99999.99
12/26/2020 8:15:00 AM -99999.99 -179968 -99999.99 -99999.99 -99999.99 -99999.99
12/26/2020 8:30:00 AM -99999.99 -179968 -99999.99 -99999.99 -99999.99 -99999.99
12/26/2020 8:45:00 AM -99999.99 -179968 -99999.99 -99999.99 -99999.99 -99999.99
12/26/2020 9:00:00 AM -99999.99 -179968 -99999.99 -99999.99 -99999.99 -99999.99
12/26/2020 9:15:00 AM -99999.99 -179968 -99999.99 -99999.99 -99999.99 -99999.99
12/26/2020 9:30:00 AM -99999.99 -179968 -99999.99 -99999.99 -99999.99 -99999.99
12/26/2020 9:45:00 AM -99999.99 -179968 -99999.99 -99999.99 -99999.99 -99999.99
12/26/2020 10:00:00 AM -99999.99 -179968 -99999.99 -99999.99 -99999.99 -99999.99
12/26/2020 10:15:00 AM -99999.99 -179968 -99999.99 -99999.99 -99999.99 -99999.99
12/26/2020 10:30:00 AM -99999.99 -179968 -99999.99 -99999.99 -99999.99 -99999.99
12/26/2020 10:45:00 AM -99999.99 -179968 -99999.99 -99999.99 -99999.99 -99999.99
12/26/2020 11:00:00 AM -99999.99 -179968 -99999.99 -99999.99 -99999.99 -99999.99
12/26/2020 11:15:00 AM -99999.99 -179968 -99999.99 -99999.99 -99999.99 -99999.99
12/26/2020 11:30:00 AM -99999.99 -179968 -99999.99 -99999.99 -99999.99 -99999.99
12/26/2020 11:45:00 AM -99999.99 -179968 -99999.99 -99999.99 -99999.99 -99999.99
12/26/2020 12:00:00 PM -99999.99 -179968 -99999.99 -99999.99 -99999.99 -99999.99
12/26/2020 12:15:00 PM -99999.99 -179968 -99999.99 -99999.99 -99999.99 -99999.99
12/26/2020 12:30:00 PM -99999.99 -179968 -99999.99 -99999.99 -99999.99 -99999.99
12/26/2020 12:45:00 PM -99999.99 -179968 -99999.99 -99999.99 -99999.99 -99999.99
12/26/2020 1:00:00 PM -99999.99 -179968 -99999.99 -99999.99 -99999.99 -99999.99
12/26/2020 1:15:00 PM -99999.99 -179968 -99999.99 -99999.99 -99999.99 -99999.99
12/26/2020 1:30:00 PM -99999.99 -179968 -99999.99 -99999.99 -99999.99 -99999.99
12/26/2020 1:45:00 PM -99999.99 -179968 -99999.99 -99999.99 -99999.99 -99999.99
12/26/2020 2:00:00 PM -99999.99 -179968 -99999.99 -99999.99 -99999.99 -99999.99
12/26/2020 2:15:00 PM -99999.99 -179968 -99999.99 -99999.99 -99999.99 -99999.99
12/26/2020 2:30:00 PM -99999.99 -179968 -99999.99 -99999.99 -99999.99 -99999.99
12/26/2020 2:45:00 PM -99999.99 -179968 -99999.99 -99999.99 -99999.99 -99999.99
12/26/2020 3:00:00 PM -99999.99 -179968 -99999.99 -99999.99 -99999.99 -99999.99
12/26/2020 3:15:00 PM -99999.99 -179968 -99999.99 -99999.99 -99999.99 -99999.99
12/26/2020 3:30:00 PM -99999.99 -179968 -99999.99 -99999.99 -99999.99 -99999.99
12/26/2020 3:45:00 PM -99999.99 -179968 -99999.99 -99999.99 -99999.99 -99999.99
12/26/2020 4:00:00 PM -99999.99 -179968 -99999.99 -99999.99 -99999.99 -99999.99
12/26/2020 4:15:00 PM -99999.99 -179968 -99999.99 -99999.99 -99999.99 -99999.99
12/26/2020 4:30:00 PM -99999.99 -179968 -99999.99 -99999.99 -99999.99 -99999.99
12/26/2020 4:45:00 PM -99999.99 -179968 -99999.99 -99999.99 -99999.99 -99999.99
12/26/2020 5:00:00 PM -99999.99 -179968 -99999.99 -99999.99 -99999.99 -99999.99
12/26/2020 5:15:00 PM -99999.99 -179968 -99999.99 -99999.99 -99999.99 -99999.99
12/26/2020 5:30:00 PM -99999.99 -179968 -99999.99 -99999.99 -99999.99 -99999.99
12/26/2020 5:45:00 PM -99999.99 -179968 -99999.99 -99999.99 -99999.99 -99999.99
12/26/2020 6:00:00 PM -99999.99 -179968 -99999.99 -99999.99 -99999.99 -99999.99
12/26/2020 6:15:00 PM -99999.99 -179968 -99999.99 -99999.99 -99999.99 -99999.99
12/26/2020 6:30:00 PM -99999.99 -179968 -99999.99 -99999.99 -99999.99 -99999.99
12/26/2020 6:45:00 PM -99999.99 -179968 -99999.99 -99999.99 -99999.99 -99999.99
12/26/2020 7:00:00 PM -99999.99 -179968 -99999.99 -99999.99 -99999.99 -99999.99
12/26/2020 7:15:00 PM -99999.99 -179968 -99999.99 -99999.99 -99999.99 -99999.99
12/26/2020 7:30:00 PM -99999.99 -179968 -99999.99 -99999.99 -99999.99 -99999.99
12/26/2020 7:45:00 PM -99999.99 -179968 -99999.99 -99999.99 -99999.99 -99999.99
12/26/2020 8:00:00 PM -99999.99 -179968 -99999.99 -99999.99 -99999.99 -99999.99
12/26/2020 8:15:00 PM -99999.99 -179968 -99999.99 -99999.99 -99999.99 -99999.99
12/26/2020 8:30:00 PM -99999.99 -179968 -99999.99 -99999.99 -99999.99 -99999.99
12/26/2020 8:45:00 PM -99999.99 -179968 -99999.99 -99999.99 -99999.99 -99999.99
12/26/2020 9:00:00 PM -99999.99 -179968 -99999.99 -99999.99 -99999.99 -99999.99
12/26/2020 9:15:00 PM -99999.99 -179968 -99999.99 -99999.99 -99999.99 -99999.99
12/26/2020 9:30:00 PM -99999.99 -179968 -99999.99 -99999.99 -99999.99 -99999.99
12/26/2020 9:45:00 PM -99999.99 -179968 -99999.99 -99999.99 -99999.99 -99999.99
12/26/2020 10:00:00 PM -99999.99 -179968 -99999.99 -99999.99 -99999.99 -99999.99
12/26/2020 10:15:00 PM -99999.99 -179968 -99999.99 -99999.99 -99999.99 -99999.99
12/26/2020 10:30:00 PM -99999.99 -179968 -99999.99 -99999.99 -99999.99 -99999.99
12/26/2020 10:45:00 PM -99999.99 -179968 -99999.99 -99999.99 -99999.99 -99999.99
12/26/2020 11:00:00 PM -99999.99 -179968 -99999.99 -99999.99 -99999.99 -99999.99
12/26/2020 11:15:00 PM -99999.99 -179968 -99999.99 -99999.99 -99999.99 -99999.99
12/26/2020 11:30:00 PM -99999.99 -179968 -99999.99 -99999.99 -99999.99 -99999.99
12/26/2020 11:45:00 PM -99999.99 -179968 -99999.99 -99999.99 -99999.99 -99999.99
12/27/2020 12:00:00 AM -99999.99 -179968 -99999.99 -99999.99 -99999.99 -99999.99
12/27/2020 12:15:00 AM -99999.99 -179968 -99999.99 -99999.99 -99999.99 -99999.99
12/27/2020 12:30:00 AM -99999.99 -179968 -99999.99 -99999.99 -99999.99 -99999.99
12/27/2020 12:45:00 AM -99999.99 -179968 -99999.99 -99999.99 -99999.99 -99999.99
12/27/2020 1:00:00 AM -99999.99 -179968 -99999.99 -99999.99 -99999.99 -99999.99
12/27/2020 1:15:00 AM -99999.99 -179968 -99999.99 -99999.99 -99999.99 -99999.99
12/27/2020 1:30:00 AM -99999.99 -179968 -99999.99 -99999.99 -99999.99 -99999.99
12/27/2020 1:45:00 AM -99999.99 -179968 -99999.99 -99999.99 -99999.99 -99999.99
12/27/2020 2:00:00 AM -99999.99 -179968 -99999.99 -99999.99 -99999.99 -99999.99
12/27/2020 2:15:00 AM -99999.99 -179968 -99999.99 -99999.99 -99999.99 -99999.99
12/27/2020 2:30:00 AM -99999.99 -179968 -99999.99 -99999.99 -99999.99 -99999.99
12/27/2020 2:45:00 AM -99999.99 -179968 -99999.99 -99999.99 -99999.99 -99999.99
12/27/2020 3:00:00 AM -99999.99 -179968 -99999.99 -99999.99 -99999.99 -99999.99
12/27/2020 3:15:00 AM -99999.99 -179968 -99999.99 -99999.99 -99999.99 -99999.99
12/27/2020 3:30:00 AM -99999.99 -179968 -99999.99 -99999.99 -99999.99 -99999.99
12/27/2020 3:45:00 AM -99999.99 -179968 -99999.99 -99999.99 -99999.99 -99999.99
12/27/2020 4:00:00 AM -99999.99 -179968 -99999.99 -99999.99 -99999.99 -99999.99
12/27/2020 4:15:00 AM -99999.99 -179968 -99999.99 -99999.99 -99999.99 -99999.99
12/27/2020 4:30:00 AM -99999.99 -179968 -99999.99 -99999.99 -99999.99 -99999.99
12/27/2020 4:45:00 AM -99999.99 -179968 -99999.99 -99999.99 -99999.99 -99999.99
12/27/2020 5:00:00 AM -99999.99 -179968 -99999.99 -99999.99 -99999.99 -99999.99
12/27/2020 5:15:00 AM -99999.99 -179968 -99999.99 -99999.99 -99999.99 -99999.99
12/27/2020 5:30:00 AM -99999.99 -179968 -99999.99 -99999.99 -99999.99 -99999.99
12/27/2020 5:45:00 AM -99999.99 -179968 -99999.99 -99999.99 -99999.99 -99999.99
12/27/2020 6:00:00 AM -99999.99 -179968 -99999.99 -99999.99 -99999.99 -99999.99
12/27/2020 6:15:00 AM -99999.99 -179968 -99999.99 -99999.99 -99999.99 -99999.99
12/27/2020 6:30:00 AM -99999.99 -179968 -99999.99 -99999.99 -99999.99 -99999.99
12/27/2020 6:45:00 AM -99999.99 -179968 -99999.99 -99999.99 -99999.99 -99999.99
12/27/2020 7:00:00 AM -99999.99 -179968 -99999.99 -99999.99 -99999.99 -99999.99
12/27/2020 7:15:00 AM -99999.99 -179968 -99999.99 -99999.99 -99999.99 -99999.99
12/27/2020 7:30:00 AM -99999.99 -179968 -99999.99 -99999.99 -99999.99 -99999.99
12/27/2020 7:45:00 AM -99999.99 -179968 -99999.99 -99999.99 -99999.99 -99999.99
12/27/2020 8:00:00 AM -99999.99 -179968 -99999.99 -99999.99 -99999.99 -99999.99
12/27/2020 8:15:00 AM -99999.99 -179968 -99999.99 -99999.99 -99999.99 -99999.99
12/27/2020 8:30:00 AM -99999.99 -179968 -99999.99 -99999.99 -99999.99 -99999.99
12/27/2020 8:45:00 AM -99999.99 -179968 -99999.99 -99999.99 -99999.99 -99999.99
12/27/2020 9:00:00 AM -99999.99 -179968 -99999.99 -99999.99 -99999.99 -99999.99
12/27/2020 9:15:00 AM -99999.99 -179968 -99999.99 -99999.99 -99999.99 -99999.99
12/27/2020 9:30:00 AM -99999.99 -179968 -99999.99 -99999.99 -99999.99 -99999.99
12/27/2020 9:45:00 AM -99999.99 -179968 -99999.99 -99999.99 -99999.99 -99999.99
12/27/2020 10:00:00 AM -99999.99 -179968 -99999.99 -99999.99 -99999.99 -99999.99
12/27/2020 10:15:00 AM -99999.99 -179968 -99999.99 -99999.99 -99999.99 -99999.99
12/27/2020 10:30:00 AM -99999.99 -179968 -99999.99 -99999.99 -99999.99 -99999.99
12/27/2020 10:45:00 AM -99999.99 -179968 -99999.99 -99999.99 -99999.99 -99999.99
12/27/2020 11:00:00 AM -99999.99 -179968 -99999.99 -99999.99 -99999.99 -99999.99
12/27/2020 11:15:00 AM -99999.99 -179968 -99999.99 -99999.99 -99999.99 -99999.99
12/27/2020 11:30:00 AM -99999.99 -179968 -99999.99 -99999.99 -99999.99 -99999.99
12/27/2020 11:45:00 AM -99999.99 -179968 -99999.99 -99999.99 -99999.99 -99999.99
12/27/2020 12:00:00 PM -99999.99 -179968 -99999.99 -99999.99 -99999.99 -99999.99
12/27/2020 12:15:00 PM -99999.99 -179968 -99999.99 -99999.99 -99999.99 -99999.99
12/27/2020 12:30:00 PM -99999.99 -179968 -99999.99 -99999.99 -99999.99 -99999.99
12/27/2020 12:45:00 PM -99999.99 -179968 -99999.99 -99999.99 -99999.99 -99999.99
12/27/2020 1:00:00 PM -99999.99 -179968 -99999.99 -99999.99 -99999.99 -99999.99
12/27/2020 1:15:00 PM -99999.99 -179968 -99999.99 -99999.99 -99999.99 -99999.99
12/27/2020 1:30:00 PM -99999.99 -179968 -99999.99 -99999.99 -99999.99 -99999.99
12/27/2020 1:45:00 PM -99999.99 -179968 -99999.99 -99999.99 -99999.99 -99999.99
12/27/2020 2:00:00 PM -99999.99 -179968 -99999.99 -99999.99 -99999.99 -99999.99
12/27/2020 2:15:00 PM -99999.99 -179968 -99999.99 -99999.99 -99999.99 -99999.99
12/27/2020 2:30:00 PM -99999.99 -179968 -99999.99 -99999.99 -99999.99 -99999.99
12/27/2020 2:45:00 PM -99999.99 -179968 -99999.99 -99999.99 -99999.99 -99999.99
12/27/2020 3:00:00 PM -99999.99 -179968 -99999.99 -99999.99 -99999.99 -99999.99
12/27/2020 3:15:00 PM -99999.99 -179968 -99999.99 -99999.99 -99999.99 -99999.99
12/27/2020 3:30:00 PM -99999.99 -179968 -99999.99 -99999.99 -99999.99 -99999.99
12/27/2020 3:45:00 PM -99999.99 -179968 -99999.99 -99999.99 -99999.99 -99999.99
12/27/2020 4:00:00 PM -99999.99 -179968 -99999.99 -99999.99 -99999.99 -99999.99
12/27/2020 4:15:00 PM -99999.99 -179968 -99999.99 -99999.99 -99999.99 -99999.99
12/27/2020 4:30:00 PM -99999.99 -179968 -99999.99 -99999.99 -99999.99 -99999.99
12/27/2020 4:45:00 PM -99999.99 -179968 -99999.99 -99999.99 -99999.99 -99999.99
12/27/2020 5:00:00 PM -99999.99 -179968 -99999.99 -99999.99 -99999.99 -99999.99
12/27/2020 5:15:00 PM -99999.99 -179968 -99999.99 -99999.99 -99999.99 -99999.99
12/27/2020 5:30:00 PM -99999.99 -179968 -99999.99 -99999.99 -99999.99 -99999.99
12/27/2020 5:45:00 PM -99999.99 -179968 -99999.99 -99999.99 -99999.99 -99999.99
12/27/2020 6:00:00 PM -99999.99 -179968 -99999.99 -99999.99 -99999.99 -99999.99
12/27/2020 6:15:00 PM -99999.99 -179968 -99999.99 -99999.99 -99999.99 -99999.99
12/27/2020 6:30:00 PM -99999.99 -179968 -99999.99 -99999.99 -99999.99 -99999.99
12/27/2020 6:45:00 PM -99999.99 -179968 -99999.99 -99999.99 -99999.99 -99999.99
12/27/2020 7:00:00 PM -99999.99 -179968 -99999.99 -99999.99 -99999.99 -99999.99
12/27/2020 7:15:00 PM -99999.99 -179968 -99999.99 -99999.99 -99999.99 -99999.99
12/27/2020 7:30:00 PM -99999.99 -179968 -99999.99 -99999.99 -99999.99 -99999.99
12/27/2020 7:45:00 PM -99999.99 -179968 -99999.99 -99999.99 -99999.99 -99999.99
12/27/2020 8:00:00 PM -99999.99 -179968 -99999.99 -99999.99 -99999.99 -99999.99
12/27/2020 8:15:00 PM -99999.99 -179968 -99999.99 -99999.99 -99999.99 -99999.99
12/27/2020 8:30:00 PM -99999.99 -179968 -99999.99 -99999.99 -99999.99 -99999.99
12/27/2020 8:45:00 PM -99999.99 -179968 -99999.99 -99999.99 -99999.99 -99999.99
12/27/2020 9:00:00 PM -99999.99 -179968 -99999.99 -99999.99 -99999.99 -99999.99
12/27/2020 9:15:00 PM -99999.99 -179968 -99999.99 -99999.99 -99999.99 -99999.99
12/27/2020 9:30:00 PM -99999.99 -179968 -99999.99 -99999.99 -99999.99 -99999.99
12/27/2020 9:45:00 PM -99999.99 -179968 -99999.99 -99999.99 -99999.99 -99999.99
12/27/2020 10:00:00 PM -99999.99 -179968 -99999.99 -99999.99 -99999.99 -99999.99
12/27/2020 10:15:00 PM -99999.99 -179968 -99999.99 -99999.99 -99999.99 -99999.99
12/27/2020 10:30:00 PM -99999.99 -179968 -99999.99 -99999.99 -99999.99 -99999.99
12/27/2020 10:45:00 PM -99999.99 -179968 -99999.99 -99999.99 -99999.99 -99999.99
12/27/2020 11:00:00 PM -99999.99 -179968 -99999.99 -99999.99 -99999.99 -99999.99
12/27/2020 11:15:00 PM -99999.99 -179968 -99999.99 -99999.99 -99999.99 -99999.99
12/27/2020 11:30:00 PM -99999.99 -179968 -99999.99 -99999.99 -99999.99 -99999.99
12/27/2020 11:45:00 PM -99999.99 -179968 -99999.99 -99999.99 -99999.99 -99999.99
12/28/2020 12:00:00 AM -99999.99 -179968 -99999.99 -99999.99 -99999.99 -99999.99
12/28/2020 12:15:00 AM -99999.99 -179968 -99999.99 -99999.99 -99999.99 -99999.99
12/28/2020 12:30:00 AM -99999.99 -179968 -99999.99 -99999.99 -99999.99 -99999.99
12/28/2020 12:45:00 AM -99999.99 -179968 -99999.99 -99999.99 -99999.99 -99999.99
12/28/2020 1:00:00 AM -99999.99 -179968 -99999.99 -99999.99 -99999.99 -99999.99
12/28/2020 1:15:00 AM -99999.99 -179968 -99999.99 -99999.99 -99999.99 -99999.99
12/28/2020 1:30:00 AM -99999.99 -179968 -99999.99 -99999.99 -99999.99 -99999.99
12/28/2020 1:45:00 AM -99999.99 -179968 -99999.99 -99999.99 -99999.99 -99999.99
12/28/2020 2:00:00 AM -99999.99 -179968 -99999.99 -99999.99 -99999.99 -99999.99
12/28/2020 2:15:00 AM -99999.99 -179968 -99999.99 -99999.99 -99999.99 -99999.99
12/28/2020 2:30:00 AM -99999.99 -179968 -99999.99 -99999.99 -99999.99 -99999.99
12/28/2020 2:45:00 AM -99999.99 -179968 -99999.99 -99999.99 -99999.99 -99999.99
12/28/2020 3:00:00 AM -99999.99 -179968 -99999.99 -99999.99 -99999.99 -99999.99
12/28/2020 3:15:00 AM -99999.99 -179968 -99999.99 -99999.99 -99999.99 -99999.99
12/28/2020 3:30:00 AM -99999.99 -179968 -99999.99 -99999.99 -99999.99 -99999.99
12/28/2020 3:45:00 AM -99999.99 -179968 -99999.99 -99999.99 -99999.99 -99999.99
12/28/2020 4:00:00 AM -99999.99 -179968 -99999.99 -99999.99 -99999.99 -99999.99
12/28/2020 4:15:00 AM -99999.99 -179968 -99999.99 -99999.99 -99999.99 -99999.99
12/28/2020 4:30:00 AM -99999.99 -179968 -99999.99 -99999.99 -99999.99 -99999.99
12/28/2020 4:45:00 AM -99999.99 -179968 -99999.99 -99999.99 -99999.99 -99999.99
12/28/2020 5:00:00 AM -99999.99 -179968 -99999.99 -99999.99 -99999.99 -99999.99
12/28/2020 5:15:00 AM -99999.99 -179968 -99999.99 -99999.99 -99999.99 -99999.99
12/28/2020 5:30:00 AM -99999.99 -179968 -99999.99 -99999.99 -99999.99 -99999.99
12/28/2020 5:45:00 AM -99999.99 -179968 -99999.99 -99999.99 -99999.99 -99999.99
12/28/2020 6:00:00 AM -99999.99 -179968 -99999.99 -99999.99 -99999.99 -99999.99
12/28/2020 6:15:00 AM -99999.99 -179968 -99999.99 -99999.99 -99999.99 -99999.99
12/28/2020 6:30:00 AM -99999.99 -179968 -99999.99 -99999.99 -99999.99 -99999.99
12/28/2020 6:45:00 AM -99999.99 -179968 -99999.99 -99999.99 -99999.99 -99999.99
12/28/2020 7:00:00 AM -99999.99 -179968 -99999.99 -99999.99 -99999.99 -99999.99
12/28/2020 7:15:00 AM -99999.99 -179968 -99999.99 -99999.99 -99999.99 -99999.99
12/28/2020 7:30:00 AM -99999.99 -179968 -99999.99 -99999.99 -99999.99 -99999.99
12/28/2020 7:45:00 AM -99999.99 -179968 -99999.99 -99999.99 -99999.99 -99999.99
12/28/2020 8:00:00 AM -99999.99 -179968 -99999.99 -99999.99 -99999.99 -99999.99
12/28/2020 8:15:00 AM -99999.99 -179968 -99999.99 -99999.99 -99999.99 -99999.99
12/28/2020 8:30:00 AM -99999.99 -179968 -99999.99 -99999.99 -99999.99 -99999.99
12/28/2020 8:45:00 AM -99999.99 -179968 -99999.99 -99999.99 -99999.99 -99999.99
12/28/2020 9:00:00 AM -99999.99 -179968 -99999.99 -99999.99 -99999.99 -99999.99
12/28/2020 9:15:00 AM -99999.99 -179968 -99999.99 -99999.99 -99999.99 -99999.99
12/28/2020 9:30:00 AM -99999.99 -179968 -99999.99 -99999.99 -99999.99 -99999.99
12/28/2020 9:45:00 AM -99999.99 -179968 -99999.99 -99999.99 -99999.99 -99999.99
12/28/2020 10:00:00 AM -99999.99 -179968 -99999.99 -99999.99 -99999.99 -99999.99
12/28/2020 10:15:00 AM -99999.99 -179968 -99999.99 -99999.99 -99999.99 -99999.99
12/28/2020 10:30:00 AM -99999.99 -179968 -99999.99 -99999.99 -99999.99 -99999.99
12/28/2020 10:45:00 AM -99999.99 -179968 -99999.99 -99999.99 -99999.99 -99999.99
12/28/2020 11:00:00 AM -99999.99 -179968 -99999.99 -99999.99 -99999.99 -99999.99
12/28/2020 11:15:00 AM -99999.99 -179968 -99999.99 -99999.99 -99999.99 -99999.99
12/28/2020 11:30:00 AM -99999.99 -179968 -99999.99 -99999.99 -99999.99 -99999.99
12/28/2020 11:45:00 AM -99999.99 -179968 -99999.99 -99999.99 -99999.99 -99999.99
12/28/2020 12:00:00 PM -99999.99 -179968 -99999.99 -99999.99 -99999.99 -99999.99
12/28/2020 12:15:00 PM -99999.99 -179968 -99999.99 -99999.99 -99999.99 -99999.99
12/28/2020 12:30:00 PM -99999.99 -179968 -99999.99 -99999.99 -99999.99 -99999.99
12/28/2020 12:45:00 PM -99999.99 -179968 -99999.99 -99999.99 -99999.99 -99999.99
12/28/2020 1:00:00 PM -99999.99 -179968 -99999.99 -99999.99 -99999.99 -99999.99
12/28/2020 1:15:00 PM -99999.99 -179968 -99999.99 -99999.99 -99999.99 -99999.99
12/28/2020 1:30:00 PM -99999.99 -179968 -99999.99 -99999.99 -99999.99 -99999.99
12/28/2020 1:45:00 PM -99999.99 -179968 -99999.99 -99999.99 -99999.99 -99999.99
12/28/2020 2:00:00 PM -99999.99 -179968 -99999.99 -99999.99 -99999.99 -99999.99
12/28/2020 2:15:00 PM -99999.99 -179968 -99999.99 -99999.99 -99999.99 -99999.99
12/28/2020 2:30:00 PM -99999.99 -179968 -99999.99 -99999.99 -99999.99 -99999.99
12/28/2020 2:45:00 PM -99999.99 -179968 -99999.99 -99999.99 -99999.99 -99999.99
12/28/2020 3:00:00 PM -99999.99 -179968 -99999.99 -99999.99 -99999.99 -99999.99
12/28/2020 3:15:00 PM -99999.99 -179968 -99999.99 -99999.99 -99999.99 -99999.99
12/28/2020 3:30:00 PM -99999.99 -179968 -99999.99 -99999.99 -99999.99 -99999.99
12/28/2020 3:45:00 PM -99999.99 -179968 -99999.99 -99999.99 -99999.99 -99999.99
12/28/2020 4:00:00 PM -99999.99 -179968 -99999.99 -99999.99 -99999.99 -99999.99
12/28/2020 4:15:00 PM -99999.99 -179968 -99999.99 -99999.99 -99999.99 -99999.99
12/28/2020 4:30:00 PM -99999.99 -179968 -99999.99 -99999.99 -99999.99 -99999.99
12/28/2020 4:45:00 PM -99999.99 -179968 -99999.99 -99999.99 -99999.99 -99999.99
12/28/2020 5:00:00 PM -99999.99 -179968 -99999.99 -99999.99 -99999.99 -99999.99
12/28/2020 5:15:00 PM -99999.99 -179968 -99999.99 -99999.99 -99999.99 -99999.99
12/28/2020 5:30:00 PM -99999.99 -179968 -99999.99 -99999.99 -99999.99 -99999.99
12/28/2020 5:45:00 PM -99999.99 -179968 -99999.99 -99999.99 -99999.99 -99999.99
12/28/2020 6:00:00 PM -99999.99 -179968 -99999.99 -99999.99 -99999.99 -99999.99
12/28/2020 6:15:00 PM -99999.99 -179968 -99999.99 -99999.99 -99999.99 -99999.99
12/28/2020 6:30:00 PM -99999.99 -179968 -99999.99 -99999.99 -99999.99 -99999.99
12/28/2020 6:45:00 PM -99999.99 -179968 -99999.99 -99999.99 -99999.99 -99999.99
12/28/2020 7:00:00 PM -99999.99 -179968 -99999.99 -99999.99 -99999.99 -99999.99
12/28/2020 7:15:00 PM -99999.99 -179968 -99999.99 -99999.99 -99999.99 -99999.99
12/28/2020 7:30:00 PM -99999.99 -179968 -99999.99 -99999.99 -99999.99 -99999.99
12/28/2020 7:45:00 PM -99999.99 -179968 -99999.99 -99999.99 -99999.99 -99999.99
12/28/2020 8:00:00 PM -99999.99 -179968 -99999.99 -99999.99 -99999.99 -99999.99
12/28/2020 8:15:00 PM -99999.99 -179968 -99999.99 -99999.99 -99999.99 -99999.99
12/28/2020 8:30:00 PM -99999.99 -179968 -99999.99 -99999.99 -99999.99 -99999.99
12/28/2020 8:45:00 PM -99999.99 -179968 -99999.99 -99999.99 -99999.99 -99999.99
12/28/2020 9:00:00 PM -99999.99 -179968 -99999.99 -99999.99 -99999.99 -99999.99
12/28/2020 9:15:00 PM -99999.99 -179968 -99999.99 -99999.99 -99999.99 -99999.99
12/28/2020 9:30:00 PM -99999.99 -179968 -99999.99 -99999.99 -99999.99 -99999.99
12/28/2020 9:45:00 PM -99999.99 -179968 -99999.99 -99999.99 -99999.99 -99999.99
12/28/2020 10:00:00 PM -99999.99 -179968 -99999.99 -99999.99 -99999.99 -99999.99
12/28/2020 10:15:00 PM -99999.99 -179968 -99999.99 -99999.99 -99999.99 -99999.99
12/28/2020 10:30:00 PM -99999.99 -179968 -99999.99 -99999.99 -99999.99 -99999.99
12/28/2020 10:45:00 PM -99999.99 -179968 -99999.99 -99999.99 -99999.99 -99999.99
12/28/2020 11:00:00 PM -99999.99 -179968 -99999.99 -99999.99 -99999.99 -99999.99
12/28/2020 11:15:00 PM -99999.99 -179968 -99999.99 -99999.99 -99999.99 -99999.99
12/28/2020 11:30:00 PM -99999.99 -179968 -99999.99 -99999.99 -99999.99 -99999.99
12/28/2020 11:45:00 PM -99999.99 -179968 -99999.99 -99999.99 -99999.99 -99999.99
12/29/2020 12:00:00 AM -99999.99 -179968 -99999.99 -99999.99 -99999.99 -99999.99
12/29/2020 12:15:00 AM -99999.99 -179968 -99999.99 -99999.99 -99999.99 -99999.99
12/29/2020 12:30:00 AM -99999.99 -179968 -99999.99 -99999.99 -99999.99 -99999.99
12/29/2020 12:45:00 AM -99999.99 -179968 -99999.99 -99999.99 -99999.99 -99999.99
12/29/2020 1:00:00 AM -99999.99 -179968 -99999.99 -99999.99 -99999.99 -99999.99
12/29/2020 1:15:00 AM -99999.99 -179968 -99999.99 -99999.99 -99999.99 -99999.99
12/29/2020 1:30:00 AM -99999.99 -179968 -99999.99 -99999.99 -99999.99 -99999.99
12/29/2020 1:45:00 AM -99999.99 -179968 -99999.99 -99999.99 -99999.99 -99999.99
12/29/2020 2:00:00 AM -99999.99 -179968 -99999.99 -99999.99 -99999.99 -99999.99
12/29/2020 2:15:00 AM -99999.99 -179968 -99999.99 -99999.99 -99999.99 -99999.99
12/29/2020 2:30:00 AM -99999.99 -179968 -99999.99 -99999.99 -99999.99 -99999.99
12/29/2020 2:45:00 AM -99999.99 -179968 -99999.99 -99999.99 -99999.99 -99999.99
12/29/2020 3:00:00 AM -99999.99 -179968 -99999.99 -99999.99 -99999.99 -99999.99
12/29/2020 3:15:00 AM -99999.99 -179968 -99999.99 -99999.99 -99999.99 -99999.99
12/29/2020 3:30:00 AM -99999.99 -179968 -99999.99 -99999.99 -99999.99 -99999.99
12/29/2020 3:45:00 AM -99999.99 -179968 -99999.99 -99999.99 -99999.99 -99999.99
12/29/2020 4:00:00 AM -99999.99 -179968 -99999.99 -99999.99 -99999.99 -99999.99
12/29/2020 4:15:00 AM -99999.99 -179968 -99999.99 -99999.99 -99999.99 -99999.99
12/29/2020 4:30:00 AM -99999.99 -179968 -99999.99 -99999.99 -99999.99 -99999.99
12/29/2020 4:45:00 AM -99999.99 -179968 -99999.99 -99999.99 -99999.99 -99999.99
12/29/2020 5:00:00 AM -99999.99 -179968 -99999.99 -99999.99 -99999.99 -99999.99
12/29/2020 5:15:00 AM -99999.99 -179968 -99999.99 -99999.99 -99999.99 -99999.99
12/29/2020 5:30:00 AM -99999.99 -179968 -99999.99 -99999.99 -99999.99 -99999.99
12/29/2020 5:45:00 AM -99999.99 -179968 -99999.99 -99999.99 -99999.99 -99999.99
12/29/2020 6:00:00 AM -99999.99 -179968 -99999.99 -99999.99 -99999.99 -99999.99
12/29/2020 6:15:00 AM -99999.99 -179968 -99999.99 -99999.99 -99999.99 -99999.99
12/29/2020 6:30:00 AM -99999.99 -179968 -99999.99 -99999.99 -99999.99 -99999.99
12/29/2020 6:45:00 AM -99999.99 -179968 -99999.99 -99999.99 -99999.99 -99999.99
12/29/2020 7:00:00 AM -99999.99 -179968 -99999.99 -99999.99 -99999.99 -99999.99
12/29/2020 7:15:00 AM -99999.99 -179968 -99999.99 -99999.99 -99999.99 -99999.99
12/29/2020 7:30:00 AM -99999.99 -179968 -99999.99 -99999.99 -99999.99 -99999.99
12/29/2020 7:45:00 AM -99999.99 -179968 -99999.99 -99999.99 -99999.99 -99999.99
12/29/2020 8:00:00 AM -99999.99 -179968 -99999.99 -99999.99 -99999.99 -99999.99
12/29/2020 8:15:00 AM -99999.99 -179968 -99999.99 -99999.99 -99999.99 -99999.99
12/29/2020 8:30:00 AM -99999.99 -179968 -99999.99 -99999.99 -99999.99 -99999.99
12/29/2020 8:45:00 AM -99999.99 -179968 -99999.99 -99999.99 -99999.99 -99999.99
12/29/2020 9:00:00 AM -99999.99 -179968 -99999.99 -99999.99 -99999.99 -99999.99
12/29/2020 9:15:00 AM -99999.99 -179968 -99999.99 -99999.99 -99999.99 -99999.99
12/29/2020 9:30:00 AM -99999.99 -179968 -99999.99 -99999.99 -99999.99 -99999.99
12/29/2020 9:45:00 AM -99999.99 -179968 -99999.99 -99999.99 -99999.99 -99999.99
12/29/2020 10:00:00 AM -99999.99 -179968 -99999.99 -99999.99 -99999.99 -99999.99
12/29/2020 10:15:00 AM -99999.99 -179968 -99999.99 -99999.99 -99999.99 -99999.99
12/29/2020 10:30:00 AM -99999.99 -179968 -99999.99 -99999.99 -99999.99 -99999.99
12/29/2020 10:45:00 AM -99999.99 -179968 -99999.99 -99999.99 -99999.99 -99999.99
12/29/2020 11:00:00 AM -99999.99 -179968 -99999.99 -99999.99 -99999.99 -99999.99
12/29/2020 11:15:00 AM -99999.99 -179968 -99999.99 -99999.99 -99999.99 -99999.99
12/29/2020 11:30:00 AM -99999.99 -179968 -99999.99 -99999.99 -99999.99 -99999.99
12/29/2020 11:45:00 AM -99999.99 -179968 -99999.99 -99999.99 -99999.99 -99999.99
12/29/2020 12:00:00 PM -99999.99 -179968 -99999.99 -99999.99 -99999.99 -99999.99
12/29/2020 12:15:00 PM -99999.99 -179968 -99999.99 -99999.99 -99999.99 -99999.99
12/29/2020 12:30:00 PM -99999.99 -179968 -99999.99 -99999.99 -99999.99 -99999.99
12/29/2020 12:45:00 PM -99999.99 -179968 -99999.99 -99999.99 -99999.99 -99999.99
12/29/2020 1:00:00 PM -99999.99 -179968 -99999.99 -99999.99 -99999.99 -99999.99
12/29/2020 1:15:00 PM -99999.99 -179968 -99999.99 -99999.99 -99999.99 -99999.99
12/29/2020 1:30:00 PM -99999.99 -179968 -99999.99 -99999.99 -99999.99 -99999.99
12/29/2020 1:45:00 PM -99999.99 -179968 -99999.99 -99999.99 -99999.99 -99999.99
12/29/2020 2:00:00 PM -99999.99 -179968 -99999.99 -99999.99 -99999.99 -99999.99
12/29/2020 2:15:00 PM -99999.99 -179968 -99999.99 -99999.99 -99999.99 -99999.99
12/29/2020 2:30:00 PM -99999.99 -179968 -99999.99 -99999.99 -99999.99 -99999.99
12/29/2020 2:45:00 PM -99999.99 -179968 -99999.99 -99999.99 -99999.99 -99999.99
12/29/2020 3:00:00 PM -99999.99 -179968 -99999.99 -99999.99 -99999.99 -99999.99
12/29/2020 3:15:00 PM -99999.99 -179968 -99999.99 -99999.99 -99999.99 -99999.99
12/29/2020 3:30:00 PM -99999.99 -179968 -99999.99 -99999.99 -99999.99 -99999.99
12/29/2020 3:45:00 PM -99999.99 -179968 -99999.99 -99999.99 -99999.99 -99999.99
12/29/2020 4:00:00 PM -99999.99 -179968 -99999.99 -99999.99 -99999.99 -99999.99
12/29/2020 4:15:00 PM -99999.99 -179968 -99999.99 -99999.99 -99999.99 -99999.99
12/29/2020 4:30:00 PM -99999.99 -179968 -99999.99 -99999.99 -99999.99 -99999.99
12/29/2020 4:45:00 PM -99999.99 -179968 -99999.99 -99999.99 -99999.99 -99999.99
12/29/2020 5:00:00 PM -99999.99 -179968 -99999.99 -99999.99 -99999.99 -99999.99
12/29/2020 5:15:00 PM -99999.99 -179968 -99999.99 -99999.99 -99999.99 -99999.99
12/29/2020 5:30:00 PM -99999.99 -179968 -99999.99 -99999.99 -99999.99 -99999.99
12/29/2020 5:45:00 PM -99999.99 -179968 -99999.99 -99999.99 -99999.99 -99999.99
12/29/2020 6:00:00 PM -99999.99 -179968 -99999.99 -99999.99 -99999.99 -99999.99
12/29/2020 6:15:00 PM -99999.99 -179968 -99999.99 -99999.99 -99999.99 -99999.99
12/29/2020 6:30:00 PM -99999.99 -179968 -99999.99 -99999.99 -99999.99 -99999.99
12/29/2020 6:45:00 PM -99999.99 -179968 -99999.99 -99999.99 -99999.99 -99999.99
12/29/2020 7:00:00 PM -99999.99 -179968 -99999.99 -99999.99 -99999.99 -99999.99
12/29/2020 7:15:00 PM -99999.99 -179968 -99999.99 -99999.99 -99999.99 -99999.99
12/29/2020 7:30:00 PM -99999.99 -179968 -99999.99 -99999.99 -99999.99 -99999.99
12/29/2020 7:45:00 PM -99999.99 -179968 -99999.99 -99999.99 -99999.99 -99999.99
12/29/2020 8:00:00 PM -99999.99 -179968 -99999.99 -99999.99 -99999.99 -99999.99
12/29/2020 8:15:00 PM -99999.99 -179968 -99999.99 -99999.99 -99999.99 -99999.99
12/29/2020 8:30:00 PM -99999.99 -179968 -99999.99 -99999.99 -99999.99 -99999.99
12/29/2020 8:45:00 PM -99999.99 -179968 -99999.99 -99999.99 -99999.99 -99999.99
12/29/2020 9:00:00 PM -99999.99 -179968 -99999.99 -99999.99 -99999.99 -99999.99
12/29/2020 9:15:00 PM -99999.99 -179968 -99999.99 -99999.99 -99999.99 -99999.99
12/29/2020 9:30:00 PM -99999.99 -179968 -99999.99 -99999.99 -99999.99 -99999.99
12/29/2020 9:45:00 PM -99999.99 -179968 -99999.99 -99999.99 -99999.99 -99999.99
12/29/2020 10:00:00 PM -99999.99 -179968 -99999.99 -99999.99 -99999.99 -99999.99
12/29/2020 10:15:00 PM -99999.99 -179968 -99999.99 -99999.99 -99999.99 -99999.99
12/29/2020 10:30:00 PM -99999.99 -179968 -99999.99 -99999.99 -99999.99 -99999.99
12/29/2020 10:45:00 PM -99999.99 -179968 -99999.99 -99999.99 -99999.99 -99999.99
12/29/2020 11:00:00 PM -99999.99 -179968 -99999.99 -99999.99 -99999.99 -99999.99
12/29/2020 11:15:00 PM -99999.99 -179968 -99999.99 -99999.99 -99999.99 -99999.99
12/29/2020 11:30:00 PM -99999.99 -179968 -99999.99 -99999.99 -99999.99 -99999.99
12/29/2020 11:45:00 PM -99999.99 -179968 -99999.99 -99999.99 -99999.99 -99999.99
12/30/2020 12:00:00 AM -99999.99 -179968 -99999.99 -99999.99 -99999.99 -99999.99
12/30/2020 12:15:00 AM -99999.99 -179968 -99999.99 -99999.99 -99999.99 -99999.99
12/30/2020 12:30:00 AM -99999.99 -179968 -99999.99 -99999.99 -99999.99 -99999.99
12/30/2020 12:45:00 AM -99999.99 -179968 -99999.99 -99999.99 -99999.99 -99999.99
12/30/2020 1:00:00 AM -99999.99 -179968 -99999.99 -99999.99 -99999.99 -99999.99
12/30/2020 1:15:00 AM -99999.99 -179968 -99999.99 -99999.99 -99999.99 -99999.99
12/30/2020 1:30:00 AM -99999.99 -179968 -99999.99 -99999.99 -99999.99 -99999.99
12/30/2020 1:45:00 AM -99999.99 -179968 -99999.99 -99999.99 -99999.99 -99999.99
12/30/2020 2:00:00 AM -99999.99 -179968 -99999.99 -99999.99 -99999.99 -99999.99
12/30/2020 2:15:00 AM -99999.99 -179968 -99999.99 -99999.99 -99999.99 -99999.99
12/30/2020 2:30:00 AM -99999.99 -179968 -99999.99 -99999.99 -99999.99 -99999.99
12/30/2020 2:45:00 AM -99999.99 -179968 -99999.99 -99999.99 -99999.99 -99999.99
12/30/2020 3:00:00 AM -99999.99 -179968 -99999.99 -99999.99 -99999.99 -99999.99
12/30/2020 3:15:00 AM -99999.99 -179968 -99999.99 -99999.99 -99999.99 -99999.99
12/30/2020 3:30:00 AM -99999.99 -179968 -99999.99 -99999.99 -99999.99 -99999.99
12/30/2020 3:45:00 AM -99999.99 -179968 -99999.99 -99999.99 -99999.99 -99999.99
12/30/2020 4:00:00 AM -99999.99 -179968 -99999.99 -99999.99 -99999.99 -99999.99
12/30/2020 4:15:00 AM -99999.99 -179968 -99999.99 -99999.99 -99999.99 -99999.99
12/30/2020 4:30:00 AM -99999.99 -179968 -99999.99 -99999.99 -99999.99 -99999.99
12/30/2020 4:45:00 AM -99999.99 -179968 -99999.99 -99999.99 -99999.99 -99999.99
12/30/2020 5:00:00 AM -99999.99 -179968 -99999.99 -99999.99 -99999.99 -99999.99
12/30/2020 5:15:00 AM -99999.99 -179968 -99999.99 -99999.99 -99999.99 -99999.99
12/30/2020 5:30:00 AM -99999.99 -179968 -99999.99 -99999.99 -99999.99 -99999.99
12/30/2020 5:45:00 AM -99999.99 -179968 -99999.99 -99999.99 -99999.99 -99999.99
12/30/2020 6:00:00 AM -99999.99 -179968 -99999.99 -99999.99 -99999.99 -99999.99
12/30/2020 6:15:00 AM -99999.99 -179968 -99999.99 -99999.99 -99999.99 -99999.99
12/30/2020 6:30:00 AM -99999.99 -179968 -99999.99 -99999.99 -99999.99 -99999.99
12/30/2020 6:45:00 AM -99999.99 -179968 -99999.99 -99999.99 -99999.99 -99999.99
12/30/2020 7:00:00 AM -99999.99 -179968 -99999.99 -99999.99 -99999.99 -99999.99
12/30/2020 7:15:00 AM -99999.99 -179968 -99999.99 -99999.99 -99999.99 -99999.99
12/30/2020 7:30:00 AM -99999.99 -179968 -99999.99 -99999.99 -99999.99 -99999.99
12/30/2020 7:45:00 AM -99999.99 -179968 -99999.99 -99999.99 -99999.99 -99999.99
12/30/2020 8:00:00 AM -99999.99 -179968 -99999.99 -99999.99 -99999.99 -99999.99
12/30/2020 8:15:00 AM -99999.99 -179968 -99999.99 -99999.99 -99999.99 -99999.99
12/30/2020 8:30:00 AM -99999.99 -179968 -99999.99 -99999.99 -99999.99 -99999.99
12/30/2020 8:45:00 AM -99999.99 -179968 -99999.99 -99999.99 -99999.99 -99999.99
12/30/2020 9:00:00 AM -99999.99 -179968 -99999.99 -99999.99 -99999.99 -99999.99
12/30/2020 9:15:00 AM -99999.99 -179968 -99999.99 -99999.99 -99999.99 -99999.99
12/30/2020 9:30:00 AM -99999.99 -179968 -99999.99 -99999.99 -99999.99 -99999.99
12/30/2020 9:45:00 AM -99999.99 -179968 -99999.99 -99999.99 -99999.99 -99999.99
12/30/2020 10:00:00 AM -99999.99 -179968 -99999.99 -99999.99 -99999.99 -99999.99
12/30/2020 10:15:00 AM -99999.99 -179968 -99999.99 -99999.99 -99999.99 -99999.99
12/30/2020 10:30:00 AM -99999.99 -179968 -99999.99 -99999.99 -99999.99 -99999.99
12/30/2020 10:45:00 AM -99999.99 -179968 -99999.99 -99999.99 -99999.99 -99999.99
12/30/2020 11:00:00 AM -99999.99 -179968 -99999.99 -99999.99 -99999.99 -99999.99
12/30/2020 11:15:00 AM -99999.99 -179968 -99999.99 -99999.99 -99999.99 -99999.99
12/30/2020 11:30:00 AM -99999.99 -179968 -99999.99 -99999.99 -99999.99 -99999.99
12/30/2020 11:45:00 AM -99999.99 -179968 -99999.99 -99999.99 -99999.99 -99999.99
12/30/2020 12:00:00 PM -99999.99 -179968 -99999.99 -99999.99 -99999.99 -99999.99
12/30/2020 12:15:00 PM -99999.99 -179968 -99999.99 -99999.99 -99999.99 -99999.99
12/30/2020 12:30:00 PM -99999.99 -179968 -99999.99 -99999.99 -99999.99 -99999.99
12/30/2020 12:45:00 PM -99999.99 -179968 -99999.99 -99999.99 -99999.99 -99999.99
12/30/2020 1:00:00 PM -99999.99 -179968 -99999.99 -99999.99 -99999.99 -99999.99
12/30/2020 1:15:00 PM -99999.99 -179968 -99999.99 -99999.99 -99999.99 -99999.99
12/30/2020 1:30:00 PM -99999.99 -179968 -99999.99 -99999.99 -99999.99 -99999.99
12/30/2020 1:45:00 PM -99999.99 -179968 -99999.99 -99999.99 -99999.99 -99999.99
12/30/2020 2:00:00 PM -99999.99 -179968 -99999.99 -99999.99 -99999.99 -99999.99
12/30/2020 2:15:00 PM -99999.99 -179968 -99999.99 -99999.99 -99999.99 -99999.99
12/30/2020 2:30:00 PM -99999.99 -179968 -99999.99 -99999.99 -99999.99 -99999.99
12/30/2020 2:45:00 PM -99999.99 -179968 -99999.99 -99999.99 -99999.99 -99999.99
12/30/2020 3:00:00 PM -99999.99 -179968 -99999.99 -99999.99 -99999.99 -99999.99
12/30/2020 3:15:00 PM -99999.99 -179968 -99999.99 -99999.99 -99999.99 -99999.99
12/30/2020 3:30:00 PM -99999.99 -179968 -99999.99 -99999.99 -99999.99 -99999.99
12/30/2020 3:45:00 PM -99999.99 -179968 -99999.99 -99999.99 -99999.99 -99999.99
12/30/2020 4:00:00 PM -99999.99 -179968 -99999.99 -99999.99 -99999.99 -99999.99
12/30/2020 4:15:00 PM -99999.99 -179968 -99999.99 -99999.99 -99999.99 -99999.99
12/30/2020 4:30:00 PM -99999.99 -179968 -99999.99 -99999.99 -99999.99 -99999.99
12/30/2020 4:45:00 PM -99999.99 -179968 -99999.99 -99999.99 -99999.99 -99999.99
12/30/2020 5:00:00 PM -99999.99 -179968 -99999.99 -99999.99 -99999.99 -99999.99
12/30/2020 5:15:00 PM -99999.99 -179968 -99999.99 -99999.99 -99999.99 -99999.99
12/30/2020 5:30:00 PM -99999.99 -179968 -99999.99 -99999.99 -99999.99 -99999.99
12/30/2020 5:45:00 PM -99999.99 -179968 -99999.99 -99999.99 -99999.99 -99999.99
12/30/2020 6:00:00 PM -99999.99 -179968 -99999.99 -99999.99 -99999.99 -99999.99
12/30/2020 6:15:00 PM -99999.99 -179968 -99999.99 -99999.99 -99999.99 -99999.99
12/30/2020 6:30:00 PM -99999.99 -179968 -99999.99 -99999.99 -99999.99 -99999.99
12/30/2020 6:45:00 PM -99999.99 -179968 -99999.99 -99999.99 -99999.99 -99999.99
12/30/2020 7:00:00 PM -99999.99 -179968 -99999.99 -99999.99 -99999.99 -99999.99
12/30/2020 7:15:00 PM -99999.99 -179968 -99999.99 -99999.99 -99999.99 -99999.99
12/30/2020 7:30:00 PM -99999.99 -179968 -99999.99 -99999.99 -99999.99 -99999.99
12/30/2020 7:45:00 PM -99999.99 -179968 -99999.99 -99999.99 -99999.99 -99999.99
12/30/2020 8:00:00 PM -99999.99 -179968 -99999.99 -99999.99 -99999.99 -99999.99
12/30/2020 8:15:00 PM -99999.99 -179968 -99999.99 -99999.99 -99999.99 -99999.99
12/30/2020 8:30:00 PM -99999.99 -179968 -99999.99 -99999.99 -99999.99 -99999.99
12/30/2020 8:45:00 PM -99999.99 -179968 -99999.99 -99999.99 -99999.99 -99999.99
12/30/2020 9:00:00 PM -99999.99 -179968 -99999.99 -99999.99 -99999.99 -99999.99
12/30/2020 9:15:00 PM -99999.99 -179968 -99999.99 -99999.99 -99999.99 -99999.99
12/30/2020 9:30:00